Provisional Data: Hammer Creek near Route 322


Please select a monitoring station.
Please select start date.
Please select start date.

Toggle Unit: C/F Toggle Unit: C/F
Sample Time Temperature (C) Temperature (F) Specific Conductivity (mS/cm) pH   Turbidity (NTU+) DO (mg/L)
9/6/2021 12:00:00 AM 15.73 60.314 0.439 7.58 9.2 9.43
9/6/2021 12:15:00 AM 15.68 60.224 0.439 7.58 9 9.43
9/6/2021 12:30:00 AM 15.64 60.152 0.44 7.58 9.25 9.44
9/6/2021 12:45:00 AM 15.6 60.08 0.44 7.58 9.48 9.45
9/6/2021 1:00:00 AM 15.56 60.008 0.441 7.58 9.81 9.46
9/6/2021 1:15:00 AM 15.53 59.954 0.441 7.58 10.02 9.47
9/6/2021 1:30:00 AM 15.5 59.9 0.441 7.58 9.58 9.47
9/6/2021 1:45:00 AM 15.46 59.828 0.441 7.58 11.47 9.48
9/6/2021 2:00:00 AM 15.44 59.792 0.441 7.58 10.56 9.49
9/6/2021 2:15:00 AM 15.41 59.738 0.442 7.58 8.61 9.5
9/6/2021 2:30:00 AM 15.38 59.684 0.442 7.58 9.89 9.51
9/6/2021 2:45:00 AM 15.34 59.612 0.442 7.59 9.98 9.5
9/6/2021 3:00:00 AM 15.31 59.558 0.442 7.59 9.71 9.52
9/6/2021 3:15:00 AM 15.28 59.504 0.443 7.59 9.89 9.53
9/6/2021 3:30:00 AM 15.24 59.432 0.443 7.59 9.85 9.53
9/6/2021 3:45:00 AM 15.22 59.396 0.443 7.59 9.56 9.54
9/6/2021 4:00:00 AM 15.19 59.342 0.443 7.59 9.9 9.55
9/6/2021 4:15:00 AM 15.17 59.306 0.443 7.59 10.02 9.55
9/6/2021 4:30:00 AM 15.15 59.27 0.443 7.58 10.06 9.56
9/6/2021 4:45:00 AM 15.13 59.234 0.444 7.58 9.68 9.57
9/6/2021 5:00:00 AM 15.12 59.216 0.444 7.59 9.62 9.57
9/6/2021 5:15:00 AM 15.11 59.198 0.444 7.59 9.09 9.57
9/6/2021 5:30:00 AM 15.1 59.18 0.444 7.59 8.99 9.57
9/6/2021 5:45:00 AM 15.08 59.144 0.444 7.59 9.86 9.59
9/6/2021 6:00:00 AM 15.06 59.108 0.444 7.6 10.68 9.58
9/6/2021 6:15:00 AM 15.05 59.09 0.445 7.6 9.71 9.59
9/6/2021 6:30:00 AM 15.03 59.054 0.445 7.6 9.63 9.6
9/6/2021 6:45:00 AM 15.01 59.018 0.445 7.6 9.21 9.6
9/6/2021 7:00:00 AM 14.99 58.982 0.445 7.61 9.12 9.6
9/6/2021 7:15:00 AM 14.98 58.964 0.445 7.61 8.95 9.62
9/6/2021 7:30:00 AM 14.97 58.946 0.446 7.62 8.59 9.63
9/6/2021 7:45:00 AM 14.96 58.928 0.446 7.62 8.55 9.64
9/6/2021 8:00:00 AM 14.96 58.928 0.446 7.63 8.03 9.65
9/6/2021 8:15:00 AM 14.95 58.91 0.446 7.63 7.62 9.66
9/6/2021 8:30:00 AM 14.95 58.91 0.446 7.63 7.41 9.67
9/6/2021 8:45:00 AM 14.95 58.91 0.446 7.64 7.04 9.68
9/6/2021 9:00:00 AM 14.97 58.946 0.446 7.64 6.6 9.7
9/6/2021 9:15:00 AM 14.99 58.982 0.447 7.64 6.17 9.71
9/6/2021 9:30:00 AM 15.01 59.018 0.447 7.65 5.96 9.72
9/6/2021 9:45:00 AM 15.05 59.09 0.447 7.65 6.03 9.74
9/6/2021 10:00:00 AM 15.1 59.18 0.447 7.66 5.78 9.76
9/6/2021 10:15:00 AM 15.15 59.27 0.447 7.67 5.84 9.78
9/6/2021 10:30:00 AM 15.21 59.378 0.448 7.67 6.09 9.79
9/6/2021 10:45:00 AM 15.29 59.522 0.448 7.68 6.04 9.81
9/6/2021 11:00:00 AM 15.39 59.702 0.448 7.69 5.47 9.83
9/6/2021 11:15:00 AM 15.49 59.882 0.448 7.69 5.31 9.85
9/6/2021 11:30:00 AM 15.63 60.134 0.448 7.69 5.14 9.86
9/6/2021 11:45:00 AM 15.79 60.422 0.449 7.7 5.13 9.85
9/6/2021 12:00:00 PM 15.98 60.764 0.449 7.72 5.17 9.86
9/6/2021 12:15:00 PM 16.21 61.178 0.449 7.72 4.74 9.84
9/6/2021 12:30:00 PM 16.46 61.628 0.449 7.73 4.87 9.83
9/6/2021 12:45:00 PM 16.72 62.096 0.449 7.74 4.96 9.81
9/6/2021 1:00:00 PM 17 62.6 0.45 7.75 4.78 9.78
9/6/2021 1:15:00 PM 17.26 63.068 0.45 7.76 4.87 9.75
9/6/2021 1:30:00 PM 17.52 63.536 0.45 7.77 4.86 9.71
9/6/2021 1:45:00 PM 17.76 63.968 0.45 7.77 4.9 9.67
9/6/2021 2:00:00 PM 17.92 64.256 0.451 7.78 4.91 9.62
9/6/2021 2:15:00 PM 18.13 64.634 0.451 7.79 5 9.57
9/6/2021 2:30:00 PM 18.35 65.03 0.451 7.79 5.19 9.55
9/6/2021 2:45:00 PM 18.5 65.3 0.451 7.79 5.34 9.51
9/6/2021 3:00:00 PM 18.62 65.516 0.451 7.8 5.62 9.49
9/6/2021 3:15:00 PM 18.73 65.714 0.451 7.8 5.58 9.44
9/6/2021 3:30:00 PM 18.82 65.876 0.452 7.81 5.47 9.41
9/6/2021 3:45:00 PM 18.9 66.02 0.452 7.8 14.6 9.38
9/6/2021 4:00:00 PM 19 66.2 0.452 7.81 5.45 9.35
9/6/2021 4:15:00 PM 19.05 66.29 0.452 7.81 5.36 9.32
9/6/2021 4:30:00 PM 19.08 66.344 0.453 7.81 5.57 9.29
9/6/2021 4:45:00 PM 19.07 66.326 0.453 7.81 5.57 9.26
9/6/2021 5:00:00 PM 19.06 66.308 0.453 7.81 5.42 9.22
9/6/2021 5:15:00 PM 19 66.2 0.454 7.8 5.37 9.19
9/6/2021 5:30:00 PM 18.97 66.146 0.454 7.8 5.32 9.17
9/6/2021 5:45:00 PM 18.91 66.038 0.454 7.8 5.76 9.16
9/6/2021 6:00:00 PM 18.84 65.912 0.454 7.79 5.53 9.13
9/6/2021 6:15:00 PM 18.77 65.786 0.455 7.79 5.67 9.12
9/6/2021 6:30:00 PM 18.68 65.624 0.455 7.78 6.13 9.1
9/6/2021 6:45:00 PM 18.58 65.444 0.455 7.77 14.3 9.1
9/6/2021 7:00:00 PM 18.49 65.282 0.455 7.77 12.73 9.09
9/6/2021 7:15:00 PM 18.41 65.138 0.456 7.77 6.57 9.08
9/6/2021 7:30:00 PM 18.34 65.012 0.456 7.77 5.92 9.08
9/6/2021 7:45:00 PM 18.27 64.886 0.456 7.76 6.22 9.07
9/6/2021 8:00:00 PM 18.19 64.742 0.456 7.76 6.41 9.07
9/6/2021 8:15:00 PM 18.11 64.598 0.456 7.76 7.09 9.07
9/6/2021 8:30:00 PM 18.02 64.436 0.457 7.76 7.53 9.08
9/6/2021 8:45:00 PM 17.91 64.238 0.457 7.75 7.99 9.09
9/6/2021 9:00:00 PM 17.78 64.004 0.457 7.75 8.67 9.1
9/6/2021 9:15:00 PM 17.65 63.77 0.457 7.75 8.37 9.11
9/6/2021 9:30:00 PM 17.51 63.518 0.458 7.75 7.77 9.14
9/6/2021 9:45:00 PM 17.36 63.248 0.458 7.74 7.89 9.17
9/6/2021 10:00:00 PM 17.2 62.96 0.458 7.74 8.25 9.19
9/6/2021 10:15:00 PM 17.04 62.672 0.459 7.74 8.52 9.23
9/6/2021 10:30:00 PM 16.88 62.384 0.459 7.73 8.49 9.26
9/6/2021 10:45:00 PM 16.71 62.078 0.459 7.73 8.55 9.29
9/6/2021 11:00:00 PM 16.55 61.79 0.46 7.73 8.79 9.32
9/6/2021 11:15:00 PM 16.4 61.52 0.46 7.72 8.19 9.35
9/6/2021 11:30:00 PM 16.25 61.25 0.46 7.72 8.42 9.38
9/6/2021 11:45:00 PM 16.11 60.998 0.46 7.72 8.45 9.4
9/7/2021 12:00:00 AM 15.99 60.782 0.46 7.72 9.09 9.43
9/7/2021 12:15:00 AM 15.86 60.548 0.461 7.71 8.84 9.45
9/7/2021 12:30:00 AM 15.74 60.332 0.461 7.71 8.87 9.48
9/7/2021 12:45:00 AM 15.64 60.152 0.461 7.71 8.55 9.5
9/7/2021 1:00:00 AM 15.53 59.954 0.462 7.7 9.73 9.53
9/7/2021 1:15:00 AM 15.43 59.774 0.462 7.71 9.02 9.55
9/7/2021 1:30:00 AM 15.33 59.594 0.462 7.71 9.69 9.58
9/7/2021 1:45:00 AM 15.24 59.432 0.462 7.71 9.83 9.59
9/7/2021 2:00:00 AM 15.15 59.27 0.463 7.71 9.4 9.62
9/7/2021 2:15:00 AM 15.06 59.108 0.463 7.71 9.67 9.64
9/7/2021 2:30:00 AM 14.98 58.964 0.463 7.71 8.96 9.66
9/7/2021 2:45:00 AM 14.9 58.82 0.463 7.71 10.05 9.68
9/7/2021 3:00:00 AM 14.82 58.676 0.463 7.72 10.12 9.7
9/7/2021 3:15:00 AM 14.75 58.55 0.463 7.71 9.2 9.71
9/7/2021 3:30:00 AM 14.68 58.424 0.463 7.71 8.5 9.73
9/7/2021 3:45:00 AM 14.62 58.316 0.463 7.71 9.91 9.75
9/7/2021 4:00:00 AM 14.55 58.19 0.464 7.7 8.92 9.76
9/7/2021 4:15:00 AM 14.49 58.082 0.464 7.71 9.28 9.78
9/7/2021 4:30:00 AM 14.43 57.974 0.464 7.71 9.88 9.79
9/7/2021 4:45:00 AM 14.38 57.884 0.464 7.71 9.21 9.81
9/7/2021 5:00:00 AM 14.32 57.776 0.464 7.71 8.95 9.82
9/7/2021 5:15:00 AM 14.27 57.686 0.464 7.7 8.37 9.83
9/7/2021 5:30:00 AM 14.22 57.596 0.464 7.71 8.06 9.85
9/7/2021 5:45:00 AM 14.17 57.506 0.464 7.71 8.17 9.86
9/7/2021 6:00:00 AM 14.12 57.416 0.464 7.7 8.55 9.87
9/7/2021 6:15:00 AM 14.08 57.344 0.464 7.71 8.56 9.88
9/7/2021 6:30:00 AM 14.03 57.254 0.464 7.71 8.78 9.89
9/7/2021 6:45:00 AM 13.99 57.182 0.464 7.71 7.96 9.91
9/7/2021 7:00:00 AM 13.95 57.11 0.464 7.71 7.39 9.93
9/7/2021 7:15:00 AM 13.91 57.038 0.464 7.71 6.9 9.94
9/7/2021 7:30:00 AM 13.88 56.984 0.464 7.71 6.86 9.96
9/7/2021 7:45:00 AM 13.85 56.93 0.464 7.71 6.58 9.97
9/7/2021 8:00:00 AM 13.83 56.894 0.464 7.71 6.27 9.98
9/7/2021 8:15:00 AM 13.81 56.858 0.464 7.7 5.91 10
9/7/2021 8:30:00 AM 13.81 56.858 0.464 7.71 5.76 10.01
9/7/2021 8:45:00 AM 13.81 56.858 0.464 7.71 5.47 10.03
9/7/2021 9:00:00 AM 13.81 56.858 0.464 7.7 13.52 10.05
9/7/2021 9:15:00 AM 13.84 56.912 0.464 7.71 12.04 10.07
9/7/2021 9:30:00 AM 13.86 56.948 0.464 7.72 4.73 10.09
9/7/2021 9:45:00 AM 13.9 57.02 0.465 7.72 4.55 10.1
9/7/2021 10:00:00 AM 13.96 57.128 0.465 7.72 4.45 10.13
9/7/2021 10:15:00 AM 14.03 57.254 0.465 7.73 4.32 10.14
9/7/2021 10:30:00 AM 14.1 57.38 0.465 7.73 4.73 10.15
9/7/2021 10:45:00 AM 14.19 57.542 0.465 7.72 11.55 10.17
9/7/2021 11:00:00 AM 14.31 57.758 0.465 7.73 4.03 10.19
9/7/2021 11:15:00 AM 14.44 57.992 0.465 7.74 4.11 10.19
9/7/2021 11:30:00 AM 14.59 58.262 0.465 7.75 4.11 10.2
9/7/2021 11:45:00 AM 14.77 58.586 0.465 7.76 3.94 10.2
9/7/2021 12:00:00 PM 14.98 58.964 0.465 7.77 3.93 10.2
9/7/2021 12:15:00 PM 15.22 59.396 0.465 7.78 3.83 10.2
9/7/2021 12:30:00 PM 15.49 59.882 0.465 7.79 3.87 10.18
9/7/2021 12:45:00 PM 15.78 60.404 0.465 7.8 3.82 10.16
9/7/2021 1:00:00 PM 16.07 60.926 0.465 7.81 3.79 10.12
9/7/2021 1:15:00 PM 16.36 61.448 0.465 7.82 3.87 10.09
9/7/2021 1:30:00 PM 16.65 61.97 0.465 7.83 3.82 10.04
9/7/2021 1:45:00 PM 16.93 62.474 0.465 7.84 4.06 10
9/7/2021 2:00:00 PM 17.19 62.942 0.465 7.83 4.01 9.96
9/7/2021 2:15:00 PM 17.44 63.392 0.465 7.86 3.98 9.9
9/7/2021 2:30:00 PM 17.65 63.77 0.466 7.86 4.26 9.87
9/7/2021 2:45:00 PM 17.81 64.058 0.466 7.87 4.26 9.83
9/7/2021 3:00:00 PM 17.96 64.328 0.466 7.87 4.33 9.8
9/7/2021 3:15:00 PM 18.06 64.508 0.467 7.88 4.23 9.75
9/7/2021 3:30:00 PM 18.21 64.778 0.467 7.88 4.67 9.71
9/7/2021 3:45:00 PM 18.32 64.976 0.467 7.87 4.86 9.66
9/7/2021 4:00:00 PM 18.44 65.192 0.467 7.88 4.87 9.63
9/7/2021 4:15:00 PM 18.56 65.408 0.467 7.86 12.12 9.59
9/7/2021 4:30:00 PM 18.6 65.48 0.467 7.88 4.84 9.54
9/7/2021 4:45:00 PM 18.65 65.57 0.467 7.86 11.55 9.49
9/7/2021 5:00:00 PM 18.67 65.606 0.467 7.87 4.91 9.44
9/7/2021 5:15:00 PM 18.68 65.624 0.467 7.87 5.09 9.39
9/7/2021 5:30:00 PM 18.67 65.606 0.468 7.85 11.86 9.35
9/7/2021 5:45:00 PM 18.65 65.57 0.468 7.86 4.76 9.31
9/7/2021 6:00:00 PM 18.63 65.534 0.468 7.85 4.73 9.28
9/7/2021 6:15:00 PM 18.6 65.48 0.468 7.85 4.96 9.25
9/7/2021 6:30:00 PM 18.55 65.39 0.468 7.84 4.87 9.22
9/7/2021 6:45:00 PM 18.5 65.3 0.468 7.83 4.71 9.2
9/7/2021 7:00:00 PM 18.44 65.192 0.468 7.83 5.23 9.19
9/7/2021 7:15:00 PM 18.37 65.066 0.469 7.82 4.79 9.17
9/7/2021 7:30:00 PM 18.31 64.958 0.469 7.81 5.03 9.15
9/7/2021 7:45:00 PM 18.26 64.868 0.469 7.8 5.08 9.14
9/7/2021 8:00:00 PM 18.21 64.778 0.469 7.8 5.57 9.12
9/7/2021 8:15:00 PM 18.15 64.67 0.469 7.8 5.96 9.11
9/7/2021 8:30:00 PM 18.08 64.544 0.469 7.79 6.48 9.11
9/7/2021 8:45:00 PM 18.01 64.418 0.47 7.79 6.96 9.1
9/7/2021 9:00:00 PM 17.93 64.274 0.47 7.79 6.84 9.11
9/7/2021 9:15:00 PM 17.83 64.094 0.47 7.78 7.32 9.12
9/7/2021 9:30:00 PM 17.71 63.878 0.47 7.78 7.22 9.13
9/7/2021 9:45:00 PM 17.59 63.662 0.471 7.77 8.54 9.15
9/7/2021 10:00:00 PM 17.45 63.41 0.471 7.77 7.73 9.18
9/7/2021 10:15:00 PM 17.31 63.158 0.472 7.77 7.91 9.2
9/7/2021 10:30:00 PM 17.17 62.906 0.472 7.76 7.42 9.22
9/7/2021 10:45:00 PM 17.02 62.636 0.473 7.76 7.41 9.25
9/7/2021 11:00:00 PM 16.88 62.384 0.473 7.76 7.71 9.27
9/7/2021 11:15:00 PM 16.74 62.132 0.473 7.76 7.78 9.29
9/7/2021 11:30:00 PM 16.6 61.88 0.473 7.75 7.46 9.32
9/7/2021 11:45:00 PM 16.47 61.646 0.473 7.75 9.03 9.34
9/8/2021 12:00:00 AM 16.37 61.466 0.473 7.75 9.2 9.35
9/8/2021 12:15:00 AM 16.26 61.268 0.473 7.75 8.59 9.38
9/8/2021 12:30:00 AM 16.17 61.106 0.473 7.74 8.07 9.39
9/8/2021 12:45:00 AM 16.08 60.944 0.473 7.74 9.08 9.41
9/8/2021 1:00:00 AM 16 60.8 0.474 7.73 7.77 9.43
9/8/2021 1:15:00 AM 15.91 60.638 0.474 7.74 7.78 9.45
9/8/2021 1:30:00 AM 15.84 60.512 0.474 7.74 7.33 9.46
9/8/2021 1:45:00 AM 15.77 60.386 0.474 7.75 7.21 9.48
9/8/2021 2:00:00 AM 15.7 60.26 0.474 7.75 7.48 9.49
9/8/2021 2:15:00 AM 15.64 60.152 0.474 7.75 7.45 9.5
9/8/2021 2:30:00 AM 15.58 60.044 0.474 7.74 7.92 9.52
9/8/2021 2:45:00 AM 15.52 59.936 0.474 7.75 12.67 9.53
9/8/2021 3:00:00 AM 15.47 59.846 0.474 7.75 7.71 9.54
9/8/2021 3:15:00 AM 15.41 59.738 0.474 7.75 8.25 9.55
9/8/2021 3:30:00 AM 15.36 59.648 0.474 7.75 7.72 9.56
9/8/2021 3:45:00 AM 15.32 59.576 0.474 7.75 7.45 9.57
9/8/2021 4:00:00 AM 15.27 59.486 0.474 7.75 8.05 9.58
9/8/2021 4:15:00 AM 15.23 59.414 0.474 7.75 8.07 9.59
9/8/2021 4:30:00 AM 15.19 59.342 0.474 7.75 7.94 9.6
9/8/2021 4:45:00 AM 15.16 59.288 0.474 7.75 8.67 9.6
9/8/2021 5:00:00 AM 15.12 59.216 0.474 7.75 8.96 9.61
9/8/2021 5:15:00 AM 15.09 59.162 0.474 7.75 7.65 9.61
9/8/2021 5:30:00 AM 15.05 59.09 0.474 7.74 15.31 9.63
9/8/2021 5:45:00 AM 15.02 59.036 0.474 7.76 7.85 9.63
9/8/2021 6:00:00 AM 14.99 58.982 0.474 7.77 7.81 9.65
9/8/2021 6:15:00 AM 14.96 58.928 0.474 7.76 7.52 9.65
9/8/2021 6:30:00 AM 14.93 58.874 0.474 7.76 7.27 9.66
9/8/2021 6:45:00 AM 14.9 58.82 0.474 7.76 6.84 9.67
9/8/2021 7:00:00 AM 14.88 58.784 0.474 7.76 6.95 9.68
9/8/2021 7:15:00 AM 14.86 58.748 0.474 7.77 6.85 9.68
9/8/2021 7:30:00 AM 14.85 58.73 0.474 7.76 6.51 9.7
9/8/2021 7:45:00 AM 14.85 58.73 0.474 7.76 6.25 9.72
9/8/2021 8:00:00 AM 14.86 58.748 0.474 7.77 5.97 9.73
9/8/2021 8:15:00 AM 14.88 58.784 0.474 7.76 5.64 9.75
9/8/2021 8:30:00 AM 14.88 58.784 0.474 7.76 5.69 9.76
9/8/2021 8:45:00 AM 14.89 58.802 0.474 7.76 5.14 9.77
9/8/2021 9:00:00 AM 14.91 58.838 0.474 7.76 5.01 9.78
9/8/2021 9:15:00 AM 14.95 58.91 0.473 7.76 4.85 9.81
9/8/2021 9:30:00 AM 14.99 58.982 0.474 7.77 4.48 9.83
9/8/2021 9:45:00 AM 15.05 59.09 0.474 7.77 4.38 9.82
9/8/2021 10:00:00 AM 15.12 59.216 0.473 7.78 4.09 9.86
9/8/2021 10:15:00 AM 15.21 59.378 0.473 7.79 3.88 9.88
9/8/2021 10:30:00 AM 15.29 59.522 0.473 7.79 3.75 9.89
9/8/2021 10:45:00 AM 15.4 59.72 0.473 7.8 3.92 9.9
9/8/2021 11:00:00 AM 15.52 59.936 0.473 7.8 3.82 9.93
9/8/2021 11:15:00 AM 15.66 60.188 0.473 7.81 3.82 9.94
9/8/2021 11:30:00 AM 15.81 60.458 0.473 7.82 4.02 9.96
9/8/2021 11:45:00 AM 15.97 60.746 0.473 7.83 3.76 9.97
9/8/2021 12:00:00 PM 16.17 61.106 0.473 7.83 3.78 9.99
9/8/2021 12:15:00 PM 16.41 61.538 0.473 7.85 3.62 10
9/8/2021 12:30:00 PM 16.65 61.97 0.473 7.86 3.73 10
9/8/2021 12:45:00 PM 16.88 62.384 0.473 7.87 3.46 9.98
9/8/2021 1:00:00 PM 17.1 62.78 0.473 7.88 3.48 9.98
9/8/2021 1:15:00 PM 17.36 63.248 0.473 7.89 3.53 9.96
9/8/2021 1:30:00 PM 17.61 63.698 0.473 7.9 3.42 9.94
9/8/2021 1:45:00 PM 17.83 64.094 0.472 7.91 3.85 9.91
9/8/2021 2:00:00 PM 18.08 64.544 0.472 7.92 3.54 9.89
9/8/2021 2:15:00 PM 18.36 65.048 0.472 7.93 3.53 9.85
9/8/2021 2:30:00 PM 18.61 65.498 0.472 7.93 4.38 9.8
9/8/2021 2:45:00 PM 18.72 65.696 0.473 7.94 4.07 9.74
9/8/2021 3:00:00 PM 18.86 65.948 0.473 7.94 4.13 9.69
9/8/2021 3:15:00 PM 19 66.2 0.473 7.94 3.9 9.64
9/8/2021 3:30:00 PM 19.08 66.344 0.473 7.94 3.87 9.58
9/8/2021 3:45:00 PM 19.18 66.524 0.473 7.95 3.84 9.53
9/8/2021 4:00:00 PM 19.24 66.632 0.473 7.94 4 9.47
9/8/2021 4:15:00 PM 19.33 66.794 0.473 7.94 3.82 9.42
9/8/2021 4:30:00 PM 19.4 66.92 0.473 7.94 3.95 9.4
9/8/2021 4:45:00 PM 19.44 66.992 0.473 7.93 3.96 9.34
9/8/2021 5:00:00 PM 19.48 67.064 0.473 7.93 3.89 9.31
9/8/2021 5:15:00 PM 19.53 67.154 0.473 7.93 3.97 9.29
9/8/2021 5:30:00 PM 19.52 67.136 0.473 7.93 4.4 9.25
9/8/2021 5:45:00 PM 19.5 67.1 0.473 7.92 4.04 9.22
9/8/2021 6:00:00 PM 19.47 67.046 0.473 7.91 4.02 9.19
9/8/2021 6:15:00 PM 19.44 66.992 0.474 7.91 4.08 9.18
9/8/2021 6:30:00 PM 19.37 66.866 0.474 7.9 4.12 9.14
9/8/2021 6:45:00 PM 19.3 66.74 0.474 7.9 3.95 9.1
9/8/2021 7:00:00 PM 19.22 66.596 0.474 7.89 3.99 9.06
9/8/2021 7:15:00 PM 19.13 66.434 0.474 7.87 3.93 9.05
9/8/2021 7:30:00 PM 19.04 66.272 0.475 7.86 12.39 9.02
9/8/2021 7:45:00 PM 18.96 66.128 0.475 7.85 11.1 9.01
9/8/2021 8:00:00 PM 18.86 65.948 0.475 7.85 4.41 9
9/8/2021 8:15:00 PM 18.77 65.786 0.475 7.84 5.02 8.99
9/8/2021 8:30:00 PM 18.67 65.606 0.476 7.83 5.61 8.99
9/8/2021 8:45:00 PM 18.58 65.444 0.476 7.82 5.58 8.99
9/8/2021 9:00:00 PM 18.49 65.282 0.476 7.81 6.25 8.99
9/8/2021 9:15:00 PM 18.39 65.102 0.476 7.82 6.35 9
9/8/2021 9:30:00 PM 18.3 64.94 0.477 7.78 6.19 8.99
9/8/2021 9:45:00 PM 18.22 64.796 0.477 7.79 13.48 8.99
9/8/2021 10:00:00 PM 18.14 64.652 0.477 7.79 6.27 8.98
9/8/2021 10:15:00 PM 18.12 64.616 0.47 7.81 8.03 8.99
9/8/2021 10:30:00 PM 18.1 64.58 0.451 7.81 27.18 8.99
9/8/2021 10:45:00 PM 18.03 64.454 0.439 7.78 30.64 8.96
9/8/2021 11:00:00 PM 17.96 64.328 0.417 7.77 61.41 8.96
9/8/2021 11:15:00 PM 17.85 64.13 0.398 7.71 162.12 8.94
9/8/2021 11:30:00 PM 17.75 63.95 0.38 7.66 153.57 8.9
9/8/2021 11:45:00 PM 17.62 63.716 0.362 7.59 165.28 8.88
9/9/2021 12:00:00 AM 17.53 63.554 0.356 7.55 203.95 8.84
9/9/2021 12:15:00 AM 17.47 63.446 0.369 7.58 173.7 8.79
9/9/2021 12:30:00 AM 17.37 63.266 0.386 7.59 141.16 8.77
9/9/2021 12:45:00 AM 17.38 63.284 0.378 7.58 136.47 8.7
9/9/2021 1:00:00 AM 17.62 63.716 0.346 7.54 180.1 8.49
9/9/2021 1:15:00 AM 17.91 64.238 0.324 7.49 194.74 8.29
9/9/2021 1:30:00 AM 18.04 64.472 0.315 7.46 187.21 8.08
9/9/2021 1:45:00 AM 18.06 64.508 0.325 7.45 162.96 8.04
9/9/2021 2:00:00 AM 18.14 64.652 0.322 7.44 152.65 8.03
9/9/2021 2:15:00 AM 18.43 65.174 0.298 7.4 163.29 7.93
9/9/2021 2:30:00 AM 18.67 65.606 0.267 7.36 150.09 7.86
9/9/2021 2:45:00 AM 18.81 65.858 0.249 7.33 134.33 7.81
9/9/2021 3:00:00 AM 18.88 65.984 0.244 7.33 122.89 7.8
9/9/2021 3:15:00 AM 18.9 66.02 0.244 7.31 112.97 7.82
9/9/2021 3:30:00 AM 18.87 65.966 0.245 7.29 103.57 7.85
9/9/2021 3:45:00 AM 18.82 65.876 0.248 7.3 95.88 7.9
9/9/2021 4:00:00 AM 18.73 65.714 0.253 7.29 86.91 7.95
9/9/2021 4:15:00 AM 18.63 65.534 0.257 7.3 81.87 7.99
9/9/2021 4:30:00 AM 18.54 65.372 0.259 7.29 76.14 8.01
9/9/2021 4:45:00 AM 18.47 65.246 0.26 7.29 71.84 8.02
9/9/2021 5:00:00 AM 18.41 65.138 0.262 7.3 68.86 8.04
9/9/2021 5:15:00 AM 18.36 65.048 0.264 7.3 66.04 8.05
9/9/2021 5:30:00 AM 18.32 64.976 0.268 7.31 61.77 8.07
9/9/2021 5:45:00 AM 18.29 64.922 0.272 7.3 58.85 8.08
9/9/2021 6:00:00 AM 18.26 64.868 0.276 7.31 56.69 8.1
9/9/2021 6:15:00 AM 18.23 64.814 0.279 7.32 52.65 8.11
9/9/2021 6:30:00 AM 18.2 64.76 0.282 7.32 50.74 8.13
9/9/2021 6:45:00 AM 18.17 64.706 0.286 7.32 50.22 8.14
9/9/2021 7:00:00 AM 18.14 64.652 0.289 7.32 48.46 8.15
9/9/2021 7:15:00 AM 18.1 64.58 0.292 7.33 47.13 8.17
9/9/2021 7:30:00 AM 18.06 64.508 0.296 7.32 45.55 8.2
9/9/2021 7:45:00 AM 18.01 64.418 0.299 7.34 44.4 8.24
9/9/2021 8:00:00 AM 17.95 64.31 0.303 7.35 42.92 8.28
9/9/2021 8:15:00 AM 17.9 64.22 0.306 7.35 41.08 8.33
9/9/2021 8:30:00 AM 17.86 64.148 0.309 7.36 38.85 8.38
9/9/2021 8:45:00 AM 17.83 64.094 0.312 7.37 37.24 8.42
9/9/2021 9:00:00 AM 17.81 64.058 0.314 7.38 35.19 8.46
9/9/2021 9:15:00 AM 17.79 64.022 0.317 7.38 33.87 8.5
9/9/2021 9:30:00 AM 17.76 63.968 0.32 7.38 32.6 8.54
9/9/2021 9:45:00 AM 17.75 63.95 0.323 7.4 30.17 8.59
9/9/2021 10:00:00 AM 17.73 63.914 0.326 7.38 28.75 8.63
9/9/2021 10:15:00 AM 17.69 63.842 0.328 7.4 27.57 8.67
9/9/2021 10:30:00 AM 17.67 63.806 0.33 7.42 26.08 8.71
9/9/2021 10:45:00 AM 17.65 63.77 0.332 7.42 24.03 8.76
9/9/2021 11:00:00 AM 17.65 63.77 0.334 7.43 22.79 8.81
9/9/2021 11:15:00 AM 17.66 63.788 0.336 7.44 22.54 8.87
9/9/2021 11:30:00 AM 17.67 63.806 0.339 7.45 21.11 8.91
9/9/2021 11:45:00 AM 17.68 63.824 0.343 7.46 20.48 8.94
9/9/2021 12:00:00 PM 17.66 63.788 0.346 7.47 18.24 8.97
9/9/2021 12:15:00 PM 17.67 63.806 0.35 7.48 18.42 9.01
9/9/2021 12:30:00 PM 17.68 63.824 0.354 7.49 17.67 9.05
9/9/2021 12:45:00 PM 17.68 63.824 0.357 7.5 17.94 9.07
9/9/2021 1:00:00 PM 17.71 63.878 0.362 7.51 16.18 9.12
9/9/2021 1:15:00 PM 17.74 63.932 0.366 7.53 15.54 9.17
9/9/2021 1:30:00 PM 17.77 63.986 0.369 7.54 15.6 9.21
9/9/2021 1:45:00 PM 17.77 63.986 0.373 7.54 14.68 9.23
9/9/2021 2:00:00 PM 17.76 63.968 0.376 7.55 14.73 9.23
9/9/2021 2:15:00 PM 17.75 63.95 0.38 7.56 13.81 9.24
9/9/2021 2:30:00 PM 17.76 63.968 0.383 7.57 14.12 9.27
9/9/2021 2:45:00 PM 17.74 63.932 0.386 7.58 13.2 9.26
9/9/2021 3:00:00 PM 17.72 63.896 0.389 7.58 13.12 9.26
9/9/2021 3:15:00 PM 17.71 63.878 0.391 7.58 12.97 9.27
9/9/2021 3:30:00 PM 17.71 63.878 0.394 7.59 12.49 9.29
9/9/2021 3:45:00 PM 17.73 63.914 0.396 7.6 12.24 9.32
9/9/2021 4:00:00 PM 17.74 63.932 0.399 7.61 11.74 9.33
9/9/2021 4:15:00 PM 17.76 63.968 0.401 7.61 11.79 9.34
9/9/2021 4:30:00 PM 17.77 63.986 0.403 7.62 11.4 9.35
9/9/2021 4:45:00 PM 17.78 64.004 0.405 7.62 10.62 9.35
9/9/2021 5:00:00 PM 17.77 63.986 0.407 7.63 10.74 9.35
9/9/2021 5:15:00 PM 17.77 63.986 0.409 7.63 10.53 9.35
9/9/2021 5:30:00 PM 17.72 63.896 0.411 7.63 10.13 9.35
9/9/2021 5:45:00 PM 17.67 63.806 0.413 7.63 10.11 9.33
9/9/2021 6:00:00 PM 17.62 63.716 0.415 7.64 10.4 9.3
9/9/2021 6:15:00 PM 17.55 63.59 0.416 7.65 11.62 9.29
9/9/2021 6:30:00 PM 17.5 63.5 0.418 7.65 10.48 9.29
9/9/2021 6:45:00 PM 17.45 63.41 0.419 7.65 10.21 9.28
9/9/2021 7:00:00 PM 17.4 63.32 0.42 7.65 9.7 9.27
9/9/2021 7:15:00 PM 17.35 63.23 0.421 7.66 9.92 9.26
9/9/2021 7:30:00 PM 17.3 63.14 0.423 7.66 10.14 9.25
9/9/2021 7:45:00 PM 17.25 63.05 0.424 7.66 12 9.24
9/9/2021 8:00:00 PM 17.18 62.924 0.425 7.65 11.08 9.24
9/9/2021 8:15:00 PM 17.12 62.816 0.426 7.66 10.92 9.23
9/9/2021 8:30:00 PM 17.06 62.708 0.427 7.66 10.66 9.23
9/9/2021 8:45:00 PM 17.01 62.618 0.428 7.66 11.1 9.22
9/9/2021 9:00:00 PM 16.94 62.492 0.429 7.66 12.34 9.21
9/9/2021 9:15:00 PM 16.85 62.33 0.43 7.66 12.18 9.21
9/9/2021 9:30:00 PM 16.75 62.15 0.431 7.66 12.05 9.2
9/9/2021 9:45:00 PM 16.64 61.952 0.432 7.66 13.31 9.2
9/9/2021 10:00:00 PM 16.53 61.754 0.433 7.66 11.24 9.21
9/9/2021 10:15:00 PM 16.42 61.556 0.434 7.66 11.51 9.22
9/9/2021 10:30:00 PM 16.32 61.376 0.434 7.65 11.4 9.23
9/9/2021 10:45:00 PM 16.22 61.196 0.435 7.65 11.12 9.24
9/9/2021 11:00:00 PM 16.12 61.016 0.436 7.65 11.82 9.26
9/9/2021 11:15:00 PM 16.04 60.872 0.437 7.65 11.71 9.27
9/9/2021 11:30:00 PM 15.95 60.71 0.437 7.65 11.59 9.29
9/9/2021 11:45:00 PM 15.88 60.584 0.438 7.65 11.62 9.3
9/10/2021 12:00:00 AM 15.79 60.422 0.439 7.66 11.26 9.31
9/10/2021 12:15:00 AM 15.71 60.278 0.439 7.65 12.02 9.33
9/10/2021 12:30:00 AM 15.63 60.134 0.44 7.65 12.01 9.35
9/10/2021 12:45:00 AM 15.56 60.008 0.44 7.65 11.47 9.37
9/10/2021 1:00:00 AM 15.49 59.882 0.441 7.65 11.91 9.4
9/10/2021 1:15:00 AM 15.42 59.756 0.441 7.65 12.1 9.4
9/10/2021 1:30:00 AM 15.36 59.648 0.442 7.65 11.91 9.43
9/10/2021 1:45:00 AM 15.3 59.54 0.443 7.65 12.77 9.45
9/10/2021 2:00:00 AM 15.25 59.45 0.443 7.65 11.51 9.45
9/10/2021 2:15:00 AM 15.2 59.36 0.444 7.65 12.47 9.48
9/10/2021 2:30:00 AM 15.15 59.27 0.444 7.65 12.23 9.49
9/10/2021 2:45:00 AM 15.11 59.198 0.444 7.66 11.75 9.49
9/10/2021 3:00:00 AM 15.06 59.108 0.445 7.66 12 9.51
9/10/2021 3:15:00 AM 15.02 59.036 0.445 7.66 11.75 9.52
9/10/2021 3:30:00 AM 14.97 58.946 0.445 7.66 11.82 9.54
9/10/2021 3:45:00 AM 14.92 58.856 0.445 7.66 12.08 9.55
9/10/2021 4:00:00 AM 14.88 58.784 0.446 7.66 11.73 9.56
9/10/2021 4:15:00 AM 14.84 58.712 0.446 7.67 11.92 9.57
9/10/2021 4:30:00 AM 14.8 58.64 0.446 7.67 12.31 9.58
9/10/2021 4:45:00 AM 14.76 58.568 0.446 7.67 12.13 9.6
9/10/2021 5:00:00 AM 14.72 58.496 0.447 7.67 11.22 9.61
9/10/2021 5:15:00 AM 14.68 58.424 0.447 7.67 11.38 9.62
9/10/2021 5:30:00 AM 14.64 58.352 0.447 7.67 11.24 9.63
9/10/2021 5:45:00 AM 14.6 58.28 0.448 7.67 11.03 9.64
9/10/2021 6:00:00 AM 14.56 58.208 0.448 7.68 11.46 9.65
9/10/2021 6:15:00 AM 14.52 58.136 0.448 7.68 11.24 9.66
9/10/2021 6:30:00 AM 14.49 58.082 0.449 7.66 9.73 9.67
9/10/2021 6:45:00 AM 14.45 58.01 0.449 7.68 10.54 9.69
9/10/2021 7:00:00 AM 14.42 57.956 0.449 7.68 10.2 9.7
9/10/2021 7:15:00 AM 14.39 57.902 0.449 7.68 9.99 9.72
9/10/2021 7:30:00 AM 14.37 57.866 0.449 7.67 9.54 9.74
9/10/2021 7:45:00 AM 14.35 57.83 0.45 7.68 9.09 9.76
9/10/2021 8:00:00 AM 14.33 57.794 0.45 7.69 8.32 9.77
9/10/2021 8:15:00 AM 14.32 57.776 0.45 7.69 7.7 9.79
9/10/2021 8:30:00 AM 14.31 57.758 0.45 7.7 7.82 9.81
9/10/2021 8:45:00 AM 14.31 57.758 0.451 7.68 14.92 9.83
9/10/2021 9:00:00 AM 14.32 57.776 0.451 7.7 6.93 9.85
9/10/2021 9:15:00 AM 14.33 57.794 0.451 7.7 6.48 9.88
9/10/2021 9:30:00 AM 14.36 57.848 0.451 7.72 6.38 9.91
9/10/2021 9:45:00 AM 14.39 57.902 0.452 7.72 6.01 9.94
9/10/2021 10:00:00 AM 14.43 57.974 0.452 7.71 14.17 9.97
9/10/2021 10:15:00 AM 14.49 58.082 0.452 7.72 5.23 10
9/10/2021 10:30:00 AM 14.54 58.172 0.452 7.73 4.87 10.03
9/10/2021 10:45:00 AM 14.62 58.316 0.452 7.73 4.88 10.08
9/10/2021 11:00:00 AM 14.71 58.478 0.452 7.74 5.08 10.1
9/10/2021 11:15:00 AM 14.8 58.64 0.452 7.75 4.75 10.13
9/10/2021 11:30:00 AM 14.88 58.784 0.453 7.76 4.72 10.15
9/10/2021 11:45:00 AM 15.01 59.018 0.453 7.78 4.72 10.18
9/10/2021 12:00:00 PM 15.25 59.45 0.453 7.79 4.79 10.22
9/10/2021 12:15:00 PM 15.41 59.738 0.453 7.79 4.79 10.22
9/10/2021 12:30:00 PM 15.67 60.206 0.453 7.8 4.74 10.23
9/10/2021 12:45:00 PM 15.92 60.656 0.453 7.82 4.6 10.24
9/10/2021 1:00:00 PM 16.12 61.016 0.453 7.83 4.35 10.23
9/10/2021 1:15:00 PM 16.33 61.394 0.453 7.84 4.4 10.22
9/10/2021 1:30:00 PM 16.43 61.574 0.453 7.84 4.37 10.18
9/10/2021 1:45:00 PM 16.64 61.952 0.453 7.85 4.6 10.17
9/10/2021 2:00:00 PM 16.8 62.24 0.454 7.86 4.42 10.15
9/10/2021 2:15:00 PM 17 62.6 0.454 7.86 4.12 10.13
9/10/2021 2:30:00 PM 17.16 62.888 0.453 7.87 4.25 10.09
9/10/2021 2:45:00 PM 17.25 63.05 0.454 7.87 4.44 10.06
9/10/2021 3:00:00 PM 17.38 63.284 0.454 7.88 4.58 10.03
9/10/2021 3:15:00 PM 17.48 63.464 0.454 7.88 4.71 10.01
9/10/2021 3:30:00 PM 17.57 63.626 0.454 7.88 4.8 9.98
9/10/2021 3:45:00 PM 17.63 63.734 0.454 7.88 4.74 9.95
9/10/2021 4:00:00 PM 17.66 63.788 0.454 7.89 5.7 9.91
9/10/2021 4:15:00 PM 17.67 63.806 0.455 7.87 5.31 9.89
9/10/2021 4:30:00 PM 17.71 63.878 0.456 7.88 5.12 9.86
9/10/2021 4:45:00 PM 17.71 63.878 0.458 7.89 5.24 9.82
9/10/2021 5:00:00 PM 17.66 63.788 0.459 7.88 4.83 9.78
9/10/2021 5:15:00 PM 17.65 63.77 0.459 7.89 5.33 9.75
9/10/2021 5:30:00 PM 17.61 63.698 0.459 7.88 4.84 9.72
9/10/2021 5:45:00 PM 17.57 63.626 0.46 7.87 4.84 9.69
9/10/2021 6:00:00 PM 17.52 63.536 0.46 7.86 5 9.66
9/10/2021 6:15:00 PM 17.47 63.446 0.459 7.86 5.17 9.63
9/10/2021 6:30:00 PM 17.42 63.356 0.457 7.85 5.25 9.59
9/10/2021 6:45:00 PM 17.36 63.248 0.454 7.85 5.08 9.56
9/10/2021 7:00:00 PM 17.31 63.158 0.453 7.84 5.06 9.53
9/10/2021 7:15:00 PM 17.25 63.05 0.454 7.83 5.04 9.51
9/10/2021 7:30:00 PM 17.17 62.906 0.456 7.83 5.41 9.49
9/10/2021 7:45:00 PM 17.07 62.726 0.457 7.82 5.25 9.48
9/10/2021 8:00:00 PM 16.95 62.51 0.458 7.82 6.02 9.47
9/10/2021 8:15:00 PM 16.82 62.276 0.459 7.81 5.65 9.47
9/10/2021 8:30:00 PM 16.7 62.06 0.459 7.8 5.99 9.48
9/10/2021 8:45:00 PM 16.58 61.844 0.459 7.8 6.97 9.49
9/10/2021 9:00:00 PM 16.46 61.628 0.46 7.79 6.25 9.5
9/10/2021 9:15:00 PM 16.34 61.412 0.46 7.79 6.67 9.51
9/10/2021 9:30:00 PM 16.22 61.196 0.46 7.79 6.74 9.52
9/10/2021 9:45:00 PM 16.09 60.962 0.461 7.78 7.19 9.52
9/10/2021 10:00:00 PM 15.96 60.728 0.462 7.77 14.5 9.53
9/10/2021 10:15:00 PM 15.83 60.494 0.462 7.77 7.15 9.54
9/10/2021 10:30:00 PM 15.7 60.26 0.462 7.77 6.79 9.56
9/10/2021 10:45:00 PM 15.57 60.026 0.462 7.77 6.9 9.58
9/10/2021 11:00:00 PM 15.44 59.792 0.463 7.76 7.06 9.6
9/10/2021 11:15:00 PM 15.32 59.576 0.463 7.76 7 9.62
9/10/2021 11:30:00 PM 15.21 59.378 0.464 7.76 7.22 9.63
9/10/2021 11:45:00 PM 15.09 59.162 0.464 7.75 7.96 9.65
9/11/2021 12:00:00 AM 14.99 58.982 0.464 7.75 8.44 9.67
9/11/2021 12:15:00 AM 14.9 58.82 0.464 7.75 8.34 9.67
9/11/2021 12:30:00 AM 14.81 58.658 0.465 7.74 9.32 9.69
9/11/2021 12:45:00 AM 14.72 58.496 0.465 7.74 7.81 9.71
9/11/2021 1:00:00 AM 14.64 58.352 0.465 7.74 7.03 9.73
9/11/2021 1:15:00 AM 14.56 58.208 0.465 7.74 7.73 9.75
9/11/2021 1:30:00 AM 14.48 58.064 0.465 7.74 7.83 9.76
9/11/2021 1:45:00 AM 14.41 57.938 0.466 7.74 7.5 9.78
9/11/2021 2:00:00 AM 14.34 57.812 0.466 7.74 8.06 9.8
9/11/2021 2:15:00 AM 14.27 57.686 0.466 7.74 8.12 9.82
9/11/2021 2:30:00 AM 14.21 57.578 0.466 7.73 7.8 9.83
9/11/2021 2:45:00 AM 14.15 57.47 0.466 7.73 7.85 9.85
9/11/2021 3:00:00 AM 14.09 57.362 0.466 7.73 7.76 9.87
9/11/2021 3:15:00 AM 14.03 57.254 0.466 7.73 7.66 9.88
9/11/2021 3:30:00 AM 13.97 57.146 0.466 7.73 7.49 9.9
9/11/2021 3:45:00 AM 13.92 57.056 0.466 7.73 7.21 9.91
9/11/2021 4:00:00 AM 13.87 56.966 0.466 7.73 8.02 9.93
9/11/2021 4:15:00 AM 13.82 56.876 0.466 7.73 8.65 9.94
9/11/2021 4:30:00 AM 13.77 56.786 0.466 7.73 8.6 9.95
9/11/2021 4:45:00 AM 13.73 56.714 0.466 7.73 7.87 9.96
9/11/2021 5:00:00 AM 13.68 56.624 0.466 7.73 7.88 9.97
9/11/2021 5:15:00 AM 13.64 56.552 0.466 7.74 7.43 9.98
9/11/2021 5:30:00 AM 13.6 56.48 0.466 7.74 7.52 10
9/11/2021 5:45:00 AM 13.55 56.39 0.466 7.73 8.07 10.01
9/11/2021 6:00:00 AM 13.51 56.318 0.466 7.73 7.47 10.02
9/11/2021 6:15:00 AM 13.47 56.246 0.466 7.73 7.99 10.03
9/11/2021 6:30:00 AM 13.43 56.174 0.466 7.73 7.52 10.04
9/11/2021 6:45:00 AM 13.39 56.102 0.466 7.72 15.21 10.06
9/11/2021 7:00:00 AM 13.36 56.048 0.466 7.74 6.95 10.08
9/11/2021 7:15:00 AM 13.32 55.976 0.466 7.74 6.83 10.09
9/11/2021 7:30:00 AM 13.29 55.922 0.467 7.72 15.07 10.11
9/11/2021 7:45:00 AM 13.27 55.886 0.467 7.72 14.72 10.13
9/11/2021 8:00:00 AM 13.24 55.832 0.467 7.72 14.2 10.15
9/11/2021 8:15:00 AM 13.23 55.814 0.467 7.74 5.93 10.16
9/11/2021 8:30:00 AM 13.22 55.796 0.467 7.74 5.58 10.18
9/11/2021 8:45:00 AM 13.22 55.796 0.467 7.74 5.18 10.2
9/11/2021 9:00:00 AM 13.23 55.814 0.467 7.7 5.31 10.23
9/11/2021 9:15:00 AM 13.26 55.868 0.467 7.7 5.27 10.25
9/11/2021 9:30:00 AM 13.29 55.922 0.467 7.71 4.54 10.28
9/11/2021 9:45:00 AM 13.34 56.012 0.467 7.72 4 10.3
9/11/2021 10:00:00 AM 13.41 56.138 0.467 7.72 11.96 10.33
9/11/2021 10:15:00 AM 13.49 56.282 0.467 7.75 4.02 10.37
9/11/2021 10:30:00 AM 13.58 56.444 0.467 7.75 3.57 10.41
9/11/2021 10:45:00 AM 13.69 56.642 0.467 7.77 3.58 10.44
9/11/2021 11:00:00 AM 13.81 56.858 0.467 7.78 3.33 10.48
9/11/2021 11:15:00 AM 13.92 57.056 0.467 7.79 3.54 10.53
9/11/2021 11:30:00 AM 14.07 57.326 0.466 7.8 3.36 10.57
9/11/2021 11:45:00 AM 14.26 57.668 0.466 7.8 3.6 10.62
9/11/2021 12:00:00 PM 14.45 58.01 0.466 7.84 3.57 10.66
9/11/2021 12:15:00 PM 14.65 58.37 0.466 7.85 3.78 10.69
9/11/2021 12:30:00 PM 14.83 58.694 0.466 7.86 3.93 10.69
9/11/2021 12:45:00 PM 15.05 59.09 0.466 7.86 12.46 10.7
9/11/2021 1:00:00 PM 15.28 59.504 0.465 7.88 3.85 10.7
9/11/2021 1:15:00 PM 15.55 59.99 0.465 7.89 3.68 10.69
9/11/2021 1:30:00 PM 15.85 60.53 0.465 7.91 3.96 10.67
9/11/2021 1:45:00 PM 16.14 61.052 0.465 7.91 3.64 10.63
9/11/2021 2:00:00 PM 16.4 61.52 0.465 7.93 3.5 10.6
9/11/2021 2:15:00 PM 16.55 61.79 0.465 7.94 4.32 10.55
9/11/2021 2:30:00 PM 16.73 62.114 0.465 7.95 3.69 10.51
9/11/2021 2:45:00 PM 16.92 62.456 0.465 7.96 3.65 10.49
9/11/2021 3:00:00 PM 17.06 62.708 0.465 7.97 3.58 10.43
9/11/2021 3:15:00 PM 17.22 62.996 0.465 7.97 4.05 10.38
9/11/2021 3:30:00 PM 17.36 63.248 0.465 7.97 4.03 10.32
9/11/2021 3:45:00 PM 17.45 63.41 0.465 7.97 4.38 10.26
9/11/2021 4:00:00 PM 17.55 63.59 0.465 7.97 3.97 10.22
9/11/2021 4:15:00 PM 17.58 63.644 0.465 7.97 3.92 10.18
9/11/2021 4:30:00 PM 17.59 63.662 0.465 7.97 3.82 10.13
9/11/2021 4:45:00 PM 17.61 63.698 0.465 7.96 4.07 10.09
9/11/2021 5:00:00 PM 17.59 63.662 0.465 7.96 3.91 10.02
9/11/2021 5:15:00 PM 17.58 63.644 0.465 7.94 3.87 9.96
9/11/2021 5:30:00 PM 17.58 63.644 0.465 7.94 4.23 9.9
9/11/2021 5:45:00 PM 17.58 63.644 0.465 7.93 4.17 9.85
9/11/2021 6:00:00 PM 17.58 63.644 0.465 7.93 4.47 9.78
9/11/2021 6:15:00 PM 17.56 63.608 0.465 7.92 4.18 9.73
9/11/2021 6:30:00 PM 17.53 63.554 0.466 7.9 4.6 9.68
9/11/2021 6:45:00 PM 17.49 63.482 0.466 7.9 4.44 9.63
9/11/2021 7:00:00 PM 17.45 63.41 0.466 7.89 4.55 9.6
9/11/2021 7:15:00 PM 17.41 63.338 0.466 7.88 4.54 9.56
9/11/2021 7:30:00 PM 17.36 63.248 0.466 7.88 4.8 9.52
9/11/2021 7:45:00 PM 17.29 63.122 0.466 7.87 5.09 9.49
9/11/2021 8:00:00 PM 17.21 62.978 0.466 7.86 5.54 9.47
9/11/2021 8:15:00 PM 17.11 62.798 0.466 7.86 5.54 9.46
9/11/2021 8:30:00 PM 17.01 62.618 0.467 7.85 5.52 9.46
9/11/2021 8:45:00 PM 16.9 62.42 0.467 7.85 5.41 9.46
9/11/2021 9:00:00 PM 16.79 62.222 0.467 7.84 5.29 9.47
9/11/2021 9:15:00 PM 16.67 62.006 0.468 7.83 5.51 9.47
9/11/2021 9:30:00 PM 16.55 61.79 0.469 7.83 5.44 9.48
9/11/2021 9:45:00 PM 16.42 61.556 0.47 7.82 5.59 9.5
9/11/2021 10:00:00 PM 16.28 61.304 0.471 7.82 5.6 9.5
9/11/2021 10:15:00 PM 16.15 61.07 0.472 7.81 5.68 9.52
9/11/2021 10:30:00 PM 16.01 60.818 0.472 7.81 6.03 9.53
9/11/2021 10:45:00 PM 15.87 60.566 0.473 7.8 5.83 9.54
9/11/2021 11:00:00 PM 15.73 60.314 0.473 7.79 5.91 9.56
9/11/2021 11:15:00 PM 15.6 60.08 0.474 7.79 5.87 9.57
9/11/2021 11:30:00 PM 15.47 59.846 0.474 7.78 6.49 9.59
9/11/2021 11:45:00 PM 15.35 59.63 0.474 7.78 6.53 9.61
9/12/2021 12:00:00 AM 15.24 59.432 0.475 7.77 6.77 9.62
9/12/2021 12:15:00 AM 15.14 59.252 0.475 7.77 6.56 9.64
9/12/2021 12:30:00 AM 15.05 59.09 0.475 7.76 6.42 9.67
9/12/2021 12:45:00 AM 14.96 58.928 0.475 7.77 6.13 9.68
9/12/2021 1:00:00 AM 14.88 58.784 0.476 7.76 6.04 9.7
9/12/2021 1:15:00 AM 14.8 58.64 0.476 7.76 6.69 9.72
9/12/2021 1:30:00 AM 14.73 58.514 0.476 7.76 5.93 9.73
9/12/2021 1:45:00 AM 14.67 58.406 0.476 7.76 6.2 9.75
9/12/2021 2:00:00 AM 14.61 58.298 0.476 7.76 6.47 9.76
9/12/2021 2:15:00 AM 14.55 58.19 0.475 7.76 6.55 9.78
9/12/2021 2:30:00 AM 14.51 58.118 0.475 7.75 6.58 9.79
9/12/2021 2:45:00 AM 14.46 58.028 0.474 7.75 6.38 9.8
9/12/2021 3:00:00 AM 14.42 57.956 0.474 7.75 6.35 9.81
9/12/2021 3:15:00 AM 14.38 57.884 0.474 7.75 6.5 9.82
9/12/2021 3:30:00 AM 14.34 57.812 0.474 7.75 6.46 9.83
9/12/2021 3:45:00 AM 14.31 57.758 0.474 7.76 6.6 9.84
9/12/2021 4:00:00 AM 14.27 57.686 0.474 7.75 6.11 9.85
9/12/2021 4:15:00 AM 14.24 57.632 0.474 7.75 6 9.85
9/12/2021 4:30:00 AM 14.21 57.578 0.474 7.76 6 9.86
9/12/2021 4:45:00 AM 14.18 57.524 0.474 7.75 6.11 9.87
9/12/2021 5:00:00 AM 14.16 57.488 0.474 7.75 6.16 9.88
9/12/2021 5:15:00 AM 14.13 57.434 0.474 7.75 6.62 9.88
9/12/2021 5:30:00 AM 14.11 57.398 0.474 7.75 6.36 9.89
9/12/2021 5:45:00 AM 14.1 57.38 0.474 7.76 6.43 9.89
9/12/2021 6:00:00 AM 14.08 57.344 0.474 7.75 5.78 9.89
9/12/2021 6:15:00 AM 14.07 57.326 0.474 7.76 6 9.89
9/12/2021 6:30:00 AM 14.05 57.29 0.474 7.74 14.01 9.89
9/12/2021 6:45:00 AM 14.04 57.272 0.474 7.75 5.8 9.9
9/12/2021 7:00:00 AM 14.03 57.254 0.474 7.76 5.9 9.91
9/12/2021 7:15:00 AM 14.02 57.236 0.474 7.74 14.18 9.93
9/12/2021 7:30:00 AM 14.01 57.218 0.474 7.75 5.85 9.95
9/12/2021 7:45:00 AM 14.01 57.218 0.474 7.75 5.16 9.97
9/12/2021 8:00:00 AM 14.01 57.218 0.474 7.74 14.22 10
9/12/2021 8:15:00 AM 14.02 57.236 0.473 7.76 4.63 10.04
9/12/2021 8:30:00 AM 14.05 57.29 0.473 7.76 4.39 10.1
9/12/2021 8:45:00 AM 14.08 57.344 0.473 7.76 4.3 10.16
9/12/2021 9:00:00 AM 14.11 57.398 0.473 7.77 4.11 10.2
9/12/2021 9:15:00 AM 14.15 57.47 0.473 7.78 3.9 10.24
9/12/2021 9:30:00 AM 14.19 57.542 0.473 7.77 3.48 10.28
9/12/2021 9:45:00 AM 14.23 57.614 0.473 7.78 12.31 10.3
9/12/2021 10:00:00 AM 14.28 57.704 0.473 7.79 3.28 10.33
9/12/2021 10:15:00 AM 14.37 57.866 0.473 7.8 3.41 10.38
9/12/2021 10:30:00 AM 14.47 58.046 0.473 7.81 3.28 10.43
9/12/2021 10:45:00 AM 14.55 58.19 0.473 7.82 3.49 10.45
9/12/2021 11:00:00 AM 14.66 58.388 0.473 7.82 3.22 10.48
9/12/2021 11:15:00 AM 14.79 58.622 0.473 7.83 11.84 10.53
9/12/2021 11:30:00 AM 14.94 58.892 0.472 7.85 3.14 10.57
9/12/2021 11:45:00 AM 15.09 59.162 0.472 7.86 3.33 10.62
9/12/2021 12:00:00 PM 15.25 59.45 0.472 7.88 3.13 10.65
9/12/2021 12:15:00 PM 15.47 59.846 0.471 7.89 3.26 10.69
9/12/2021 12:30:00 PM 15.7 60.26 0.471 7.9 3.1 10.74
9/12/2021 12:45:00 PM 15.91 60.638 0.471 7.93 3.13 10.75
9/12/2021 1:00:00 PM 16.13 61.034 0.47 7.94 3.19 10.77
9/12/2021 1:15:00 PM 16.39 61.502 0.47 7.96 3.32 10.78
9/12/2021 1:30:00 PM 16.62 61.916 0.47 7.97 3.52 10.77
9/12/2021 1:45:00 PM 16.88 62.384 0.47 7.98 3.42 10.75
9/12/2021 2:00:00 PM 17.13 62.834 0.47 7.99 3.77 10.71
9/12/2021 2:15:00 PM 17.36 63.248 0.47 8 3.54 10.66
9/12/2021 2:30:00 PM 17.57 63.626 0.469 8.02 3.63 10.65
9/12/2021 2:45:00 PM 17.75 63.95 0.469 8.02 3.41 10.61
9/12/2021 3:00:00 PM 17.94 64.292 0.469 8.03 3.69 10.57
9/12/2021 3:15:00 PM 18.12 64.616 0.469 8.03 3.32 10.51
9/12/2021 3:30:00 PM 18.3 64.94 0.469 8.04 3.37 10.45
9/12/2021 3:45:00 PM 18.43 65.174 0.468 8.04 5.01 10.39
9/12/2021 4:00:00 PM 18.56 65.408 0.468 8.04 12.07 10.32
9/12/2021 4:15:00 PM 18.65 65.57 0.468 8.04 3.68 10.25
9/12/2021 4:30:00 PM 18.74 65.732 0.468 8.04 4.18 10.16
9/12/2021 4:45:00 PM 18.79 65.82201 0.468 8.02 4.42 10.07
9/12/2021 5:00:00 PM 18.82 65.876 0.468 8.02 4.65 9.98
9/12/2021 5:15:00 PM 18.84 65.912 0.468 8 4.56 9.9
9/12/2021 5:30:00 PM 18.85 65.93 0.469 7.99 12.58 9.82
9/12/2021 5:45:00 PM 18.86 65.948 0.468 7.99 4.7 9.74
9/12/2021 6:00:00 PM 18.85 65.93 0.469 7.97 14.61 9.66
9/12/2021 6:15:00 PM 18.84 65.912 0.469 7.95 4.76 9.57
9/12/2021 6:30:00 PM 18.82 65.876 0.469 7.94 5.25 9.48
9/12/2021 6:45:00 PM 18.8 65.84 0.47 7.92 5.57 9.4
9/12/2021 7:00:00 PM 18.77 65.786 0.47 7.9 13.55 9.34
9/12/2021 7:15:00 PM 18.73 65.714 0.47 7.89 5.53 9.27
9/12/2021 7:30:00 PM 18.68 65.624 0.471 7.89 5.32 9.23
9/12/2021 7:45:00 PM 18.63 65.534 0.47 7.87 6.54 9.19
9/12/2021 8:00:00 PM 18.56 65.408 0.471 7.86 15.28 9.17
9/12/2021 8:15:00 PM 18.49 65.282 0.471 7.85 13.02 9.16
9/12/2021 8:30:00 PM 18.41 65.138 0.471 7.85 5.78 9.13
9/12/2021 8:45:00 PM 18.32 64.976 0.472 7.84 5.72 9.12
9/12/2021 9:00:00 PM 18.22 64.796 0.472 7.84 5.39 9.12
9/12/2021 9:15:00 PM 18.12 64.616 0.473 7.83 5.48 9.13
9/12/2021 9:30:00 PM 18 64.4 0.473 7.82 5.4 9.14
9/12/2021 9:45:00 PM 17.88 64.184 0.473 7.82 5.34 9.14
9/12/2021 10:00:00 PM 17.76 63.968 0.474 7.82 5.45 9.15
9/12/2021 10:15:00 PM 17.62 63.716 0.474 7.8 5.03 9.17
9/12/2021 10:30:00 PM 17.48 63.464 0.475 7.8 4.98 9.18
9/12/2021 10:45:00 PM 17.34 63.212 0.476 7.79 4.94 9.19
9/12/2021 11:00:00 PM 17.2 62.96 0.476 7.79 5.26 9.2
9/12/2021 11:15:00 PM 17.06 62.708 0.477 7.78 7.34 9.21
9/12/2021 11:30:00 PM 16.94 62.492 0.477 7.78 6.5 9.22
9/12/2021 11:45:00 PM 16.83 62.294 0.478 7.77 6.46 9.23
9/13/2021 12:00:00 AM 16.72 62.096 0.478 7.76 8.1 9.23
9/13/2021 12:15:00 AM 16.63 61.934 0.479 7.76 5.98 9.23
9/13/2021 12:30:00 AM 16.54 61.772 0.479 7.75 6.4 9.24
9/13/2021 12:45:00 AM 16.47 61.646 0.479 7.75 6.44 9.26
9/13/2021 1:00:00 AM 16.39 61.502 0.479 7.75 6.19 9.27
9/13/2021 1:15:00 AM 16.32 61.376 0.479 7.74 6.15 9.29
9/13/2021 1:30:00 AM 16.25 61.25 0.479 7.75 6.1 9.3
9/13/2021 1:45:00 AM 16.19 61.142 0.48 7.74 5.68 9.32
9/13/2021 2:00:00 AM 16.14 61.052 0.48 7.75 6.42 9.34
9/13/2021 2:15:00 AM 16.08 60.944 0.48 7.75 7.86 9.36
9/13/2021 2:30:00 AM 16.02 60.836 0.48 7.75 6.16 9.37
9/13/2021 2:45:00 AM 15.96 60.728 0.48 7.75 6.21 9.39
9/13/2021 3:00:00 AM 15.9 60.62 0.48 7.74 7.19 9.4
9/13/2021 3:15:00 AM 15.84 60.512 0.48 7.74 6.39 9.42
9/13/2021 3:30:00 AM 15.8 60.44 0.48 7.74 5.89 9.43
9/13/2021 3:45:00 AM 15.76 60.368 0.48 7.75 5.72 9.44
9/13/2021 4:00:00 AM 15.73 60.314 0.48 7.74 5.52 9.45
9/13/2021 4:15:00 AM 15.7 60.26 0.479 7.74 7.08 9.45
9/13/2021 4:30:00 AM 15.67 60.206 0.48 7.74 6.32 9.46
9/13/2021 4:45:00 AM 15.64 60.152 0.48 7.74 5.99 9.46
9/13/2021 5:00:00 AM 15.6 60.08 0.48 7.74 5.35 9.47
9/13/2021 5:15:00 AM 15.56 60.008 0.48 7.74 5.1 9.48
9/13/2021 5:30:00 AM 15.52 59.936 0.48 7.73 5.01 9.5
9/13/2021 5:45:00 AM 15.49 59.882 0.48 7.74 5.78 9.5
9/13/2021 6:00:00 AM 15.47 59.846 0.48 7.73 5.35 9.51
9/13/2021 6:15:00 AM 15.44 59.792 0.48 7.74 5.13 9.51
9/13/2021 6:30:00 AM 15.41 59.738 0.48 7.73 5.9 9.52
9/13/2021 6:45:00 AM 15.38 59.684 0.479 7.74 5.26 9.53
9/13/2021 7:00:00 AM 15.36 59.648 0.479 7.74 5.86 9.55
9/13/2021 7:15:00 AM 15.33 59.594 0.479 7.74 5.35 9.57
9/13/2021 7:30:00 AM 15.32 59.576 0.479 7.75 5.64 9.6
9/13/2021 7:45:00 AM 15.31 59.558 0.479 7.75 4.76 9.63
9/13/2021 8:00:00 AM 15.31 59.558 0.479 7.76 4.61 9.66
9/13/2021 8:15:00 AM 15.32 59.576 0.479 7.76 4.6 9.7
9/13/2021 8:30:00 AM 15.31 59.558 0.479 7.76 4.1 9.75
9/13/2021 8:45:00 AM 15.32 59.576 0.479 7.77 4.01 9.8
9/13/2021 9:00:00 AM 15.33 59.594 0.479 7.77 3.94 9.84
9/13/2021 9:15:00 AM 15.35 59.63 0.479 7.78 3.83 9.9
9/13/2021 9:30:00 AM 15.38 59.684 0.479 7.78 3.51 9.96
9/13/2021 9:45:00 AM 15.43 59.774 0.478 7.79 3.56 10.03
9/13/2021 10:00:00 AM 15.52 59.936 0.478 7.8 3.43 10.14
9/13/2021 10:15:00 AM 15.57 60.026 0.478 7.81 3.42 10.21
9/13/2021 10:30:00 AM 15.6 60.08 0.478 7.82 3.32 10.26
9/13/2021 10:45:00 AM 15.67 60.206 0.478 7.84 3.11 10.33
9/13/2021 11:00:00 AM 15.74 60.332 0.478 7.85 3.2 10.4
9/13/2021 11:15:00 AM 15.83 60.494 0.478 7.86 3.38 10.48
9/13/2021 11:30:00 AM 15.95 60.71 0.477 7.88 3.13 10.53
9/13/2021 11:45:00 AM 16.04 60.872 0.477 7.89 3.37 10.57
9/13/2021 12:00:00 PM 16.13 61.034 0.477 7.9 3.21 10.6
9/13/2021 12:15:00 PM 16.25 61.25 0.477 7.92 3.25 10.62
9/13/2021 12:30:00 PM 16.41 61.538 0.476 7.94 3.16 10.69
9/13/2021 12:45:00 PM 16.56 61.808 0.476 7.96 3.19 10.74
9/13/2021 1:00:00 PM 16.68 62.024 0.475 7.97 3.15 10.74
9/13/2021 1:15:00 PM 16.81 62.258 0.475 7.98 3.24 10.71
9/13/2021 1:30:00 PM 16.99 62.582 0.474 7.99 3.3 10.71
9/13/2021 1:45:00 PM 17.24 63.032 0.474 8.01 3.58 10.78
9/13/2021 2:00:00 PM 17.46 63.428 0.473 8.03 3.42 10.79
9/13/2021 2:15:00 PM 17.59 63.662 0.473 8.04 3.33 10.73
9/13/2021 2:30:00 PM 17.8 64.04 0.472 8.06 3.3 10.76
9/13/2021 2:45:00 PM 17.98 64.364 0.472 8.07 3.33 10.76
9/13/2021 3:00:00 PM 18.11 64.598 0.471 8.09 3.16 10.72
9/13/2021 3:15:00 PM 18.28 64.904 0.471 8.09 11.87 10.71
9/13/2021 3:30:00 PM 18.48 65.264 0.47 8.11 3.28 10.71
9/13/2021 3:45:00 PM 18.57 65.426 0.47 8.11 3.12 10.64
9/13/2021 4:00:00 PM 18.7 65.66 0.469 8.11 3.02 10.59
9/13/2021 4:15:00 PM 18.82 65.876 0.47 8.11 11.87 10.53
9/13/2021 4:30:00 PM 18.87 65.966 0.47 8.11 3.34 10.45
9/13/2021 4:45:00 PM 18.93 66.074 0.47 8.11 3.22 10.36
9/13/2021 5:00:00 PM 18.96 66.128 0.47 8.1 3.26 10.26
9/13/2021 5:15:00 PM 18.97 66.146 0.47 8.09 3.14 10.16
9/13/2021 5:30:00 PM 18.98 66.164 0.47 8.07 13.29 10.08
9/13/2021 5:45:00 PM 18.97 66.146 0.47 8.06 13.39 9.99
9/13/2021 6:00:00 PM 18.95 66.11 0.47 8.06 3.18 9.9
9/13/2021 6:15:00 PM 18.93 66.074 0.471 8.04 3.2 9.81
9/13/2021 6:30:00 PM 18.9 66.02 0.471 8.02 3.44 9.71
9/13/2021 6:45:00 PM 18.86 65.948 0.471 8 3.23 9.63
9/13/2021 7:00:00 PM 18.82 65.876 0.472 7.98 3.71 9.53
9/13/2021 7:15:00 PM 18.78 65.804 0.473 7.95 3.76 9.43
9/13/2021 7:30:00 PM 18.74 65.732 0.474 7.92 4.16 9.34
9/13/2021 7:45:00 PM 18.69 65.642 0.475 7.9 4.21 9.26
9/13/2021 8:00:00 PM 18.65 65.57 0.476 7.87 4.7 9.19
9/13/2021 8:15:00 PM 18.6 65.48 0.476 7.85 4.77 9.15
9/13/2021 8:30:00 PM 18.55 65.39 0.476 7.84 4.89 9.12
9/13/2021 8:45:00 PM 18.5 65.3 0.477 7.82 15.06 9.1
9/13/2021 9:00:00 PM 18.43 65.174 0.477 7.82 4.69 9.08
9/13/2021 9:15:00 PM 18.35 65.03 0.477 7.81 5.53 9.07
9/13/2021 9:30:00 PM 18.25 64.85 0.478 7.8 4.86 9.05
9/13/2021 9:45:00 PM 18.14 64.652 0.479 7.8 6.54 9.01
9/13/2021 10:00:00 PM 18.03 64.454 0.48 7.78 5.38 9
9/13/2021 10:15:00 PM 17.91 64.238 0.48 7.78 13.67 9
9/13/2021 10:30:00 PM 17.79 64.022 0.48 7.77 6.86 9.01
9/13/2021 10:45:00 PM 17.65 63.77 0.481 7.77 4.93 9.04
9/13/2021 11:00:00 PM 17.52 63.536 0.481 7.77 5.24 9.04
9/13/2021 11:15:00 PM 17.4 63.32 0.482 7.77 4.55 9.06
9/13/2021 11:30:00 PM 17.28 63.104 0.482 7.76 4.72 9.07
9/13/2021 11:45:00 PM 17.16 62.888 0.483 7.76 4.95 9.09
9/14/2021 12:00:00 AM 17.05 62.69 0.483 7.75 4.43 9.11
9/14/2021 12:15:00 AM 16.94 62.492 0.483 7.75 4.48 9.12
9/14/2021 12:30:00 AM 16.83 62.294 0.484 7.74 4.57 9.14
9/14/2021 12:45:00 AM 16.73 62.114 0.484 7.74 5.19 9.16
9/14/2021 1:00:00 AM 16.63 61.934 0.484 7.73 6.05 9.19
9/14/2021 1:15:00 AM 16.53 61.754 0.484 7.73 5.43 9.21
9/14/2021 1:30:00 AM 16.44 61.592 0.484 7.73 5.05 9.23
9/14/2021 1:45:00 AM 16.36 61.448 0.484 7.73 5.93 9.25
9/14/2021 2:00:00 AM 16.28 61.304 0.484 7.72 5.35 9.27
9/14/2021 2:15:00 AM 16.21 61.178 0.484 7.73 4.91 9.27
9/14/2021 2:30:00 AM 16.14 61.052 0.485 7.74 4.89 9.29
9/14/2021 2:45:00 AM 16.08 60.944 0.485 7.73 4.86 9.28
9/14/2021 3:00:00 AM 16.02 60.836 0.485 7.73 4.87 9.32
9/14/2021 3:15:00 AM 15.96 60.728 0.485 7.73 5.03 9.33
9/14/2021 3:30:00 AM 15.91 60.638 0.485 7.73 5.6 9.34
9/14/2021 3:45:00 AM 15.86 60.548 0.485 7.73 5.2 9.34
9/14/2021 4:00:00 AM 15.81 60.458 0.485 7.73 5.64 9.35
9/14/2021 4:15:00 AM 15.76 60.368 0.485 7.73 4.92 9.37
9/14/2021 4:30:00 AM 15.71 60.278 0.485 7.73 4.91 9.38
9/14/2021 4:45:00 AM 15.66 60.188 0.485 7.73 5.05 9.4
9/14/2021 5:00:00 AM 15.61 60.098 0.485 7.73 5.52 9.41
9/14/2021 5:15:00 AM 15.57 60.026 0.485 7.73 5.25 9.42
9/14/2021 5:30:00 AM 15.52 59.936 0.485 7.73 5.51 9.43
9/14/2021 5:45:00 AM 15.48 59.864 0.485 7.72 5.3 9.45
9/14/2021 6:00:00 AM 15.44 59.792 0.485 7.71 4.23 9.47
9/14/2021 6:15:00 AM 15.4 59.72 0.485 7.72 6.02 9.48
9/14/2021 6:30:00 AM 15.37 59.666 0.485 7.72 5.33 9.48
9/14/2021 6:45:00 AM 15.34 59.612 0.484 7.72 5.16 9.5
9/14/2021 7:00:00 AM 15.31 59.558 0.484 7.71 4.66 9.52
9/14/2021 7:15:00 AM 15.29 59.522 0.484 7.72 4.59 9.55
9/14/2021 7:30:00 AM 15.27 59.486 0.484 7.72 4.6 9.58
9/14/2021 7:45:00 AM 15.27 59.486 0.484 7.73 3.89 9.63
9/14/2021 8:00:00 AM 15.26 59.468 0.484 7.73 3.87 9.69
9/14/2021 8:15:00 AM 15.26 59.468 0.484 7.73 3.62 9.75
9/14/2021 8:30:00 AM 15.25 59.45 0.484 7.74 3.44 9.81
9/14/2021 8:45:00 AM 15.26 59.468 0.484 7.74 3.43 9.91
9/14/2021 9:00:00 AM 15.27 59.486 0.484 7.75 2.92 9.97
9/14/2021 9:15:00 AM 15.28 59.504 0.483 7.75 2.85 10.03
9/14/2021 9:30:00 AM 15.3 59.54 0.483 7.75 2.84 10.11
9/14/2021 9:45:00 AM 15.32 59.576 0.483 7.76 2.81 10.17
9/14/2021 10:00:00 AM 15.36 59.648 0.483 7.77 2.65 10.28
9/14/2021 10:15:00 AM 15.42 59.756 0.483 7.78 2.39 10.38
9/14/2021 10:30:00 AM 15.51 59.918 0.482 7.79 2.78 10.48
9/14/2021 10:45:00 AM 15.59 60.062 0.482 7.82 2.63 10.55
9/14/2021 11:00:00 AM 15.69 60.242 0.482 7.84 2.42 10.64
9/14/2021 11:15:00 AM 15.8 60.44 0.482 7.86 2.45 10.72
9/14/2021 11:30:00 AM 15.92 60.656 0.481 7.88 2.49 10.8
9/14/2021 11:45:00 AM 16.08 60.944 0.481 7.9 2.63 10.89
9/14/2021 12:00:00 PM 16.23 61.214 0.48 7.92 2.53 10.99
9/14/2021 12:15:00 PM 16.4 61.52 0.479 7.95 2.58 11.07
9/14/2021 12:30:00 PM 16.57 61.826 0.479 7.98 2.61 11.15
9/14/2021 12:45:00 PM 16.73 62.114 0.478 8.01 2.39 11.18
9/14/2021 1:00:00 PM 16.96 62.528 0.477 8.03 2.36 11.25
9/14/2021 1:15:00 PM 17.16 62.888 0.476 8.06 2.52 11.28
9/14/2021 1:30:00 PM 17.32 63.176 0.476 8.09 2.39 11.3
9/14/2021 1:45:00 PM 17.47 63.446 0.475 8.1 2.46 11.24
9/14/2021 2:00:00 PM 17.69 63.842 0.474 8.12 2.42 11.27
9/14/2021 2:15:00 PM 17.9 64.22 0.474 8.12 2.53 11.27
9/14/2021 2:30:00 PM 18.09 64.562 0.473 8.16 2.6 11.25
9/14/2021 2:45:00 PM 18.28 64.904 0.473 8.17 2.59 11.22
9/14/2021 3:00:00 PM 18.5 65.3 0.472 8.18 2.6 11.18
9/14/2021 3:15:00 PM 18.64 65.552 0.471 8.19 2.67 11.1
9/14/2021 3:30:00 PM 18.78 65.804 0.471 8.19 2.82 11.02
9/14/2021 3:45:00 PM 18.92 66.056 0.471 8.19 2.71 10.92
9/14/2021 4:00:00 PM 19.04 66.272 0.471 8.2 3.71 10.84
9/14/2021 4:15:00 PM 19.17 66.506 0.471 8.19 10.99 10.77
9/14/2021 4:30:00 PM 19.28 66.704 0.471 8.19 3.1 10.66
9/14/2021 4:45:00 PM 19.36 66.848 0.47 8.18 3.07 10.58
9/14/2021 5:00:00 PM 19.41 66.938 0.47 8.17 2.9 10.48
9/14/2021 5:15:00 PM 19.4 66.92 0.471 8.16 3.22 10.31
9/14/2021 5:30:00 PM 19.4 66.92 0.471 8.14 3.28 10.15
9/14/2021 5:45:00 PM 19.39 66.902 0.472 8.1 14.61 9.99
9/14/2021 6:00:00 PM 19.37 66.866 0.472 8.1 3.41 9.85
9/14/2021 6:15:00 PM 19.37 66.866 0.472 8.06 3.44 9.75
9/14/2021 6:30:00 PM 19.37 66.866 0.472 8.06 3.66 9.64
9/14/2021 6:45:00 PM 19.37 66.866 0.472 8.04 3.58 9.54
9/14/2021 7:00:00 PM 19.35 66.83 0.473 8.02 3.73 9.44
9/14/2021 7:15:00 PM 19.32 66.776 0.473 8 3.69 9.34
9/14/2021 7:30:00 PM 19.29 66.722 0.473 7.98 3.48 9.26
9/14/2021 7:45:00 PM 19.25 66.65 0.474 7.97 3.57 9.19
9/14/2021 8:00:00 PM 19.19 66.542 0.475 7.95 3.81 9.13
9/14/2021 8:15:00 PM 19.12 66.416 0.476 7.92 13.75 9.03
9/14/2021 8:30:00 PM 19.05 66.29 0.477 7.9 4.98 8.94
9/14/2021 8:45:00 PM 18.95 66.11 0.478 7.88 5.56 8.88
9/14/2021 9:00:00 PM 18.85 65.93 0.479 7.86 6.17 8.83
9/14/2021 9:15:00 PM 18.74 65.732 0.479 7.85 6.65 8.82
9/14/2021 9:30:00 PM 18.62 65.516 0.48 7.83 6.55 8.81
9/14/2021 9:45:00 PM 18.49 65.282 0.48 7.83 8.16 8.79
9/14/2021 10:00:00 PM 18.36 65.048 0.481 7.81 7.85 8.8
9/14/2021 10:15:00 PM 18.22 64.796 0.481 7.81 7.48 8.82
9/14/2021 10:30:00 PM 18.09 64.562 0.482 7.81 6.59 8.86
9/14/2021 10:45:00 PM 17.96 64.328 0.482 7.79 15.09 8.9
9/14/2021 11:00:00 PM 17.83 64.094 0.483 7.81 5.29 8.94
9/14/2021 11:15:00 PM 17.71 63.878 0.483 7.8 4.86 8.96
9/14/2021 11:30:00 PM 17.59 63.662 0.484 7.8 5.09 8.97
9/14/2021 11:45:00 PM 17.46 63.428 0.484 7.79 4.51 8.99
9/15/2021 12:00:00 AM 17.35 63.23 0.485 7.78 4.5 9
9/15/2021 12:15:00 AM 17.24 63.032 0.485 7.78 4.72 9.01
9/15/2021 12:30:00 AM 17.14 62.852 0.485 7.77 5.1 9.03
9/15/2021 12:45:00 AM 17.05 62.69 0.486 7.77 4.53 9.03
9/15/2021 1:00:00 AM 16.97 62.546 0.486 7.77 4.55 9.05
9/15/2021 1:15:00 AM 16.89 62.402 0.487 7.77 4.61 9.06
9/15/2021 1:30:00 AM 16.82 62.276 0.487 7.76 4.95 9.07
9/15/2021 1:45:00 AM 16.75 62.15 0.487 7.76 4.54 9.09
9/15/2021 2:00:00 AM 16.68 62.024 0.488 7.76 4.97 9.1
9/15/2021 2:15:00 AM 16.62 61.916 0.488 7.75 5.27 9.11
9/15/2021 2:30:00 AM 16.56 61.808 0.488 7.74 5.3 9.12
9/15/2021 2:45:00 AM 16.5 61.7 0.489 7.74 5.06 9.13
9/15/2021 3:00:00 AM 16.45 61.61 0.489 7.74 4.64 9.14
9/15/2021 3:15:00 AM 16.4 61.52 0.489 7.73 4.71 9.15
9/15/2021 3:30:00 AM 16.36 61.448 0.489 7.73 4.62 9.16
9/15/2021 3:45:00 AM 16.33 61.394 0.49 7.74 5.12 9.16
9/15/2021 4:00:00 AM 16.3 61.34 0.49 7.74 5.34 9.17
9/15/2021 4:15:00 AM 16.27 61.286 0.49 7.74 5.04 9.18
9/15/2021 4:30:00 AM 16.25 61.25 0.49 7.74 4.82 9.18
9/15/2021 4:45:00 AM 16.23 61.214 0.49 7.74 5.29 9.19
9/15/2021 5:00:00 AM 16.22 61.196 0.489 7.75 4.98 9.2
9/15/2021 5:15:00 AM 16.2 61.16 0.489 7.75 5.23 9.21
9/15/2021 5:30:00 AM 16.19 61.142 0.489 7.75 5.93 9.21
9/15/2021 5:45:00 AM 16.18 61.124 0.489 7.75 5.14 9.21
9/15/2021 6:00:00 AM 16.16 61.088 0.489 7.75 5.4 9.22
9/15/2021 6:15:00 AM 16.15 61.07 0.488 7.75 5.07 9.21
9/15/2021 6:30:00 AM 16.14 61.052 0.488 7.75 4.86 9.21
9/15/2021 6:45:00 AM 16.12 61.016 0.488 7.75 4.93 9.22
9/15/2021 7:00:00 AM 16.11 60.998 0.488 7.74 4.96 9.23
9/15/2021 7:15:00 AM 16.1 60.98 0.488 7.74 4.68 9.27
9/15/2021 7:30:00 AM 16.1 60.98 0.488 7.75 4.43 9.33
9/15/2021 7:45:00 AM 16.1 60.98 0.487 7.75 4.1 9.39
9/15/2021 8:00:00 AM 16.11 60.998 0.487 7.76 3.84 9.45
9/15/2021 8:15:00 AM 16.12 61.016 0.487 7.76 3.86 9.48
9/15/2021 8:30:00 AM 16.13 61.034 0.487 7.77 3.64 9.53
9/15/2021 8:45:00 AM 16.13 61.034 0.487 7.78 3.25 9.58
9/15/2021 9:00:00 AM 16.15 61.07 0.486 7.78 3.17 9.66
9/15/2021 9:15:00 AM 16.18 61.124 0.486 7.8 2.96 9.78
9/15/2021 9:30:00 AM 16.21 61.178 0.486 7.8 2.93 9.84
9/15/2021 9:45:00 AM 16.25 61.25 0.485 7.82 2.63 9.94
9/15/2021 10:00:00 AM 16.3 61.34 0.485 7.83 2.66 10.03
9/15/2021 10:15:00 AM 16.37 61.466 0.485 7.84 2.74 10.11
9/15/2021 10:30:00 AM 16.43 61.574 0.485 7.86 2.58 10.18
9/15/2021 10:45:00 AM 16.53 61.754 0.485 7.88 3.15 10.24
9/15/2021 11:00:00 AM 16.6 61.88 0.485 7.89 3.03 10.29
9/15/2021 11:15:00 AM 16.69 62.042 0.484 7.9 3.33 10.35
9/15/2021 11:30:00 AM 16.79 62.222 0.484 7.92 3.16 10.46
9/15/2021 11:45:00 AM 16.92 62.456 0.483 7.94 3.07 10.57
9/15/2021 12:00:00 PM 17.05 62.69 0.483 7.97 2.9 10.67
9/15/2021 12:15:00 PM 17.24 63.032 0.482 7.99 2.69 10.77
9/15/2021 12:30:00 PM 17.47 63.446 0.482 8.02 2.65 10.87
9/15/2021 12:45:00 PM 17.69 63.842 0.482 8.04 11.23 10.96
9/15/2021 1:00:00 PM 17.92 64.256 0.481 8.07 2.6 11.04
9/15/2021 1:15:00 PM 18.15 64.67 0.48 8.1 2.43 11.11
9/15/2021 1:30:00 PM 18.27 64.886 0.479 8.11 12.1 11.09
9/15/2021 1:45:00 PM 18.45 65.21 0.479 8.14 2.83 11.11
9/15/2021 2:00:00 PM 18.67 65.606 0.479 8.15 3.13 11.18
9/15/2021 2:15:00 PM 18.88 65.984 0.478 8.16 11.62 11.19
9/15/2021 2:30:00 PM 19.09 66.362 0.477 8.18 3.48 11.21
9/15/2021 2:45:00 PM 19.24 66.632 0.476 8.21 3.35 11.18
9/15/2021 3:00:00 PM 19.41 66.938 0.475 8.23 3.02 11.12
9/15/2021 3:15:00 PM 19.55 67.19 0.474 8.25 2.94 11.06
9/15/2021 3:30:00 PM 19.7 67.46 0.473 8.26 2.91 11
9/15/2021 3:45:00 PM 19.84 67.712 0.472 8.27 2.88 10.93
9/15/2021 4:00:00 PM 20.03 68.054 0.471 8.29 2.82 10.91
9/15/2021 4:15:00 PM 20.19 68.342 0.47 8.29 2.66 10.86
9/15/2021 4:30:00 PM 20.25 68.45 0.47 8.29 2.68 10.67
9/15/2021 4:45:00 PM 20.31 68.558 0.47 8.29 2.57 10.54
9/15/2021 5:00:00 PM 20.37 68.666 0.47 8.28 2.53 10.43
9/15/2021 5:15:00 PM 20.37 68.666 0.47 8.26 2.94 10.27
9/15/2021 5:30:00 PM 20.38 68.684 0.47 8.25 2.72 10.11
9/15/2021 5:45:00 PM 20.38 68.684 0.47 8.23 2.62 9.98
9/15/2021 6:00:00 PM 20.36 68.648 0.471 8.21 3.01 9.79
9/15/2021 6:15:00 PM 20.32 68.576 0.472 8.18 2.85 9.61
9/15/2021 6:30:00 PM 20.28 68.504 0.473 8.14 3.04 9.44
9/15/2021 6:45:00 PM 20.26 68.468 0.474 8.12 3.41 9.29
9/15/2021 7:00:00 PM 20.21 68.378 0.474 8.09 3.54 9.17
9/15/2021 7:15:00 PM 20.16 68.288 0.475 8.07 3.52 9.05
9/15/2021 7:30:00 PM 20.08 68.144 0.465 8.06 4.56 8.9
9/15/2021 7:45:00 PM 20.01 68.018 0.462 8 14.16 8.78
9/15/2021 8:00:00 PM 19.95 67.91 0.464 7.97 9.6 8.74
9/15/2021 8:15:00 PM 19.88 67.784 0.463 7.96 9.83 8.68
9/15/2021 8:30:00 PM 19.8 67.64 0.459 7.94 10.23 8.66
9/15/2021 8:45:00 PM 19.71 67.478 0.455 7.91 12.77 8.62
9/15/2021 9:00:00 PM 19.62 67.316 0.452 7.88 75.05 8.58
9/15/2021 9:15:00 PM 19.51 67.118 0.45 7.86 14.08 8.56
9/15/2021 9:30:00 PM 19.39 66.902 0.449 7.84 13.87 8.57
9/15/2021 9:45:00 PM 19.26 66.668 0.446 7.83 16.06 8.56
9/15/2021 10:00:00 PM 19.14 66.452 0.445 7.81 15.29 8.55
9/15/2021 10:15:00 PM 18.99 66.182 0.445 7.78 16.36 8.52
9/15/2021 10:30:00 PM 18.84 65.912 0.447 7.77 16.33 8.53
9/15/2021 10:45:00 PM 18.67 65.606 0.448 7.75 17.23 8.53
9/15/2021 11:00:00 PM 18.51 65.318 0.449 7.73 17.67 8.54
9/15/2021 11:15:00 PM 18.34 65.012 0.451 7.72 16.94 8.54
9/15/2021 11:30:00 PM 18.19 64.742 0.452 7.71 16.01 8.57
9/15/2021 11:45:00 PM 18.04 64.472 0.453 7.7 15.35 8.6
9/16/2021 12:00:00 AM 17.9 64.22 0.455 7.7 14.39 8.61
9/16/2021 12:15:00 AM 17.78 64.004 0.458 7.69 14.46 8.64
9/16/2021 12:30:00 AM 17.67 63.806 0.461 7.7 13.14 8.66
9/16/2021 12:45:00 AM 17.57 63.626 0.464 7.7 11.78 8.64
9/16/2021 1:00:00 AM 17.47 63.446 0.466 7.69 11.5 8.62
9/16/2021 1:15:00 AM 17.38 63.284 0.467 7.68 11.64 8.61
9/16/2021 1:30:00 AM 17.3 63.14 0.468 7.68 11.35 8.58
9/16/2021 1:45:00 AM 17.23 63.014 0.47 7.67 13.35 8.54
9/16/2021 2:00:00 AM 17.16 62.888 0.472 7.67 14.3 8.54
9/16/2021 2:15:00 AM 17.1 62.78 0.473 7.66 12.69 8.53
9/16/2021 2:30:00 AM 17.05 62.69 0.474 7.66 12.56 8.53
9/16/2021 2:45:00 AM 16.99 62.582 0.475 7.66 12.65 8.52
9/16/2021 3:00:00 AM 16.94 62.492 0.476 7.66 10.64 8.53
9/16/2021 3:15:00 AM 16.88 62.384 0.476 7.66 10.4 8.54
9/16/2021 3:30:00 AM 16.83 62.294 0.476 7.66 11.83 8.59
9/16/2021 3:45:00 AM 16.79 62.222 0.474 7.66 11.92 8.62
9/16/2021 4:00:00 AM 16.76 62.168 0.472 7.67 10.76 8.66
9/16/2021 4:15:00 AM 16.74 62.132 0.469 7.67 9.36 8.69
9/16/2021 4:30:00 AM 16.73 62.114 0.466 7.67 9.32 8.71
9/16/2021 4:45:00 AM 16.72 62.096 0.463 7.67 9.17 8.73
9/16/2021 5:00:00 AM 16.71 62.078 0.46 7.66 9.99 8.74
9/16/2021 5:15:00 AM 16.69 62.042 0.458 7.67 8.37 8.75
9/16/2021 5:30:00 AM 16.67 62.006 0.456 7.67 8.84 8.76
9/16/2021 5:45:00 AM 16.64 61.952 0.454 7.67 8.66 8.78
9/16/2021 6:00:00 AM 16.61 61.898 0.452 7.66 8.43 8.78
9/16/2021 6:15:00 AM 16.58 61.844 0.449 7.66 8.25 8.79
9/16/2021 6:30:00 AM 16.54 61.772 0.446 7.66 8.4 8.8
9/16/2021 6:45:00 AM 16.52 61.736 0.443 7.66 7.96 8.8
9/16/2021 7:00:00 AM 16.5 61.7 0.441 7.66 8.46 8.8
9/16/2021 7:15:00 AM 16.47 61.646 0.439 7.66 7.77 8.83
9/16/2021 7:30:00 AM 16.44 61.592 0.438 7.66 7.13 8.85
9/16/2021 7:45:00 AM 16.41 61.538 0.438 7.66 6.95 8.88
9/16/2021 8:00:00 AM 16.39 61.502 0.438 7.67 6.23 8.92
9/16/2021 8:15:00 AM 16.37 61.466 0.439 7.69 6.16 8.97
9/16/2021 8:30:00 AM 16.35 61.43 0.441 7.68 4.95 9.04
9/16/2021 8:45:00 AM 16.33 61.394 0.442 7.7 5.26 9.07
9/16/2021 9:00:00 AM 16.31 61.358 0.444 7.71 4.75 9.12
9/16/2021 9:15:00 AM 16.29 61.322 0.446 7.7 4.43 9.2
9/16/2021 9:30:00 AM 16.29 61.322 0.448 7.71 4.22 9.3
9/16/2021 9:45:00 AM 16.29 61.322 0.45 7.72 4.07 9.39
9/16/2021 10:00:00 AM 16.32 61.376 0.451 7.74 3.82 9.49
9/16/2021 10:15:00 AM 16.35 61.43 0.453 7.75 3.67 9.62
9/16/2021 10:30:00 AM 16.41 61.538 0.455 7.77 3.54 9.75
9/16/2021 10:45:00 AM 16.47 61.646 0.456 7.79 3.45 9.86
9/16/2021 11:00:00 AM 16.54 61.772 0.458 7.81 3.36 9.98
9/16/2021 11:15:00 AM 16.63 61.934 0.459 7.83 3.23 10.13
9/16/2021 11:30:00 AM 16.75 62.15 0.46 7.86 3.17 10.27
9/16/2021 11:45:00 AM 16.89 62.402 0.462 7.89 3.04 10.44
9/16/2021 12:00:00 PM 17.04 62.672 0.463 7.92 3.17 10.6
9/16/2021 12:15:00 PM 17.21 62.978 0.463 7.95 3.24 10.77
9/16/2021 12:30:00 PM 17.41 63.338 0.464 7.98 3.02 10.93
9/16/2021 12:45:00 PM 17.64 63.752 0.464 8.03 2.98 11.13
9/16/2021 1:00:00 PM 17.82 64.076 0.464 8.05 15.08 11.22
9/16/2021 1:15:00 PM 18.04 64.472 0.464 8.09 2.84 11.3
9/16/2021 1:30:00 PM 18.31 64.958 0.464 8.13 3.02 11.42
9/16/2021 1:45:00 PM 18.44 65.192 0.464 8.15 2.87 11.41
9/16/2021 2:00:00 PM 18.52 65.336 0.465 8.17 2.89 11.27
9/16/2021 2:15:00 PM 18.6 65.48 0.465 8.18 2.92 11.18
9/16/2021 2:30:00 PM 18.7 65.66 0.465 8.19 2.75 11.19
9/16/2021 2:45:00 PM 18.81 65.858 0.466 8.21 2.79 11.19
9/16/2021 3:00:00 PM 18.87 65.966 0.466 8.22 2.8 11.15
9/16/2021 3:15:00 PM 18.97 66.146 0.466 8.23 2.75 11.16
9/16/2021 3:30:00 PM 19.03 66.254 0.466 8.24 2.64 11.09
9/16/2021 3:45:00 PM 19.09 66.362 0.467 8.24 2.99 10.93
9/16/2021 4:00:00 PM 19.13 66.434 0.467 8.23 2.81 10.78
9/16/2021 4:15:00 PM 19.16 66.488 0.468 8.22 2.9 10.58
9/16/2021 4:30:00 PM 19.18 66.524 0.469 8.19 3.14 10.33
9/16/2021 4:45:00 PM 19.2 66.56 0.47 8.18 2.84 10.25
9/16/2021 5:00:00 PM 19.23 66.614 0.47 8.18 2.77 10.25
9/16/2021 5:15:00 PM 19.23 66.614 0.47 8.18 2.78 10.18
9/16/2021 5:30:00 PM 19.22 66.596 0.47 8.17 2.91 10.04
9/16/2021 5:45:00 PM 19.21 66.578 0.471 8.15 2.68 9.95
9/16/2021 6:00:00 PM 19.19 66.542 0.471 8.14 2.91 9.84
9/16/2021 6:15:00 PM 19.16 66.488 0.472 8.12 2.95 9.67
9/16/2021 6:30:00 PM 19.12 66.416 0.473 8.1 3.18 9.55
9/16/2021 6:45:00 PM 19.09 66.362 0.473 8.08 2.99 9.43
9/16/2021 7:00:00 PM 19.06 66.308 0.474 8.05 3.2 9.27
9/16/2021 7:15:00 PM 19.02 66.236 0.475 8.02 3.07 9.04
9/16/2021 7:30:00 PM 18.99 66.182 0.475 8.01 3.38 8.92
9/16/2021 7:45:00 PM 18.95 66.11 0.476 7.99 3.51 8.85
9/16/2021 8:00:00 PM 18.91 66.038 0.477 7.97 3.19 8.82
9/16/2021 8:15:00 PM 18.85 65.93 0.477 7.95 3.99 8.74
9/16/2021 8:30:00 PM 18.77 65.786 0.478 7.93 3.34 8.64
9/16/2021 8:45:00 PM 18.67 65.606 0.479 7.9 3.43 8.61
9/16/2021 9:00:00 PM 18.57 65.426 0.48 7.88 3.69 8.61
9/16/2021 9:15:00 PM 18.46 65.228 0.481 7.87 3.21 8.61
9/16/2021 9:30:00 PM 18.37 65.066 0.482 7.85 3.27 8.62
9/16/2021 9:45:00 PM 18.27 64.886 0.482 7.84 3 8.64
9/16/2021 10:00:00 PM 18.18 64.724 0.483 7.83 3.1 8.61
9/16/2021 10:15:00 PM 18.09 64.562 0.484 7.81 15.81 8.64
9/16/2021 10:30:00 PM 17.99 64.382 0.485 7.81 3.36 8.62
9/16/2021 10:45:00 PM 17.9 64.22 0.486 7.8 3.1 8.63
9/16/2021 11:00:00 PM 17.8 64.04 0.486 7.79 3.21 8.61
9/16/2021 11:15:00 PM 17.71 63.878 0.487 7.79 3.01 8.63
9/16/2021 11:30:00 PM 17.6 63.68 0.488 7.78 2.99 8.66
9/16/2021 11:45:00 PM 17.51 63.518 0.489 7.76 3.4 8.65
9/17/2021 12:00:00 AM 17.41 63.338 0.489 7.75 3.42 8.67
9/17/2021 12:15:00 AM 17.31 63.158 0.49 7.75 3.29 8.68
9/17/2021 12:30:00 AM 17.22 62.996 0.49 7.74 3.29 8.69
9/17/2021 12:45:00 AM 17.14 62.852 0.491 7.74 3.33 8.71
9/17/2021 1:00:00 AM 17.07 62.726 0.491 7.73 3.66 8.72
9/17/2021 1:15:00 AM 17 62.6 0.492 7.73 3.7 8.73
9/17/2021 1:30:00 AM 16.93 62.474 0.492 7.73 3.25 8.74
9/17/2021 1:45:00 AM 16.87 62.366 0.492 7.73 3.37 8.75
9/17/2021 2:00:00 AM 16.8 62.24 0.492 7.73 3.31 8.77
9/17/2021 2:15:00 AM 16.73 62.114 0.493 7.73 9.91 8.79
9/17/2021 2:30:00 AM 16.67 62.006 0.493 7.72 3.43 8.81
9/17/2021 2:45:00 AM 16.61 61.898 0.493 7.73 3.47 8.82
9/17/2021 3:00:00 AM 16.55 61.79 0.494 7.73 3.39 8.84
9/17/2021 3:15:00 AM 16.49 61.682 0.494 7.73 3.85 8.85
9/17/2021 3:30:00 AM 16.44 61.592 0.494 7.73 3.62 8.87
9/17/2021 3:45:00 AM 16.38 61.484 0.494 7.73 3.12 8.9
9/17/2021 4:00:00 AM 16.32 61.376 0.495 7.73 3.23 8.93
9/17/2021 4:15:00 AM 16.28 61.304 0.495 7.72 3.55 8.94
9/17/2021 4:30:00 AM 16.24 61.232 0.495 7.73 3.78 8.97
9/17/2021 4:45:00 AM 16.2 61.16 0.495 7.73 3.76 8.99
9/17/2021 5:00:00 AM 16.17 61.106 0.495 7.73 4.16 8.99
9/17/2021 5:15:00 AM 16.14 61.052 0.495 7.73 4.54 9.01
9/17/2021 5:30:00 AM 16.11 60.998 0.495 7.73 4.31 9.03
9/17/2021 5:45:00 AM 16.08 60.944 0.495 7.73 4.43 9.03
9/17/2021 6:00:00 AM 16.06 60.908 0.495 7.73 4.37 9.05
9/17/2021 6:15:00 AM 16.03 60.854 0.495 7.73 3.96 9.07
9/17/2021 6:30:00 AM 16.01 60.818 0.495 7.73 4.09 9.08
9/17/2021 6:45:00 AM 15.99 60.782 0.495 7.73 4.03 9.1
9/17/2021 7:00:00 AM 15.96 60.728 0.495 7.73 3.82 9.12
9/17/2021 7:15:00 AM 15.94 60.692 0.495 7.73 4.3 9.14
9/17/2021 7:30:00 AM 15.93 60.674 0.495 7.73 3.45 9.18
9/17/2021 7:45:00 AM 15.92 60.656 0.495 7.73 3.39 9.23
9/17/2021 8:00:00 AM 15.9 60.62 0.495 7.74 2.99 9.29
9/17/2021 8:15:00 AM 15.89 60.602 0.495 7.74 3.09 9.35
9/17/2021 8:30:00 AM 15.89 60.602 0.495 7.75 2.79 9.41
9/17/2021 8:45:00 AM 15.88 60.584 0.495 7.76 2.88 9.48
9/17/2021 9:00:00 AM 15.88 60.584 0.495 7.77 2.89 9.57
9/17/2021 9:15:00 AM 15.9 60.62 0.495 7.78 2.58 9.74
9/17/2021 9:30:00 AM 15.93 60.674 0.494 7.8 2.85 9.9
9/17/2021 9:45:00 AM 15.97 60.746 0.494 7.82 2.63 10.01
9/17/2021 10:00:00 AM 15.99 60.782 0.494 7.83 2.36 10.06
9/17/2021 10:15:00 AM 16.02 60.836 0.494 7.84 2.55 10.12
9/17/2021 10:30:00 AM 16.06 60.908 0.493 7.86 2.42 10.19
9/17/2021 10:45:00 AM 16.11 60.998 0.493 7.88 2.55 10.27
9/17/2021 11:00:00 AM 16.16 61.088 0.493 7.9 2.34 10.38
9/17/2021 11:15:00 AM 16.22 61.196 0.492 7.91 2.53 10.43
9/17/2021 11:30:00 AM 16.3 61.34 0.492 7.93 2.73 10.58
9/17/2021 11:45:00 AM 16.36 61.448 0.492 7.95 2.98 10.68
9/17/2021 12:00:00 PM 16.48 61.664 0.491 7.98 3.05 10.92
9/17/2021 12:15:00 PM 16.58 61.844 0.491 8.01 3.29 11.01
9/17/2021 12:30:00 PM 16.69 62.042 0.49 8.04 3.5 11.12
9/17/2021 12:45:00 PM 16.79 62.222 0.489 8.06 3.2 11.23
9/17/2021 1:00:00 PM 16.84 62.312 0.489 8.07 3.19 11.27
9/17/2021 1:15:00 PM 16.97 62.546 0.488 8.1 3.4 11.45
9/17/2021 1:30:00 PM 17.01 62.618 0.487 8.11 2.91 11.33
9/17/2021 1:45:00 PM 17.09 62.762 0.487 8.12 2.72 11.35
9/17/2021 2:00:00 PM 17.13 62.834 0.487 8.12 4.01 11.13
9/17/2021 2:15:00 PM 17.18 62.924 0.486 8.13 2.59 11.08
9/17/2021 2:30:00 PM 17.26 63.068 0.486 8.15 2.59 11.11
9/17/2021 2:45:00 PM 17.38 63.284 0.485 8.17 2.78 11.27
9/17/2021 3:00:00 PM 17.48 63.464 0.484 8.19 2.84 11.35
9/17/2021 3:15:00 PM 17.6 63.68 0.484 8.21 2.84 11.43
9/17/2021 3:30:00 PM 17.68 63.824 0.483 8.21 2.87 11.31
9/17/2021 3:45:00 PM 17.71 63.878 0.483 8.21 15.98 11.23
9/17/2021 4:00:00 PM 17.8 64.04 0.482 8.23 2.53 11.26
9/17/2021 4:15:00 PM 17.83 64.094 0.482 8.24 2.81 11.09
9/17/2021 4:30:00 PM 17.88 64.184 0.482 8.23 2.95 10.97
9/17/2021 4:45:00 PM 17.95 64.31 0.482 8.23 2.95 10.82
9/17/2021 5:00:00 PM 17.98 64.364 0.482 8.22 2.99 10.56
9/17/2021 5:15:00 PM 18.04 64.472 0.482 8.2 2.95 10.55
9/17/2021 5:30:00 PM 18.06 64.508 0.482 8.2 2.95 10.33
9/17/2021 5:45:00 PM 18.1 64.58 0.483 8.19 2.98 10.23
9/17/2021 6:00:00 PM 18.1 64.58 0.483 8.17 3.05 10.07
9/17/2021 6:15:00 PM 18.1 64.58 0.483 8.15 3.08 9.95
9/17/2021 6:30:00 PM 18.08 64.544 0.484 8.12 3.07 9.83
9/17/2021 6:45:00 PM 18.05 64.49 0.484 8.09 2.88 9.73
9/17/2021 7:00:00 PM 18.02 64.436 0.484 8.07 2.89 9.63
9/17/2021 7:15:00 PM 17.99 64.382 0.485 8.05 2.92 9.52
9/17/2021 7:30:00 PM 17.96 64.328 0.485 8.03 3.17 9.43
9/17/2021 7:45:00 PM 17.92 64.256 0.486 8 3.76 9.34
9/17/2021 8:00:00 PM 17.88 64.184 0.486 7.99 3.04 9.28
9/17/2021 8:15:00 PM 17.83 64.094 0.486 7.97 3.24 9.22
9/17/2021 8:30:00 PM 17.79 64.022 0.487 7.96 2.93 9.19
9/17/2021 8:45:00 PM 17.75 63.95 0.487 7.95 3.21 9.14
9/17/2021 9:00:00 PM 17.71 63.878 0.488 7.92 3.16 9.11
9/17/2021 9:15:00 PM 17.66 63.788 0.488 7.92 3.37 9.08
9/17/2021 9:30:00 PM 17.6 63.68 0.489 7.9 3.48 9.05
9/17/2021 9:45:00 PM 17.54 63.572 0.489 7.89 3.48 9.05
9/17/2021 10:00:00 PM 17.48 63.464 0.489 7.88 3.64 9.04
9/17/2021 10:15:00 PM 17.41 63.338 0.49 7.87 3.26 9.03
9/17/2021 10:30:00 PM 17.35 63.23 0.49 7.87 3.5 9.02
9/17/2021 10:45:00 PM 17.28 63.104 0.491 7.86 3.72 9.02
9/17/2021 11:00:00 PM 17.21 62.978 0.491 7.85 3.54 9.01
9/17/2021 11:15:00 PM 17.12 62.816 0.492 7.84 3.45 9.01
9/17/2021 11:30:00 PM 17.02 62.636 0.493 7.83 3.32 9.01
9/17/2021 11:45:00 PM 16.91 62.438 0.493 7.82 3.42 9
9/18/2021 12:00:00 AM 16.8 62.24 0.494 7.8 3.33 9.02
9/18/2021 12:15:00 AM 16.69 62.042 0.495 7.81 3.41 9.03
9/18/2021 12:30:00 AM 16.58 61.844 0.495 7.8 3.49 9.04
9/18/2021 12:45:00 AM 16.48 61.664 0.495 7.78 3.78 9.05
9/18/2021 1:00:00 AM 16.38 61.484 0.496 7.79 3.68 9.06
9/18/2021 1:15:00 AM 16.28 61.304 0.496 7.79 3.81 9.09
9/18/2021 1:30:00 AM 16.2 61.16 0.496 7.78 4.03 9.11
9/18/2021 1:45:00 AM 16.13 61.034 0.496 7.78 3.33 9.13
9/18/2021 2:00:00 AM 16.06 60.908 0.496 7.77 3.98 9.15
9/18/2021 2:15:00 AM 15.99 60.782 0.497 7.77 3.49 9.16
9/18/2021 2:30:00 AM 15.93 60.674 0.497 7.77 3.54 9.19
9/18/2021 2:45:00 AM 15.87 60.566 0.497 7.76 3.5 9.2
9/18/2021 3:00:00 AM 15.81 60.458 0.497 7.76 3.34 9.22
9/18/2021 3:15:00 AM 15.76 60.368 0.497 7.75 3.6 9.24
9/18/2021 3:30:00 AM 15.7 60.26 0.498 7.75 3.42 9.25
9/18/2021 3:45:00 AM 15.65 60.17 0.498 7.75 3.33 9.27
9/18/2021 4:00:00 AM 15.61 60.098 0.498 7.75 3.52 9.28
9/18/2021 4:15:00 AM 15.56 60.008 0.498 7.74 4.01 9.29
9/18/2021 4:30:00 AM 15.51 59.918 0.499 7.75 4.1 9.3
9/18/2021 4:45:00 AM 15.46 59.828 0.499 7.74 3.89 9.31
9/18/2021 5:00:00 AM 15.43 59.774 0.499 7.74 4.34 9.32
9/18/2021 5:15:00 AM 15.4 59.72 0.499 7.74 5.11 9.32
9/18/2021 5:30:00 AM 15.37 59.666 0.499 7.74 4.95 9.34
9/18/2021 5:45:00 AM 15.35 59.63 0.499 7.75 4.19 9.35
9/18/2021 6:00:00 AM 15.33 59.594 0.499 7.75 4.97 9.35
9/18/2021 6:15:00 AM 15.32 59.576 0.499 7.75 4.48 9.36
9/18/2021 6:30:00 AM 15.3 59.54 0.499 7.75 4.51 9.36
9/18/2021 6:45:00 AM 15.29 59.522 0.499 7.74 4.43 9.37
9/18/2021 7:00:00 AM 15.28 59.504 0.499 7.75 4.6 9.38
9/18/2021 7:15:00 AM 15.26 59.468 0.499 7.75 3.56 9.41
9/18/2021 7:30:00 AM 15.26 59.468 0.499 7.75 3.49 9.46
9/18/2021 7:45:00 AM 15.25 59.45 0.499 7.75 16.65 9.52
9/18/2021 8:00:00 AM 15.26 59.468 0.498 7.77 4.01 9.63
9/18/2021 8:15:00 AM 15.28 59.504 0.498 7.78 3.12 9.76
9/18/2021 8:30:00 AM 15.31 59.558 0.498 7.79 3.05 9.9
9/18/2021 8:45:00 AM 15.34 59.612 0.498 7.81 2.96 10.06
9/18/2021 9:00:00 AM 15.37 59.666 0.497 7.82 2.54 10.2
9/18/2021 9:15:00 AM 15.38 59.684 0.497 7.83 2.51 10.26
9/18/2021 9:30:00 AM 15.4 59.72 0.497 7.85 2.8 10.33
9/18/2021 9:45:00 AM 15.44 59.792 0.496 7.86 2.42 10.49
9/18/2021 10:00:00 AM 15.5 59.9 0.496 7.89 2.47 10.65
9/18/2021 10:15:00 AM 15.54 59.972 0.496 7.9 2.39 10.73
9/18/2021 10:30:00 AM 15.61 60.098 0.495 7.92 2.24 10.83
9/18/2021 10:45:00 AM 15.73 60.314 0.494 7.95 2.31 11.05
9/18/2021 11:00:00 AM 15.84 60.512 0.494 7.98 2.28 11.18
9/18/2021 11:15:00 AM 15.98 60.764 0.493 8.01 2.31 11.36
9/18/2021 11:30:00 AM 16.07 60.926 0.493 8.03 2.22 11.35
9/18/2021 11:45:00 AM 16.28 61.304 0.492 8.05 2.36 11.54
9/18/2021 12:00:00 PM 16.41 61.538 0.491 8.08 2.33 11.58
9/18/2021 12:15:00 PM 16.57 61.826 0.49 8.11 2.7 11.64
9/18/2021 12:30:00 PM 16.75 62.15 0.49 8.13 2.72 11.71
9/18/2021 12:45:00 PM 16.96 62.528 0.489 8.15 2.89 11.79
9/18/2021 1:00:00 PM 17.07 62.726 0.488 8.17 3 11.78
9/18/2021 1:15:00 PM 17.38 63.284 0.486 8.22 2.75 12.02
9/18/2021 1:30:00 PM 17.55 63.59 0.485 8.25 2.72 12.03
9/18/2021 1:45:00 PM 17.79 64.022 0.483 8.29 2.45 12.14
9/18/2021 2:00:00 PM 17.88 64.184 0.482 8.3 2.51 12.04
9/18/2021 2:15:00 PM 18.08 64.544 0.481 8.33 2.28 12
9/18/2021 2:30:00 PM 18.32 64.976 0.48 8.36 2.58 12.02
9/18/2021 2:45:00 PM 18.55 65.39 0.479 8.39 2.16 12.04
9/18/2021 3:00:00 PM 18.69 65.642 0.479 8.4 2.43 11.82
9/18/2021 3:15:00 PM 18.72 65.696 0.479 8.37 2.71 11.47
9/18/2021 3:30:00 PM 18.83 65.894 0.48 8.36 3.18 11.29
9/18/2021 3:45:00 PM 18.95 66.11 0.48 8.36 2.87 11.28
9/18/2021 4:00:00 PM 18.93 66.074 0.48 8.34 2.98 10.96
9/18/2021 4:15:00 PM 18.98 66.164 0.48 8.33 2.81 10.86
9/18/2021 4:30:00 PM 19.1 66.38 0.479 8.35 2.55 10.83
9/18/2021 4:45:00 PM 19.14 66.452 0.479 8.34 2.44 10.63
9/18/2021 5:00:00 PM 19.18 66.524 0.479 8.33 2.29 10.49
9/18/2021 5:15:00 PM 19.22 66.596 0.479 8.32 2.46 10.35
9/18/2021 5:30:00 PM 19.25 66.65 0.48 8.3 2.33 10.18
9/18/2021 5:45:00 PM 19.29 66.722 0.48 8.28 2.37 9.99
9/18/2021 6:00:00 PM 19.31 66.758 0.481 8.24 2.83 9.81
9/18/2021 6:15:00 PM 19.32 66.776 0.482 8.21 2.39 9.63
9/18/2021 6:30:00 PM 19.33 66.794 0.482 8.19 2.54 9.44
9/18/2021 6:45:00 PM 19.33 66.794 0.482 8.17 2.26 9.38
9/18/2021 7:00:00 PM 19.31 66.758 0.482 8.14 2.29 9.24
9/18/2021 7:15:00 PM 19.27 66.686 0.482 8.12 2.31 9.14
9/18/2021 7:30:00 PM 19.22 66.596 0.482 8.09 2.19 9.05
9/18/2021 7:45:00 PM 19.16 66.488 0.482 8.06 2.35 8.97
9/18/2021 8:00:00 PM 19.09 66.362 0.482 8.04 2.35 8.91
9/18/2021 8:15:00 PM 19.03 66.254 0.482 8.02 2.5 8.87
9/18/2021 8:30:00 PM 18.98 66.164 0.483 8.01 2.55 8.77
9/18/2021 8:45:00 PM 18.92 66.056 0.483 7.99 2.7 8.74
9/18/2021 9:00:00 PM 18.85 65.93 0.484 7.97 2.2 8.75
9/18/2021 9:15:00 PM 18.78 65.804 0.485 7.96 2.42 8.73
9/18/2021 9:30:00 PM 18.72 65.696 0.487 7.94 2.28 8.71
9/18/2021 9:45:00 PM 18.64 65.552 0.487 7.93 2.68 8.63
9/18/2021 10:00:00 PM 18.56 65.408 0.488 7.91 3.28 8.65
9/18/2021 10:15:00 PM 18.45 65.21 0.489 7.9 2.87 8.64
9/18/2021 10:30:00 PM 18.34 65.012 0.49 7.89 2.87 8.69
9/18/2021 10:45:00 PM 18.22 64.796 0.491 7.88 3.47 8.69
9/18/2021 11:00:00 PM 18.09 64.562 0.493 7.86 3.35 8.69
9/18/2021 11:15:00 PM 17.95 64.31 0.494 7.86 3.01 8.66
9/18/2021 11:30:00 PM 17.81 64.058 0.495 7.83 2.79 8.71
9/18/2021 11:45:00 PM 17.67 63.806 0.496 7.82 15.98 8.73
9/19/2021 12:00:00 AM 17.52 63.536 0.497 7.82 3.08 8.71
9/19/2021 12:15:00 AM 17.37 63.266 0.498 7.81 3.34 8.75
9/19/2021 12:30:00 AM 17.23 63.014 0.498 7.8 4.47 8.75
9/19/2021 12:45:00 AM 17.09 62.762 0.499 7.8 3.52 8.82
9/19/2021 1:00:00 AM 16.96 62.528 0.499 7.79 3.07 8.86
9/19/2021 1:15:00 AM 16.84 62.312 0.5 7.79 5 8.89
9/19/2021 1:30:00 AM 16.73 62.114 0.5 7.78 3.19 8.91
9/19/2021 1:45:00 AM 16.62 61.916 0.5 7.78 2.97 8.93
9/19/2021 2:00:00 AM 16.52 61.736 0.501 7.78 3.15 8.97
9/19/2021 2:15:00 AM 16.43 61.574 0.501 7.78 3.86 8.98
9/19/2021 2:30:00 AM 16.34 61.412 0.502 7.78 2.68 8.99
9/19/2021 2:45:00 AM 16.26 61.268 0.502 7.77 3.12 9.03
9/19/2021 3:00:00 AM 16.19 61.142 0.502 7.78 3.1 9.05
9/19/2021 3:15:00 AM 16.11 60.998 0.502 7.78 3 9.07
9/19/2021 3:30:00 AM 16.04 60.872 0.502 7.78 3.93 9.11
9/19/2021 3:45:00 AM 15.97 60.746 0.502 7.78 3.56 9.14
9/19/2021 4:00:00 AM 15.89 60.602 0.503 7.78 3.1 9.16
9/19/2021 4:15:00 AM 15.81 60.458 0.503 7.78 3.8 9.18
9/19/2021 4:30:00 AM 15.73 60.314 0.503 7.78 3.69 9.21
9/19/2021 4:45:00 AM 15.64 60.152 0.504 7.78 3.66 9.23
9/19/2021 5:00:00 AM 15.57 60.026 0.504 7.78 3.54 9.24
9/19/2021 5:15:00 AM 15.49 59.882 0.504 7.78 4.22 9.25
9/19/2021 5:30:00 AM 15.42 59.756 0.504 7.79 4.3 9.27
9/19/2021 5:45:00 AM 15.35 59.63 0.504 7.79 3.78 9.31
9/19/2021 6:00:00 AM 15.28 59.504 0.504 7.79 3.97 9.32
9/19/2021 6:15:00 AM 15.22 59.396 0.504 7.79 4.08 9.35
9/19/2021 6:30:00 AM 15.15 59.27 0.504 7.8 3.78 9.37
9/19/2021 6:45:00 AM 15.07 59.126 0.504 7.8 4.2 9.39
9/19/2021 7:00:00 AM 15.01 59.018 0.504 7.8 3.9 9.4
9/19/2021 7:15:00 AM 14.94 58.892 0.504 7.81 3.26 9.45
9/19/2021 7:30:00 AM 14.88 58.784 0.504 7.81 3.23 9.51
9/19/2021 7:45:00 AM 14.82 58.676 0.504 7.82 3.06 9.56
9/19/2021 8:00:00 AM 14.77 58.586 0.504 7.83 2.68 9.61
9/19/2021 8:15:00 AM 14.73 58.514 0.503 7.83 2.83 9.66
9/19/2021 8:30:00 AM 14.69 58.442 0.503 7.84 2.54 9.72
9/19/2021 8:45:00 AM 14.66 58.388 0.503 7.84 2.37 9.77
9/19/2021 9:00:00 AM 14.63 58.334 0.503 7.85 2.26 9.84
9/19/2021 9:15:00 AM 14.62 58.316 0.502 7.85 2.12 9.9
9/19/2021 9:30:00 AM 14.62 58.316 0.502 7.86 14.27 9.98
9/19/2021 9:45:00 AM 14.64 58.352 0.502 7.87 1.99 10.08
9/19/2021 10:00:00 AM 14.67 58.406 0.502 7.89 2.04 10.17
9/19/2021 10:15:00 AM 14.71 58.478 0.501 7.9 1.89 10.32
9/19/2021 10:30:00 AM 14.78 58.604 0.501 7.91 1.86 10.45
9/19/2021 10:45:00 AM 14.83 58.694 0.5 7.93 1.83 10.56
9/19/2021 11:00:00 AM 14.9 58.82 0.5 7.94 16.1 10.68
9/19/2021 11:15:00 AM 14.99 58.982 0.499 7.96 1.79 10.81
9/19/2021 11:30:00 AM 15.1 59.18 0.499 7.98 1.68 10.91
9/19/2021 11:45:00 AM 15.22 59.396 0.498 8 1.92 11.05
9/19/2021 12:00:00 PM 15.36 59.648 0.498 8.02 2.02 11.14
9/19/2021 12:15:00 PM 15.52 59.936 0.497 8.05 1.96 11.28
9/19/2021 12:30:00 PM 15.75 60.35 0.496 8.07 2.03 11.43
9/19/2021 12:45:00 PM 15.98 60.764 0.495 8.11 2.01 11.56
9/19/2021 1:00:00 PM 16.23 61.214 0.494 8.14 1.99 11.67
9/19/2021 1:15:00 PM 16.48 61.664 0.493 8.18 2.32 11.79
9/19/2021 1:30:00 PM 16.77 62.186 0.491 8.21 2.03 11.9
9/19/2021 1:45:00 PM 17.02 62.636 0.489 8.25 2.14 11.97
9/19/2021 2:00:00 PM 17.29 63.122 0.488 8.29 1.99 12.02
9/19/2021 2:15:00 PM 17.52 63.536 0.487 8.31 2.29 12.04
9/19/2021 2:30:00 PM 17.73 63.914 0.485 8.34 2.77 12.03
9/19/2021 2:45:00 PM 17.92 64.256 0.484 8.36 2.31 11.96
9/19/2021 3:00:00 PM 18.09 64.562 0.483 8.37 14.93 11.87
9/19/2021 3:15:00 PM 18.26 64.868 0.483 8.39 2.02 11.79
9/19/2021 3:30:00 PM 18.41 65.138 0.482 8.41 2.14 11.68
9/19/2021 3:45:00 PM 18.54 65.372 0.481 8.41 2.18 11.56
9/19/2021 4:00:00 PM 18.65 65.57 0.481 8.41 2.2 11.44
9/19/2021 4:15:00 PM 18.74 65.732 0.48 8.42 2.1 11.28
9/19/2021 4:30:00 PM 18.81 65.858 0.48 8.41 2.09 11.15
9/19/2021 4:45:00 PM 18.85 65.93 0.48 8.41 2.23 10.98
9/19/2021 5:00:00 PM 18.86 65.948 0.48 8.4 2.42 10.77
9/19/2021 5:15:00 PM 18.85 65.93 0.48 8.38 2.32 10.58
9/19/2021 5:30:00 PM 18.83 65.894 0.481 8.36 2.17 10.4
9/19/2021 5:45:00 PM 18.8 65.84 0.481 8.34 2.27 10.21
9/19/2021 6:00:00 PM 18.76 65.768 0.482 8.31 2.27 9.99
9/19/2021 6:15:00 PM 18.72 65.696 0.482 8.28 2.32 9.83
9/19/2021 6:30:00 PM 18.68 65.624 0.483 8.26 2.29 9.68
9/19/2021 6:45:00 PM 18.63 65.534 0.484 8.23 2.45 9.52
9/19/2021 7:00:00 PM 18.58 65.444 0.485 8.21 2.39 9.43
9/19/2021 7:15:00 PM 18.53 65.354 0.485 8.18 2.28 9.34
9/19/2021 7:30:00 PM 18.47 65.246 0.486 8.16 2.65 9.25
9/19/2021 7:45:00 PM 18.41 65.138 0.486 8.13 2.44 9.17
9/19/2021 8:00:00 PM 18.34 65.012 0.487 8.13 2.53 9.13
9/19/2021 8:15:00 PM 18.26 64.868 0.487 8.11 2.61 9.09
9/19/2021 8:30:00 PM 18.17 64.706 0.488 8.07 14.74 9.06
9/19/2021 8:45:00 PM 18.07 64.526 0.489 8.07 2.63 9.03
9/19/2021 9:00:00 PM 17.96 64.328 0.49 8.04 2.9 9
9/19/2021 9:15:00 PM 17.83 64.094 0.491 8.03 2.66 8.99
9/19/2021 9:30:00 PM 17.7 63.86 0.492 8.01 3.38 8.99
9/19/2021 9:45:00 PM 17.55 63.59 0.493 7.99 3.61 9
9/19/2021 10:00:00 PM 17.39 63.302 0.493 7.98 2.71 9
9/19/2021 10:15:00 PM 17.24 63.032 0.494 7.97 2.69 9.03
9/19/2021 10:30:00 PM 17.07 62.726 0.495 7.95 2.98 9.04
9/19/2021 10:45:00 PM 16.9 62.42 0.497 7.93 3.15 9.06
9/19/2021 11:00:00 PM 16.73 62.114 0.498 7.93 3.07 9.06
9/19/2021 11:15:00 PM 16.54 61.772 0.499 7.91 3.26 9.08
9/19/2021 11:30:00 PM 16.36 61.448 0.501 7.9 3.23 9.1
9/19/2021 11:45:00 PM 16.17 61.106 0.502 7.88 3.34 9.09
9/20/2021 12:00:00 AM 15.98 60.764 0.503 7.88 3.41 9.16
9/20/2021 12:15:00 AM 15.79 60.422 0.504 7.87 3.81 9.2
9/20/2021 12:30:00 AM 15.62 60.116 0.505 7.87 3.57 9.25
9/20/2021 12:45:00 AM 15.45 59.81 0.505 7.85 3.15 9.3
9/20/2021 1:00:00 AM 15.3 59.54 0.506 7.85 3.18 9.35
9/20/2021 1:15:00 AM 15.15 59.27 0.506 7.85 3.04 9.38
9/20/2021 1:30:00 AM 15.02 59.036 0.507 7.84 3.16 9.4
9/20/2021 1:45:00 AM 14.9 58.82 0.507 7.84 3.24 9.44
9/20/2021 2:00:00 AM 14.79 58.622 0.508 7.84 3.78 9.48
9/20/2021 2:15:00 AM 14.68 58.424 0.508 7.84 4.62 9.5
9/20/2021 2:30:00 AM 14.58 58.244 0.508 7.84 3.6 9.53
9/20/2021 2:45:00 AM 14.49 58.082 0.509 7.84 3.3 9.56
9/20/2021 3:00:00 AM 14.4 57.92 0.509 7.84 3.51 9.59
9/20/2021 3:15:00 AM 14.31 57.758 0.509 7.83 3.66 9.61
9/20/2021 3:30:00 AM 14.23 57.614 0.509 7.84 3.86 9.63
9/20/2021 3:45:00 AM 14.15 57.47 0.509 7.84 3.09 9.66
9/20/2021 4:00:00 AM 14.08 57.344 0.509 7.83 3.12 9.67
9/20/2021 4:15:00 AM 14.01 57.218 0.509 7.83 3.53 9.69
9/20/2021 4:30:00 AM 13.94 57.092 0.509 7.83 3.22 9.72
9/20/2021 4:45:00 AM 13.88 56.984 0.509 7.84 3.47 9.73
9/20/2021 5:00:00 AM 14.04 57.272 0.506 7.82 15.06 9.68
9/20/2021 5:15:00 AM 13.97 57.146 0.506 7.83 3.27 9.68
9/20/2021 5:30:00 AM 13.91 57.038 0.506 7.83 3.25 9.71
9/20/2021 5:45:00 AM 13.85 56.93 0.506 7.82 15.08 9.73
9/20/2021 6:00:00 AM 13.79 56.822 0.506 7.82 14.71 9.75
9/20/2021 6:15:00 AM 13.74 56.732 0.506 7.83 3.07 9.75
9/20/2021 6:30:00 AM 13.68 56.624 0.506 7.84 3.32 9.77
9/20/2021 6:45:00 AM 13.63 56.534 0.506 7.84 2.92 9.8
9/20/2021 7:00:00 AM 13.59 56.462 0.506 7.84 3.74 9.81
9/20/2021 7:15:00 AM 13.55 56.39 0.506 7.84 3.06 9.85
9/20/2021 7:30:00 AM 13.51 56.318 0.506 7.85 2.65 9.89
9/20/2021 7:45:00 AM 13.48 56.264 0.505 7.85 2.72 9.94
9/20/2021 8:00:00 AM 13.45 56.21 0.505 7.85 2.67 10
9/20/2021 8:15:00 AM 13.43 56.174 0.505 7.84 15.08 10.05
9/20/2021 8:30:00 AM 13.42 56.156 0.505 7.84 15.16 10.1
9/20/2021 8:45:00 AM 13.41 56.138 0.505 7.87 2.1 10.13
9/20/2021 9:00:00 AM 13.42 56.156 0.505 7.86 14.19 10.21
9/20/2021 9:15:00 AM 13.43 56.174 0.505 7.87 14.75 10.28
9/20/2021 9:30:00 AM 13.46 56.228 0.504 7.88 2.08 10.35
9/20/2021 9:45:00 AM 13.5 56.3 0.504 7.89 14.07 10.45
9/20/2021 10:00:00 AM 13.57 56.426 0.504 7.9 1.87 10.56
9/20/2021 10:15:00 AM 13.65 56.57 0.504 7.92 1.93 10.66
9/20/2021 10:30:00 AM 13.74 56.732 0.503 7.93 1.82 10.75
9/20/2021 10:45:00 AM 13.86 56.948 0.503 7.95 2.19 10.81
9/20/2021 11:00:00 AM 13.96 57.128 0.503 7.96 1.84 10.89
9/20/2021 11:15:00 AM 14.08 57.344 0.502 7.98 1.92 10.99
9/20/2021 11:30:00 AM 14.21 57.578 0.502 8 1.74 11.12
9/20/2021 11:45:00 AM 14.36 57.848 0.502 8.02 1.83 11.27
9/20/2021 12:00:00 PM 14.52 58.136 0.501 8.05 1.73 11.38
9/20/2021 12:15:00 PM 14.7 58.46 0.5 8.07 1.79 11.55
9/20/2021 12:30:00 PM 14.89 58.802 0.5 8.1 1.88 11.72
9/20/2021 12:45:00 PM 15.11 59.198 0.499 8.14 1.9 11.88
9/20/2021 1:00:00 PM 15.32 59.576 0.498 8.17 2.01 11.98
9/20/2021 1:15:00 PM 15.57 60.026 0.496 8.2 2.14 11.94
9/20/2021 1:30:00 PM 15.84 60.512 0.495 8.24 2.39 12.16
9/20/2021 1:45:00 PM 16.05 60.89 0.493 8.27 2.43 12.25
9/20/2021 2:00:00 PM 16.3 61.34 0.492 8.31 2.16 12.28
9/20/2021 2:15:00 PM 16.66 61.988 0.49 8.35 2.12 12.39
9/20/2021 2:30:00 PM 16.91 62.438 0.489 8.39 2.15 12.42
9/20/2021 2:45:00 PM 17.12 62.816 0.487 8.41 2.24 12.38
9/20/2021 3:00:00 PM 17.31 63.158 0.486 8.43 2.51 12.3
9/20/2021 3:15:00 PM 17.46 63.428 0.485 8.43 13.91 12.21
9/20/2021 3:30:00 PM 17.59 63.662 0.484 8.45 2.53 12.04
9/20/2021 3:45:00 PM 17.73 63.914 0.484 8.44 14.83 11.96
9/20/2021 4:00:00 PM 17.86 64.148 0.484 8.46 2.63 11.78
9/20/2021 4:15:00 PM 17.96 64.328 0.483 8.46 2.95 11.64
9/20/2021 4:30:00 PM 18.07 64.526 0.483 8.45 2.63 11.47
9/20/2021 4:45:00 PM 18.15 64.67 0.482 8.45 2.45 11.26
9/20/2021 5:00:00 PM 18.21 64.778 0.482 8.45 2.28 11.12
9/20/2021 5:15:00 PM 18.24 64.832 0.482 8.43 2.18 10.92
9/20/2021 5:30:00 PM 18.28 64.904 0.483 8.41 13.13 10.76
9/20/2021 5:45:00 PM 18.28 64.904 0.483 8.4 2.09 10.48
9/20/2021 6:00:00 PM 18.29 64.922 0.484 8.36 12.83 10.31
9/20/2021 6:15:00 PM 18.28 64.904 0.484 8.35 13.45 10.15
9/20/2021 6:30:00 PM 18.26 64.868 0.485 8.33 2.05 9.96
9/20/2021 6:45:00 PM 18.24 64.832 0.485 8.3 2.24 9.79
9/20/2021 7:00:00 PM 18.22 64.796 0.487 8.26 2.53 9.64
9/20/2021 7:15:00 PM 18.19 64.742 0.488 8.23 2.59 9.46
9/20/2021 7:30:00 PM 18.16 64.688 0.489 8.2 2.72 9.32
9/20/2021 7:45:00 PM 18.13 64.634 0.489 8.17 14.17 9.26
9/20/2021 8:00:00 PM 18.09 64.562 0.49 8.15 3.25 9.18
9/20/2021 8:15:00 PM 18.04 64.472 0.49 8.14 2.7 9.13
9/20/2021 8:30:00 PM 17.98 64.364 0.49 8.12 14.84 9.12
9/20/2021 8:45:00 PM 17.9 64.22 0.491 8.1 2.95 9.07
9/20/2021 9:00:00 PM 17.81 64.058 0.492 8.08 3.37 9.03
9/20/2021 9:15:00 PM 17.72 63.896 0.492 8.06 2.55 9
9/20/2021 9:30:00 PM 17.61 63.698 0.493 8.05 2.65 8.98
9/20/2021 9:45:00 PM 17.51 63.518 0.494 8.03 2.78 9
9/20/2021 10:00:00 PM 17.39 63.302 0.495 8.01 2.95 9
9/20/2021 10:15:00 PM 17.27 63.086 0.497 7.99 3.17 8.88
9/20/2021 10:30:00 PM 17.14 62.852 0.498 7.97 3.37 8.91
9/20/2021 10:45:00 PM 17 62.6 0.499 7.95 3.34 8.9
9/20/2021 11:00:00 PM 16.85 62.33 0.5 7.94 3.46 8.9
9/20/2021 11:15:00 PM 16.7 62.06 0.501 7.93 3.36 8.99
9/20/2021 11:30:00 PM 16.55 61.79 0.503 7.92 3.13 9.01
9/20/2021 11:45:00 PM 16.4 61.52 0.504 7.91 2.91 9.05
9/21/2021 12:00:00 AM 16.24 61.232 0.505 7.9 2.55 9.08
9/21/2021 12:15:00 AM 16.1 60.98 0.505 7.89 2.73 9.1
9/21/2021 12:30:00 AM 15.96 60.728 0.506 7.88 2.51 9.15
9/21/2021 12:45:00 AM 15.82 60.476 0.507 7.87 3.04 9.16
9/21/2021 1:00:00 AM 15.7 60.26 0.507 7.87 3.68 9.18
9/21/2021 1:15:00 AM 15.57 60.026 0.508 7.86 3.78 9.23
9/21/2021 1:30:00 AM 15.46 59.828 0.508 7.86 4.88 9.27
9/21/2021 1:45:00 AM 15.35 59.63 0.508 7.86 3.7 9.31
9/21/2021 2:00:00 AM 15.24 59.432 0.508 7.86 3.04 9.32
9/21/2021 2:15:00 AM 15.15 59.27 0.509 7.85 3.18 9.36
9/21/2021 2:30:00 AM 15.05 59.09 0.509 7.84 2.8 9.39
9/21/2021 2:45:00 AM 14.96 58.928 0.509 7.84 3.43 9.41
9/21/2021 3:00:00 AM 14.89 58.802 0.509 7.85 3.13 9.43
9/21/2021 3:15:00 AM 14.82 58.676 0.509 7.85 2.97 9.43
9/21/2021 3:30:00 AM 14.75 58.55 0.509 7.85 2.6 9.45
9/21/2021 3:45:00 AM 14.69 58.442 0.51 7.85 2.86 9.45
9/21/2021 4:00:00 AM 14.63 58.334 0.51 7.84 15.77 9.5
9/21/2021 4:15:00 AM 14.59 58.262 0.51 7.85 3.55 9.48
9/21/2021 4:30:00 AM 14.55 58.19 0.51 7.84 2.66 9.51
9/21/2021 4:45:00 AM 14.51 58.118 0.51 7.84 2.67 9.54
9/21/2021 5:00:00 AM 14.47 58.046 0.51 7.84 15.95 9.55
9/21/2021 5:15:00 AM 14.43 57.974 0.51 7.84 2.63 9.58
9/21/2021 5:30:00 AM 14.4 57.92 0.51 7.84 2.59 9.58
9/21/2021 5:45:00 AM 14.37 57.866 0.51 7.84 2.52 9.56
9/21/2021 6:00:00 AM 14.35 57.83 0.51 7.84 2.75 9.57
9/21/2021 6:15:00 AM 14.32 57.776 0.51 7.84 2.65 9.59
9/21/2021 6:30:00 AM 14.3 57.74 0.51 7.84 2.89 9.61
9/21/2021 6:45:00 AM 14.28 57.704 0.51 7.83 16.22 9.62
9/21/2021 7:00:00 AM 14.26 57.668 0.51 7.84 2.69 9.63
9/21/2021 7:15:00 AM 14.25 57.65 0.51 7.84 2.57 9.66
9/21/2021 7:30:00 AM 14.24 57.632 0.51 7.85 2.49 9.72
9/21/2021 7:45:00 AM 14.24 57.632 0.51 7.85 2.3 9.77
9/21/2021 8:00:00 AM 14.26 57.668 0.509 7.87 2.23 9.88
9/21/2021 8:15:00 AM 14.28 57.704 0.509 7.88 2.14 10.02
9/21/2021 8:30:00 AM 14.31 57.758 0.509 7.87 14.78 10.18
9/21/2021 8:45:00 AM 14.34 57.812 0.508 7.91 1.99 10.29
9/21/2021 9:00:00 AM 14.38 57.884 0.508 7.92 2.06 10.41
9/21/2021 9:15:00 AM 14.44 57.992 0.507 7.94 1.96 10.61
9/21/2021 9:30:00 AM 14.49 58.082 0.507 7.96 14.34 10.76
9/21/2021 9:45:00 AM 14.55 58.19 0.506 7.98 1.94 10.9
9/21/2021 10:00:00 AM 14.63 58.334 0.506 8 1.85 11.03
9/21/2021 10:15:00 AM 14.72 58.496 0.505 8.03 2.01 11.23
9/21/2021 10:30:00 AM 14.79 58.622 0.505 8.05 1.91 11.36
9/21/2021 10:45:00 AM 14.89 58.802 0.504 8.07 1.8 11.57
9/21/2021 11:00:00 AM 14.99 58.982 0.503 8.1 2.27 11.72
9/21/2021 11:15:00 AM 15.13 59.234 0.502 8.13 1.92 11.93
9/21/2021 11:30:00 AM 15.21 59.378 0.502 8.15 1.79 12
9/21/2021 11:45:00 AM 15.27 59.486 0.502 8.16 13.84 11.95
9/21/2021 12:00:00 PM 15.36 59.648 0.501 8.17 2.01 12.01
9/21/2021 12:15:00 PM 15.46 59.828 0.5 8.2 2 12.11
9/21/2021 12:30:00 PM 15.62 60.116 0.499 8.23 1.81 12.27
9/21/2021 12:45:00 PM 15.77 60.386 0.498 8.26 1.94 12.39
9/21/2021 1:00:00 PM 15.92 60.656 0.497 8.29 1.92 12.56
9/21/2021 1:15:00 PM 15.99 60.782 0.496 8.3 2.5 12.42
9/21/2021 1:30:00 PM 16.13 61.034 0.495 8.32 2.02 12.48
9/21/2021 1:45:00 PM 16.2 61.16 0.494 8.33 2.05 12.45
9/21/2021 2:00:00 PM 16.29 61.322 0.493 8.36 2 12.39
9/21/2021 2:15:00 PM 16.45 61.61 0.491 8.38 2.1 12.47
9/21/2021 2:30:00 PM 16.54 61.772 0.49 8.41 1.99 12.44
9/21/2021 2:45:00 PM 16.62 61.916 0.49 8.42 2.31 12.32
9/21/2021 3:00:00 PM 16.73 62.114 0.488 8.43 2.6 12.29
9/21/2021 3:15:00 PM 16.83 62.294 0.487 8.45 2.17 12.19
9/21/2021 3:30:00 PM 16.92 62.456 0.486 8.46 2.31 12.11
9/21/2021 3:45:00 PM 17.04 62.672 0.485 8.46 13.58 12.11
9/21/2021 4:00:00 PM 17.22 62.996 0.483 8.5 2.08 12.2
9/21/2021 4:15:00 PM 17.32 63.176 0.483 8.51 2.19 12.06
9/21/2021 4:30:00 PM 17.4 63.32 0.482 8.5 2.21 11.88
9/21/2021 4:45:00 PM 17.55 63.59 0.482 8.5 14.12 11.8
9/21/2021 5:00:00 PM 17.61 63.698 0.482 8.49 2.23 11.55
9/21/2021 5:15:00 PM 17.63 63.734 0.483 8.48 2.4 11.26
9/21/2021 5:30:00 PM 17.65 63.77 0.484 8.46 2.39 10.92
9/21/2021 5:45:00 PM 17.66 63.788 0.484 8.44 2.31 10.65
9/21/2021 6:00:00 PM 17.69 63.842 0.484 8.42 2.34 10.53
9/21/2021 6:15:00 PM 17.69 63.842 0.484 8.4 2.23 10.29
9/21/2021 6:30:00 PM 17.68 63.824 0.485 8.37 2.39 10.14
9/21/2021 6:45:00 PM 17.67 63.806 0.485 8.35 2.2 9.95
9/21/2021 7:00:00 PM 17.66 63.788 0.486 8.31 2.39 9.8
9/21/2021 7:15:00 PM 17.64 63.752 0.488 8.27 2.81 9.64
9/21/2021 7:30:00 PM 17.62 63.716 0.49 8.23 2.91 9.47
9/21/2021 7:45:00 PM 17.59 63.662 0.492 8.18 15.46 9.36
9/21/2021 8:00:00 PM 17.55 63.59 0.493 8.15 2.98 9.27
9/21/2021 8:15:00 PM 17.51 63.518 0.494 8.13 3.11 9.18
9/21/2021 8:30:00 PM 17.47 63.446 0.494 8.1 3.64 9.15
9/21/2021 8:45:00 PM 17.42 63.356 0.495 8.08 3.09 9.09
9/21/2021 9:00:00 PM 17.37 63.266 0.496 8.06 3.04 9.06
9/21/2021 9:15:00 PM 17.31 63.158 0.496 8.04 3.13 9.03
9/21/2021 9:30:00 PM 17.26 63.068 0.497 8.02 2.97 9.02
9/21/2021 9:45:00 PM 17.21 62.978 0.498 8 3.18 8.97
9/21/2021 10:00:00 PM 17.15 62.87 0.498 7.99 3.14 8.95
9/21/2021 10:15:00 PM 17.08 62.744 0.499 7.97 3.15 8.92
9/21/2021 10:30:00 PM 17.01 62.618 0.5 7.95 3.2 8.96
9/21/2021 10:45:00 PM 16.93 62.474 0.501 7.94 3.33 8.95
9/21/2021 11:00:00 PM 16.85 62.33 0.502 7.92 3.49 8.95
9/21/2021 11:15:00 PM 16.76 62.168 0.503 7.91 3.47 8.96
9/21/2021 11:30:00 PM 16.67 62.006 0.504 7.9 3.15 8.98
9/21/2021 11:45:00 PM 16.58 61.844 0.505 7.89 3.44 8.97
9/22/2021 12:00:00 AM 16.49 61.682 0.506 7.88 2.89 8.99
9/22/2021 12:15:00 AM 16.4 61.52 0.507 7.87 3.74 9
9/22/2021 12:30:00 AM 16.31 61.358 0.507 7.86 2.62 8.99
9/22/2021 12:45:00 AM 16.23 61.214 0.508 7.85 2.92 9.02
9/22/2021 1:00:00 AM 16.15 61.07 0.508 7.84 3.66 9.03
9/22/2021 1:15:00 AM 16.08 60.944 0.509 7.84 2.78 9.06
9/22/2021 1:30:00 AM 16.01 60.818 0.509 7.83 3.24 9.07
9/22/2021 1:45:00 AM 15.95 60.71 0.509 7.82 2.77 9.07
9/22/2021 2:00:00 AM 15.89 60.602 0.509 7.82 2.9 9.07
9/22/2021 2:15:00 AM 15.83 60.494 0.51 7.81 2.97 9.09
9/22/2021 2:30:00 AM 15.77 60.386 0.51 7.81 3.42 9.1
9/22/2021 2:45:00 AM 15.71 60.278 0.51 7.81 2.76 9.1
9/22/2021 3:00:00 AM 15.66 60.188 0.51 7.8 2.68 9.08
9/22/2021 3:15:00 AM 15.6 60.08 0.51 7.8 3.42 9.15
9/22/2021 3:30:00 AM 15.56 60.008 0.511 7.8 3.46 9.12
9/22/2021 3:45:00 AM 15.51 59.918 0.511 7.8 4.1 9.14
9/22/2021 4:00:00 AM 15.47 59.846 0.511 7.79 3.04 9.17
9/22/2021 4:15:00 AM 15.43 59.774 0.511 7.79 3.33 9.13
9/22/2021 4:30:00 AM 15.4 59.72 0.511 7.79 3.5 9.17
9/22/2021 4:45:00 AM 15.37 59.666 0.511 7.79 2.92 9.16
9/22/2021 5:00:00 AM 15.36 59.648 0.511 7.79 2.81 9.17
9/22/2021 5:15:00 AM 15.34 59.612 0.511 7.79 3 9.17
9/22/2021 5:30:00 AM 15.32 59.576 0.511 7.79 3 9.18
9/22/2021 5:45:00 AM 15.31 59.558 0.512 7.78 15.83 9.17
9/22/2021 6:00:00 AM 15.3 59.54 0.512 7.79 2.69 9.18
9/22/2021 6:15:00 AM 15.29 59.522 0.512 7.78 2.75 9.15
9/22/2021 6:30:00 AM 15.29 59.522 0.512 7.78 3.02 9.17
9/22/2021 6:45:00 AM 15.28 59.504 0.512 7.78 2.72 9.15
9/22/2021 7:00:00 AM 15.28 59.504 0.511 7.78 3.09 9.16
9/22/2021 7:15:00 AM 15.3 59.54 0.511 7.79 2.9 9.15
9/22/2021 7:30:00 AM 15.3 59.54 0.511 7.79 2.56 9.17
9/22/2021 7:45:00 AM 15.32 59.576 0.511 7.79 2.57 9.2
9/22/2021 8:00:00 AM 15.34 59.612 0.51 7.8 2.73 9.2
9/22/2021 8:15:00 AM 15.37 59.666 0.508 7.8 3.33 9.15
9/22/2021 8:30:00 AM 15.4 59.72 0.508 7.8 2.69 9.22
9/22/2021 8:45:00 AM 15.45 59.81 0.506 7.81 2.92 9.33
9/22/2021 9:00:00 AM 15.49 59.882 0.505 7.83 2.73 9.41
9/22/2021 9:15:00 AM 15.52 59.936 0.504 7.84 2.68 9.52
9/22/2021 9:30:00 AM 15.59 60.062 0.504 7.86 2.43 9.79
9/22/2021 9:45:00 AM 15.66 60.188 0.503 7.89 2.59 9.99
9/22/2021 10:00:00 AM 15.71 60.278 0.502 7.9 2.43 10.07
9/22/2021 10:15:00 AM 15.76 60.368 0.502 7.92 2.6 10.16
9/22/2021 10:30:00 AM 15.8 60.44 0.503 7.93 2.51 10.11
9/22/2021 10:45:00 AM 15.82 60.476 0.503 7.93 2.36 10.04
9/22/2021 11:00:00 AM 15.88 60.584 0.503 7.95 2.4 10.18
9/22/2021 11:15:00 AM 15.95 60.71 0.503 7.96 2.25 10.27
9/22/2021 11:30:00 AM 16.01 60.818 0.502 7.98 2.1 10.37
9/22/2021 11:45:00 AM 16.1 60.98 0.502 8 2.17 10.47
9/22/2021 12:00:00 PM 16.2 61.16 0.502 8.03 2.15 10.68
9/22/2021 12:15:00 PM 16.28 61.304 0.501 8.05 2.25 10.77
9/22/2021 12:30:00 PM 16.35 61.43 0.501 8.06 2.39 10.83
9/22/2021 12:45:00 PM 16.43 61.574 0.5 8.08 2.28 10.86
9/22/2021 1:00:00 PM 16.52 61.736 0.499 8.1 2.44 10.92
9/22/2021 1:15:00 PM 16.64 61.952 0.498 8.13 2.37 11.18
9/22/2021 1:30:00 PM 16.71 62.078 0.497 8.14 3.52 11.09
9/22/2021 1:45:00 PM 16.8 62.24 0.496 8.16 2.43 11.13
9/22/2021 2:00:00 PM 16.88 62.384 0.495 8.17 2.34 11.05
9/22/2021 2:15:00 PM 16.97 62.546 0.495 8.18 2.34 11
9/22/2021 2:30:00 PM 17.11 62.798 0.494 8.21 2.53 11.22
9/22/2021 2:45:00 PM 17.19 62.942 0.494 8.22 16.41 11.05
9/22/2021 3:00:00 PM 17.25 63.05 0.495 8.2 2.65 10.65
9/22/2021 3:15:00 PM 17.33 63.194 0.495 8.19 2.86 10.41
9/22/2021 3:30:00 PM 17.4 63.32 0.495 8.2 2.72 10.37
9/22/2021 3:45:00 PM 17.47 63.446 0.495 8.21 2.64 10.36
9/22/2021 4:00:00 PM 17.54 63.572 0.494 8.22 2.61 10.4
9/22/2021 4:15:00 PM 17.62 63.716 0.493 8.23 2.52 10.44
9/22/2021 4:30:00 PM 17.68 63.824 0.492 8.24 2.44 10.37
9/22/2021 4:45:00 PM 17.73 63.914 0.492 8.24 2.61 10.27
9/22/2021 5:00:00 PM 17.77 63.986 0.491 8.23 2.53 10.14
9/22/2021 5:15:00 PM 17.82 64.076 0.49 8.22 2.39 10.03
9/22/2021 5:30:00 PM 17.86 64.148 0.49 8.21 2.49 9.86
9/22/2021 5:45:00 PM 17.9 64.22 0.49 8.2 2.54 9.71
9/22/2021 6:00:00 PM 17.94 64.292 0.49 8.19 2.77 9.55
9/22/2021 6:15:00 PM 17.98 64.364 0.49 8.17 3.25 9.48
9/22/2021 6:30:00 PM 18.02 64.436 0.49 8.15 15.63 9.43
9/22/2021 6:45:00 PM 18.04 64.472 0.49 8.15 3.12 9.31
9/22/2021 7:00:00 PM 18.04 64.472 0.491 8.12 2.93 9.19
9/22/2021 7:15:00 PM 18.04 64.472 0.491 8.1 2.97 9.08
9/22/2021 7:30:00 PM 18.04 64.472 0.491 8.09 2.95 8.99
9/22/2021 7:45:00 PM 18.03 64.454 0.492 8.06 2.91 8.91
9/22/2021 8:00:00 PM 18.02 64.436 0.492 8.03 2.93 8.84
9/22/2021 8:15:00 PM 18.01 64.418 0.492 8.02 2.83 8.8
9/22/2021 8:30:00 PM 17.99 64.382 0.493 8 3.1 8.76
9/22/2021 8:45:00 PM 17.97 64.346 0.493 7.98 3.08 8.72
9/22/2021 9:00:00 PM 17.95 64.31 0.494 7.96 2.79 8.7
9/22/2021 9:15:00 PM 17.94 64.292 0.494 7.96 3.04 8.65
9/22/2021 9:30:00 PM 17.92 64.256 0.495 7.95 3.1 8.63
9/22/2021 9:45:00 PM 17.89 64.202 0.495 7.94 3.24 8.61
9/22/2021 10:00:00 PM 17.88 64.184 0.496 7.93 3 8.54
9/22/2021 10:15:00 PM 17.86 64.148 0.497 7.92 3.19 8.49
9/22/2021 10:30:00 PM 17.84 64.112 0.498 7.91 3.29 8.42
9/22/2021 10:45:00 PM 17.81 64.058 0.5 7.89 4.15 8.38
9/22/2021 11:00:00 PM 17.78 64.004 0.501 7.88 3.47 8.35
9/22/2021 11:15:00 PM 17.76 63.968 0.502 7.87 3.29 8.32
9/22/2021 11:30:00 PM 17.73 63.914 0.502 7.86 2.82 8.31
9/22/2021 11:45:00 PM 17.71 63.878 0.503 7.86 2.93 8.32
9/23/2021 12:00:00 AM 17.69 63.842 0.503 7.85 2.4 8.31
9/23/2021 12:15:00 AM 17.67 63.806 0.504 7.85 2.76 8.29
9/23/2021 12:30:00 AM 17.65 63.77 0.504 7.84 2.75 8.31
9/23/2021 12:45:00 AM 17.63 63.734 0.504 7.84 2.85 8.35
9/23/2021 1:00:00 AM 17.62 63.716 0.504 7.84 3.01 8.38
9/23/2021 1:15:00 AM 17.6 63.68 0.504 7.83 2.84 8.37
9/23/2021 1:30:00 AM 17.58 63.644 0.504 7.83 2.64 8.36
9/23/2021 1:45:00 AM 17.57 63.626 0.504 7.83 2.95 8.41
9/23/2021 2:00:00 AM 17.56 63.608 0.504 7.83 2.69 8.41
9/23/2021 2:15:00 AM 17.54 63.572 0.504 7.83 2.89 8.42
9/23/2021 2:30:00 AM 17.54 63.572 0.504 7.82 2.7 8.45
9/23/2021 2:45:00 AM 17.53 63.554 0.504 7.82 2.91 8.46
9/23/2021 3:00:00 AM 17.54 63.572 0.503 7.83 2.74 8.46
9/23/2021 3:15:00 AM 17.52 63.536 0.503 7.83 2.69 8.46
9/23/2021 3:30:00 AM 17.51 63.518 0.503 7.83 3.01 8.48
9/23/2021 3:45:00 AM 17.5 63.5 0.502 7.83 3.39 8.49
9/23/2021 4:00:00 AM 17.5 63.5 0.502 7.83 3.57 8.46
9/23/2021 4:15:00 AM 17.5 63.5 0.502 7.83 3.02 8.5
9/23/2021 4:30:00 AM 17.49 63.482 0.502 7.83 3.71 8.5
9/23/2021 4:45:00 AM 17.49 63.482 0.502 7.83 3.02 8.49
9/23/2021 5:00:00 AM 17.48 63.464 0.502 7.83 2.93 8.52
9/23/2021 5:15:00 AM 17.49 63.482 0.502 7.83 2.94 8.52
9/23/2021 5:30:00 AM 17.48 63.464 0.502 7.83 3.42 8.53
9/23/2021 5:45:00 AM 17.48 63.464 0.502 7.83 3.08 8.53
9/23/2021 6:00:00 AM 17.48 63.464 0.502 7.83 16.14 8.53
9/23/2021 6:15:00 AM 17.49 63.482 0.502 7.84 3.04 8.48
9/23/2021 6:30:00 AM 17.5 63.5 0.502 7.83 3.04 8.44
9/23/2021 6:45:00 AM 17.52 63.536 0.502 7.84 2.99 8.47
9/23/2021 7:00:00 AM 17.51 63.518 0.501 7.83 2.91 8.53
9/23/2021 7:15:00 AM 17.52 63.536 0.501 7.84 2.91 8.53
9/23/2021 7:30:00 AM 17.53 63.554 0.501 7.83 16.28 8.53
9/23/2021 7:45:00 AM 17.56 63.608 0.5 7.83 3.08 8.52
9/23/2021 8:00:00 AM 17.57 63.626 0.499 7.83 2.71 8.54
9/23/2021 8:15:00 AM 17.6 63.68 0.49 7.84 3.73 8.59
9/23/2021 8:30:00 AM 17.58 63.644 0.479 7.84 7.9 8.58
9/23/2021 8:45:00 AM 17.56 63.608 0.472 7.82 10.18 8.52
9/23/2021 9:00:00 AM 17.51 63.518 0.463 7.81 12.06 8.57
9/23/2021 9:15:00 AM 17.46 63.428 0.449 7.81 22.46 8.61
9/23/2021 9:30:00 AM 17.43 63.374 0.425 7.79 38.01 8.6
9/23/2021 9:45:00 AM 17.42 63.356 0.408 7.75 44.86 8.53
9/23/2021 10:00:00 AM 17.35 63.23 0.38 7.73 76.45 8.7
9/23/2021 10:15:00 AM 17.34 63.212 0.356 7.66 112.68 8.63
9/23/2021 10:30:00 AM 17.33 63.194 0.339 7.6 159.73 8.57
9/23/2021 10:45:00 AM 17.32 63.176 0.337 7.56 196.66 8.53
9/23/2021 11:00:00 AM 17.32 63.176 0.336 7.57 179.6 8.46
9/23/2021 11:15:00 AM 17.27 63.086 0.339 7.54 203.22 8.13
9/23/2021 11:30:00 AM 17.32 63.176 0.316 7.48 266.04 7.82
9/23/2021 11:45:00 AM 17.35 63.23 0.281 7.39 317.24 7.7
9/23/2021 12:00:00 PM 17.34 63.212 0.257 7.4 311.11 7.78
9/23/2021 12:15:00 PM 17.48 63.464 0.246 7.35 298.42 7.87
9/23/2021 12:30:00 PM 17.66 63.788 0.219 7.34 320.08 7.81
9/23/2021 12:45:00 PM 17.76 63.968 0.198 7.3 312.02 7.83
9/23/2021 1:00:00 PM 17.8 64.04 0.187 7.33 317.61 7.84
9/23/2021 1:15:00 PM 17.81 64.058 0.182 7.29 282.8 7.78
9/23/2021 1:30:00 PM 17.8 64.04 0.182 7.27 240.48 7.67
9/23/2021 1:45:00 PM 17.81 64.058 0.186 7.26 207.61 7.59
9/23/2021 2:00:00 PM 17.81 64.058 0.191 7.24 184.44 7.55
9/23/2021 2:15:00 PM 17.83 64.094 0.196 7.24 170.27 7.55
9/23/2021 2:30:00 PM 17.85 64.13 0.199 7.25 158.33 7.59
9/23/2021 2:45:00 PM 17.87 64.166 0.203 7.22 141.59 7.6
9/23/2021 3:00:00 PM 17.89 64.202 0.207 7.23 133.55 7.62
9/23/2021 3:15:00 PM 17.91 64.238 0.213 7.23 125.65 7.62
9/23/2021 3:30:00 PM 17.92 64.256 0.218 7.22 115.54 7.63
9/23/2021 3:45:00 PM 17.94 64.292 0.223 7.21 108.72 7.62
9/23/2021 4:00:00 PM 17.99 64.382 0.229 7.24 101.67 7.65
9/23/2021 4:15:00 PM 18.02 64.436 0.234 7.21 98.32 7.69
9/23/2021 4:30:00 PM 18.03 64.454 0.239 7.25 89.28 7.74
9/23/2021 4:45:00 PM 18.05 64.49 0.244 7.24 83.82 7.79
9/23/2021 5:00:00 PM 18.05 64.49 0.248 7.28 80.41 7.84
9/23/2021 5:15:00 PM 18.05 64.49 0.252 7.25 74.07 7.89
9/23/2021 5:30:00 PM 18.04 64.472 0.256 7.26 69.15 7.93
9/23/2021 5:45:00 PM 18.03 64.454 0.26 7.26 62.37 7.97
9/23/2021 6:00:00 PM 18.02 64.436 0.265 7.31 61.69 8
9/23/2021 6:15:00 PM 18.01 64.418 0.27 7.29 57.72 8.03
9/23/2021 6:30:00 PM 17.97 64.346 0.275 7.31 55.04 8.04
9/23/2021 6:45:00 PM 17.9 64.22 0.28 7.32 51.27 8.09
9/23/2021 7:00:00 PM 17.83 64.094 0.286 7.32 48.37 8.14
9/23/2021 7:15:00 PM 17.75 63.95 0.292 7.34 44.73 8.18
9/23/2021 7:30:00 PM 17.66 63.788 0.298 7.35 43.58 8.22
9/23/2021 7:45:00 PM 17.58 63.644 0.305 7.36 41.29 8.26
9/23/2021 8:00:00 PM 17.5 63.5 0.311 7.37 39.5 8.29
9/23/2021 8:15:00 PM 17.42 63.356 0.317 7.36 37.29 8.33
9/23/2021 8:30:00 PM 17.33 63.194 0.323 7.39 34.61 8.37
9/23/2021 8:45:00 PM 17.24 63.032 0.329 7.41 34.63 8.41
9/23/2021 9:00:00 PM 17.13 62.834 0.335 7.4 32.98 8.45
9/23/2021 9:15:00 PM 17 62.6 0.341 7.42 30.47 8.5
9/23/2021 9:30:00 PM 16.87 62.366 0.346 7.43 29.91 8.54
9/23/2021 9:45:00 PM 16.73 62.114 0.351 7.44 30.45 8.57
9/23/2021 10:00:00 PM 16.59 61.862 0.355 7.45 26.94 8.6
9/23/2021 10:15:00 PM 16.46 61.628 0.36 7.46 26.52 8.63
9/23/2021 10:30:00 PM 16.34 61.412 0.364 7.46 25.05 8.67
9/23/2021 10:45:00 PM 16.23 61.214 0.368 7.47 24.62 8.7
9/23/2021 11:00:00 PM 16.11 60.998 0.374 7.48 22.29 8.74
9/23/2021 11:15:00 PM 15.99 60.782 0.378 7.49 21.69 8.78
9/23/2021 11:30:00 PM 15.88 60.584 0.382 7.5 20.75 8.82
9/23/2021 11:45:00 PM 15.77 60.386 0.385 7.51 20.72 8.85
9/24/2021 12:00:00 AM 15.66 60.188 0.389 7.51 18.98 8.88
9/24/2021 12:15:00 AM 15.55 59.99 0.393 7.51 18.44 8.93
9/24/2021 12:30:00 AM 15.45 59.81 0.396 7.53 18.25 8.97
9/24/2021 12:45:00 AM 15.34 59.612 0.399 7.53 17.4 8.99
9/24/2021 1:00:00 AM 15.24 59.432 0.402 7.54 16.29 9.03
9/24/2021 1:15:00 AM 15.14 59.252 0.404 7.54 16.16 9.07
9/24/2021 1:30:00 AM 15.04 59.072 0.407 7.55 16.01 9.1
9/24/2021 1:45:00 AM 14.95 58.91 0.409 7.55 15.29 9.13
9/24/2021 2:00:00 AM 14.86 58.748 0.412 7.56 14.44 9.16
9/24/2021 2:15:00 AM 14.77 58.586 0.414 7.56 14.07 9.19
9/24/2021 2:30:00 AM 14.68 58.424 0.416 7.57 13.76 9.22
9/24/2021 2:45:00 AM 14.59 58.262 0.418 7.57 13.3 9.24
9/24/2021 3:00:00 AM 14.5 58.1 0.42 7.58 13.02 9.27
9/24/2021 3:15:00 AM 14.42 57.956 0.421 7.58 12.82 9.3
9/24/2021 3:30:00 AM 14.34 57.812 0.423 7.59 12.06 9.32
9/24/2021 3:45:00 AM 14.26 57.668 0.425 7.59 12.4 9.34
9/24/2021 4:00:00 AM 14.19 57.542 0.426 7.59 11.43 9.37
9/24/2021 4:15:00 AM 14.11 57.398 0.428 7.6 10.89 9.39
9/24/2021 4:30:00 AM 14.03 57.254 0.429 7.6 11.13 9.42
9/24/2021 4:45:00 AM 13.97 57.146 0.431 7.6 11.05 9.44
9/24/2021 5:00:00 AM 13.9 57.02 0.432 7.59 10.55 9.47
9/24/2021 5:15:00 AM 13.83 56.894 0.433 7.59 9.5 9.5
9/24/2021 5:30:00 AM 13.77 56.786 0.434 7.6 11.56 9.51
9/24/2021 5:45:00 AM 13.7 56.66 0.436 7.6 9.86 9.53
9/24/2021 6:00:00 AM 13.64 56.552 0.437 7.61 10.03 9.55
9/24/2021 6:15:00 AM 13.58 56.444 0.437 7.61 9.76 9.57
9/24/2021 6:30:00 AM 13.53 56.354 0.439 7.62 9.23 9.6
9/24/2021 6:45:00 AM 13.47 56.246 0.44 7.62 10.85 9.61
9/24/2021 7:00:00 AM 13.41 56.138 0.44 7.63 9.02 9.63
9/24/2021 7:15:00 AM 13.36 56.048 0.441 7.63 8.77 9.65
9/24/2021 7:30:00 AM 13.31 55.958 0.442 7.63 8.89 9.67
9/24/2021 7:45:00 AM 13.26 55.868 0.443 7.62 8.87 9.7
9/24/2021 8:00:00 AM 13.22 55.796 0.444 7.62 7.59 9.73
9/24/2021 8:15:00 AM 13.19 55.742 0.444 7.63 7.6 9.75
9/24/2021 8:30:00 AM 13.16 55.688 0.445 7.64 7.09 9.77
9/24/2021 8:45:00 AM 13.15 55.67 0.446 7.63 6.88 9.79
9/24/2021 9:00:00 AM 13.14 55.652 0.446 7.65 6.3 9.81
9/24/2021 9:15:00 AM 13.14 55.652 0.447 7.63 6.13 9.83
9/24/2021 9:30:00 AM 13.16 55.688 0.448 7.66 5.64 9.85
9/24/2021 9:45:00 AM 13.19 55.742 0.448 7.65 5.72 9.87
9/24/2021 10:00:00 AM 13.23 55.814 0.449 7.67 5.05 9.91
9/24/2021 10:15:00 AM 13.29 55.922 0.449 7.67 5.07 9.94
9/24/2021 10:30:00 AM 13.36 56.048 0.449 7.66 4.92 9.98
9/24/2021 10:45:00 AM 13.44 56.192 0.45 7.68 4.69 10.01
9/24/2021 11:00:00 AM 13.53 56.354 0.451 7.67 4.51 10.04
9/24/2021 11:15:00 AM 13.65 56.57 0.451 7.7 4.57 10.07
9/24/2021 11:30:00 AM 13.79 56.822 0.451 7.7 4.67 10.11
9/24/2021 11:45:00 AM 13.94 57.092 0.451 7.71 4.69 10.13
9/24/2021 12:00:00 PM 14.14 57.452 0.452 7.73 4.68 10.17
9/24/2021 12:15:00 PM 14.36 57.848 0.452 7.73 4.95 10.18
9/24/2021 12:30:00 PM 14.58 58.244 0.452 7.74 4.94 10.2
9/24/2021 12:45:00 PM 14.8 58.64 0.453 7.75 4.65 10.19
9/24/2021 1:00:00 PM 15.03 59.054 0.453 7.76 4.61 10.19
9/24/2021 1:15:00 PM 15.29 59.522 0.453 7.77 4.73 10.18
9/24/2021 1:30:00 PM 15.55 59.99 0.454 7.79 4.5 10.15
9/24/2021 1:45:00 PM 15.81 60.458 0.454 7.8 4.63 10.1
9/24/2021 2:00:00 PM 16.04 60.872 0.455 7.8 4.47 10.04
9/24/2021 2:15:00 PM 16.24 61.232 0.455 7.81 4.58 9.99
9/24/2021 2:30:00 PM 16.4 61.52 0.456 7.81 4.31 9.94
9/24/2021 2:45:00 PM 16.56 61.808 0.456 7.82 4.46 9.9
9/24/2021 3:00:00 PM 16.66 61.988 0.456 7.81 4.47 9.84
9/24/2021 3:15:00 PM 16.78 62.204 0.456 7.82 4.26 9.8
9/24/2021 3:30:00 PM 16.88 62.384 0.456 7.8 4.15 9.76
9/24/2021 3:45:00 PM 16.96 62.528 0.457 7.82 4.06 9.71
9/24/2021 4:00:00 PM 17.01 62.618 0.457 7.82 3.97 9.66
9/24/2021 4:15:00 PM 17.05 62.69 0.457 7.82 4.24 9.62
9/24/2021 4:30:00 PM 17.07 62.726 0.457 7.82 4.43 9.56
9/24/2021 4:45:00 PM 17.07 62.726 0.458 7.81 4.71 9.51
9/24/2021 5:00:00 PM 17.05 62.69 0.458 7.81 5.3 9.46
9/24/2021 5:15:00 PM 17.03 62.654 0.458 7.81 4.78 9.42
9/24/2021 5:30:00 PM 16.99 62.582 0.459 7.8 4.7 9.38
9/24/2021 5:45:00 PM 16.95 62.51 0.459 7.79 5.06 9.36
9/24/2021 6:00:00 PM 16.91 62.438 0.459 7.79 4.77 9.32
9/24/2021 6:15:00 PM 16.85 62.33 0.459 7.79 4.73 9.3
9/24/2021 6:30:00 PM 16.8 62.24 0.46 7.79 4.51 9.28
9/24/2021 6:45:00 PM 16.74 62.132 0.46 7.78 4.41 9.26
9/24/2021 7:00:00 PM 16.67 62.006 0.46 7.78 4.29 9.23
9/24/2021 7:15:00 PM 16.6 61.88 0.459 7.77 4.61 9.23
9/24/2021 7:30:00 PM 16.52 61.736 0.459 7.77 4.89 9.24
9/24/2021 7:45:00 PM 16.42 61.556 0.46 7.76 5.26 9.24
9/24/2021 8:00:00 PM 16.32 61.376 0.46 7.76 5.66 9.24
9/24/2021 8:15:00 PM 16.21 61.178 0.46 7.75 5.59 9.24
9/24/2021 8:30:00 PM 16.1 60.98 0.461 7.75 5.66 9.25
9/24/2021 8:45:00 PM 15.97 60.746 0.461 7.74 5.3 9.29
9/24/2021 9:00:00 PM 15.84 60.512 0.462 7.75 5.38 9.29
9/24/2021 9:15:00 PM 15.7 60.26 0.462 7.74 5.49 9.32
9/24/2021 9:30:00 PM 15.56 60.008 0.463 7.74 5.95 9.34
9/24/2021 9:45:00 PM 15.41 59.738 0.463 7.73 6.15 9.36
9/24/2021 10:00:00 PM 15.27 59.486 0.464 7.73 6.23 9.38
9/24/2021 10:15:00 PM 15.12 59.216 0.464 7.73 9.01 9.42
9/24/2021 10:30:00 PM 14.97 58.946 0.464 7.73 6.13 9.44
9/24/2021 10:45:00 PM 14.84 58.712 0.465 7.72 6.6 9.47
9/24/2021 11:00:00 PM 14.71 58.478 0.465 7.72 6.34 9.5
9/24/2021 11:15:00 PM 14.59 58.262 0.465 7.71 6.48 9.52
9/24/2021 11:30:00 PM 14.48 58.064 0.466 7.71 7.07 9.54
9/24/2021 11:45:00 PM 14.38 57.884 0.466 7.71 6.58 9.57
9/25/2021 12:00:00 AM 14.28 57.704 0.466 7.71 6.59 9.59
9/25/2021 12:15:00 AM 14.19 57.542 0.466 7.71 6.42 9.62
9/25/2021 12:30:00 AM 14.11 57.398 0.467 7.71 5.9 9.64
9/25/2021 12:45:00 AM 14.03 57.254 0.467 7.71 6.79 9.65
9/25/2021 1:00:00 AM 13.95 57.11 0.467 7.71 6.43 9.67
9/25/2021 1:15:00 AM 13.87 56.966 0.467 7.71 6.67 9.69
9/25/2021 1:30:00 AM 13.8 56.84 0.467 7.71 6.75 9.7
9/25/2021 1:45:00 AM 13.73 56.714 0.468 7.71 6.37 9.72
9/25/2021 2:00:00 AM 13.67 56.606 0.468 7.71 6.65 9.75
9/25/2021 2:15:00 AM 13.61 56.498 0.468 7.7 7.01 9.76
9/25/2021 2:30:00 AM 13.55 56.39 0.468 7.71 6.44 9.78
9/25/2021 2:45:00 AM 13.49 56.282 0.468 7.71 6.67 9.78
9/25/2021 3:00:00 AM 13.43 56.174 0.468 7.71 6.79 9.8
9/25/2021 3:15:00 AM 13.38 56.084 0.468 7.71 6.91 9.82
9/25/2021 3:30:00 AM 13.33 55.994 0.469 7.72 6.58 9.81
9/25/2021 3:45:00 AM 13.28 55.904 0.469 7.71 7.65 9.83
9/25/2021 4:00:00 AM 13.23 55.814 0.469 7.71 6.27 9.85
9/25/2021 4:15:00 AM 13.19 55.742 0.469 7.72 6.39 9.86
9/25/2021 4:30:00 AM 13.14 55.652 0.469 7.72 6.36 9.87
9/25/2021 4:45:00 AM 13.09 55.562 0.469 7.7 6.31 9.88
9/25/2021 5:00:00 AM 13.05 55.49 0.469 7.7 5.68 9.89
9/25/2021 5:15:00 AM 13 55.4 0.469 7.72 6.18 9.91
9/25/2021 5:30:00 AM 12.96 55.328 0.469 7.7 8.13 9.92
9/25/2021 5:45:00 AM 12.91 55.238 0.469 7.72 5.91 9.93
9/25/2021 6:00:00 AM 12.87 55.166 0.469 7.7 6.52 9.95
9/25/2021 6:15:00 AM 12.83 55.094 0.469 7.72 5.85 9.96
9/25/2021 6:30:00 AM 12.79 55.022 0.469 7.71 6.04 9.97
9/25/2021 6:45:00 AM 12.75 54.95 0.469 7.72 6.48 9.98
9/25/2021 7:00:00 AM 12.71 54.878 0.469 7.72 6.25 10
9/25/2021 7:15:00 AM 12.68 54.824 0.469 7.72 5.57 10
9/25/2021 7:30:00 AM 12.65 54.77 0.469 7.71 6.57 10.01
9/25/2021 7:45:00 AM 12.62 54.716 0.469 7.73 6.15 10.05
9/25/2021 8:00:00 AM 12.59 54.662 0.47 7.71 5.53 10.06
9/25/2021 8:15:00 AM 12.57 54.626 0.469 7.73 4.81 10.08
9/25/2021 8:30:00 AM 12.56 54.608 0.47 7.71 4 10.1
9/25/2021 8:45:00 AM 12.56 54.608 0.47 7.72 4.61 10.13
9/25/2021 9:00:00 AM 12.56 54.608 0.47 7.71 4.27 10.12
9/25/2021 9:15:00 AM 12.58 54.644 0.47 7.7 4.13 10.16
9/25/2021 9:30:00 AM 12.6 54.68 0.47 7.7 4.01 10.19
9/25/2021 9:45:00 AM 12.64 54.752 0.47 7.7 3.94 10.21
9/25/2021 10:00:00 AM 12.7 54.86 0.47 7.7 3.8 10.24
9/25/2021 10:15:00 AM 12.77 54.986 0.47 7.71 3.86 10.27
9/25/2021 10:30:00 AM 12.86 55.148 0.47 7.71 3.49 10.33
9/25/2021 10:45:00 AM 12.95 55.31 0.47 7.73 3.61 10.35
9/25/2021 11:00:00 AM 13.07 55.526 0.469 7.75 3.9 10.39
9/25/2021 11:15:00 AM 13.18 55.724 0.469 7.74 3.95 10.41
9/25/2021 11:30:00 AM 13.32 55.976 0.469 7.76 4.03 10.43
9/25/2021 11:45:00 AM 13.48 56.264 0.469 7.76 4.12 10.47
9/25/2021 12:00:00 PM 13.67 56.606 0.469 7.77 3.87 10.5
9/25/2021 12:15:00 PM 13.89 57.002 0.469 7.8 3.79 10.53
9/25/2021 12:30:00 PM 14.15 57.47 0.469 7.81 3.82 10.56
9/25/2021 12:45:00 PM 14.42 57.956 0.469 7.83 3.71 10.59
9/25/2021 1:00:00 PM 14.7 58.46 0.469 7.84 3.75 10.59
9/25/2021 1:15:00 PM 14.95 58.91 0.469 7.86 3.83 10.58
9/25/2021 1:30:00 PM 15.17 59.306 0.468 7.87 3.52 10.58
9/25/2021 1:45:00 PM 15.41 59.738 0.468 7.89 3.55 10.59
9/25/2021 2:00:00 PM 15.61 60.098 0.468 7.9 3.47 10.55
9/25/2021 2:15:00 PM 15.81 60.458 0.468 7.91 3.53 10.54
9/25/2021 2:30:00 PM 16.01 60.818 0.468 7.92 3.64 10.52
9/25/2021 2:45:00 PM 16.17 61.106 0.468 7.92 3.79 10.47
9/25/2021 3:00:00 PM 16.32 61.376 0.468 7.93 3.75 10.41
9/25/2021 3:15:00 PM 16.48 61.664 0.469 7.93 3.76 10.36
9/25/2021 3:30:00 PM 16.59 61.862 0.469 7.92 4.28 10.26
9/25/2021 3:45:00 PM 16.7 62.06 0.469 7.93 4.51 10.18
9/25/2021 4:00:00 PM 16.81 62.258 0.469 7.92 4.33 10.1
9/25/2021 4:15:00 PM 16.88 62.384 0.469 7.92 4.26 10.01
9/25/2021 4:30:00 PM 16.97 62.546 0.469 7.92 3.85 9.92
9/25/2021 4:45:00 PM 17.03 62.654 0.47 7.92 4.02 9.83
9/25/2021 5:00:00 PM 17.04 62.672 0.47 7.91 4.49 9.74
9/25/2021 5:15:00 PM 17.04 62.672 0.47 7.91 4.08 9.69
9/25/2021 5:30:00 PM 17.02 62.636 0.47 7.9 3.87 9.66
9/25/2021 5:45:00 PM 16.98 62.564 0.47 7.89 4.06 9.61
9/25/2021 6:00:00 PM 16.93 62.474 0.47 7.88 3.84 9.56
9/25/2021 6:15:00 PM 16.87 62.366 0.469 7.88 3.89 9.55
9/25/2021 6:30:00 PM 16.8 62.24 0.469 7.87 3.75 9.51
9/25/2021 6:45:00 PM 16.73 62.114 0.469 7.86 3.9 9.47
9/25/2021 7:00:00 PM 16.66 61.988 0.469 7.86 4.18 9.44
9/25/2021 7:15:00 PM 16.6 61.88 0.469 7.85 4.11 9.41
9/25/2021 7:30:00 PM 16.55 61.79 0.469 7.85 4.13 9.38
9/25/2021 7:45:00 PM 16.48 61.664 0.469 7.84 4.43 9.36
9/25/2021 8:00:00 PM 16.4 61.52 0.47 7.83 4.31 9.35
9/25/2021 8:15:00 PM 16.32 61.376 0.469 7.83 5.58 9.34
9/25/2021 8:30:00 PM 16.23 61.214 0.47 7.82 4.74 9.33
9/25/2021 8:45:00 PM 16.13 61.034 0.47 7.82 4.62 9.33
9/25/2021 9:00:00 PM 16.02 60.836 0.47 7.81 4.91 9.34
9/25/2021 9:15:00 PM 15.91 60.638 0.47 7.81 5.11 9.35
9/25/2021 9:30:00 PM 15.77 60.386 0.47 7.8 5.13 9.36
9/25/2021 9:45:00 PM 15.64 60.152 0.471 7.79 5.91 9.38
9/25/2021 10:00:00 PM 15.5 59.9 0.471 7.79 4.81 9.39
9/25/2021 10:15:00 PM 15.36 59.648 0.472 7.78 6.29 9.39
9/25/2021 10:30:00 PM 15.23 59.414 0.472 7.76 5.19 9.41
9/25/2021 10:45:00 PM 15.11 59.198 0.472 7.77 4.97 9.43
9/25/2021 11:00:00 PM 15 59 0.473 7.76 4.99 9.45
9/25/2021 11:15:00 PM 14.89 58.802 0.473 7.76 5.03 9.47
9/25/2021 11:30:00 PM 14.79 58.622 0.473 7.75 5.4 9.48
9/25/2021 11:45:00 PM 14.7 58.46 0.473 7.75 5.31 9.5
9/26/2021 12:00:00 AM 14.61 58.298 0.473 7.76 4.76 9.53
9/26/2021 12:15:00 AM 14.54 58.172 0.474 7.75 5.21 9.54
9/26/2021 12:30:00 AM 14.47 58.046 0.474 7.75 5.26 9.57
9/26/2021 12:45:00 AM 14.4 57.92 0.474 7.75 5.57 9.58
9/26/2021 1:00:00 AM 14.33 57.794 0.474 7.75 4.72 9.6
9/26/2021 1:15:00 AM 14.27 57.686 0.474 7.75 5.93 9.61
9/26/2021 1:30:00 AM 14.21 57.578 0.474 7.75 4.96 9.63
9/26/2021 1:45:00 AM 14.17 57.506 0.475 7.75 4.8 9.65
9/26/2021 2:00:00 AM 14.14 57.452 0.475 7.74 5 9.65
9/26/2021 2:15:00 AM 14.11 57.398 0.475 7.74 5.19 9.67
9/26/2021 2:30:00 AM 14.08 57.344 0.475 7.74 5.78 9.68
9/26/2021 2:45:00 AM 14.06 57.308 0.475 7.74 6.36 9.68
9/26/2021 3:00:00 AM 14.04 57.272 0.475 7.74 5.84 9.69
9/26/2021 3:15:00 AM 14.02 57.236 0.475 7.74 6 9.68
9/26/2021 3:30:00 AM 14 57.2 0.475 7.74 5.61 9.69
9/26/2021 3:45:00 AM 13.97 57.146 0.475 7.74 6.19 9.71
9/26/2021 4:00:00 AM 13.95 57.11 0.475 7.74 5.38 9.71
9/26/2021 4:15:00 AM 13.92 57.056 0.475 7.74 5.92 9.71
9/26/2021 4:30:00 AM 13.89 57.002 0.475 7.75 5.17 9.72
9/26/2021 4:45:00 AM 13.86 56.948 0.475 7.75 6.12 9.72
9/26/2021 5:00:00 AM 13.82 56.876 0.475 7.75 6.56 9.72
9/26/2021 5:15:00 AM 13.78 56.804 0.475 7.75 5.09 9.73
9/26/2021 5:30:00 AM 13.74 56.732 0.475 7.75 5.88 9.75
9/26/2021 5:45:00 AM 13.7 56.66 0.475 7.75 5.28 9.75
9/26/2021 6:00:00 AM 13.66 56.588 0.475 7.75 5.22 9.76
9/26/2021 6:15:00 AM 13.62 56.516 0.475 7.75 5.01 9.78
9/26/2021 6:30:00 AM 13.58 56.444 0.475 7.75 5.15 9.77
9/26/2021 6:45:00 AM 13.54 56.372 0.475 7.75 4.76 9.8
9/26/2021 7:00:00 AM 13.5 56.3 0.475 7.76 5.34 9.81
9/26/2021 7:15:00 AM 13.45 56.21 0.475 7.76 5.08 9.82
9/26/2021 7:30:00 AM 13.41 56.138 0.475 7.76 4.41 9.85
9/26/2021 7:45:00 AM 13.37 56.066 0.475 7.76 3.98 9.88
9/26/2021 8:00:00 AM 13.32 55.976 0.475 7.76 4.26 9.9
9/26/2021 8:15:00 AM 13.29 55.922 0.475 7.76 4.39 9.93
9/26/2021 8:30:00 AM 13.26 55.868 0.475 7.77 4.18 9.95
9/26/2021 8:45:00 AM 13.23 55.814 0.475 7.76 4.18 9.98
9/26/2021 9:00:00 AM 13.21 55.778 0.475 7.77 3.83 10.01
9/26/2021 9:15:00 AM 13.21 55.778 0.475 7.77 3.85 10.04
9/26/2021 9:30:00 AM 13.21 55.778 0.475 7.78 3.43 10.08
9/26/2021 9:45:00 AM 13.22 55.796 0.475 7.78 3.79 10.11
9/26/2021 10:00:00 AM 13.24 55.832 0.475 7.77 3.16 10.16
9/26/2021 10:15:00 AM 13.27 55.886 0.475 7.79 3.93 10.21
9/26/2021 10:30:00 AM 13.33 55.994 0.475 7.8 3.39 10.26
9/26/2021 10:45:00 AM 13.39 56.102 0.475 7.8 3.37 10.31
9/26/2021 11:00:00 AM 13.46 56.228 0.475 7.81 3.35 10.36
9/26/2021 11:15:00 AM 13.54 56.372 0.475 7.82 3.45 10.4
9/26/2021 11:30:00 AM 13.63 56.534 0.475 7.83 3.61 10.45
9/26/2021 11:45:00 AM 13.74 56.732 0.475 7.84 3.54 10.49
9/26/2021 12:00:00 PM 13.88 56.984 0.475 7.85 3.76 10.54
9/26/2021 12:15:00 PM 14.05 57.29 0.475 7.86 3.54 10.58
9/26/2021 12:30:00 PM 14.25 57.65 0.474 7.87 3.42 10.63
9/26/2021 12:45:00 PM 14.49 58.082 0.474 7.88 3.2 10.66
9/26/2021 1:00:00 PM 14.71 58.478 0.474 7.9 3.75 10.66
9/26/2021 1:15:00 PM 14.94 58.892 0.474 7.92 3.62 10.68
9/26/2021 1:30:00 PM 15.18 59.324 0.473 7.93 3.63 10.69
9/26/2021 1:45:00 PM 15.4 59.72 0.473 7.94 3.59 10.66
9/26/2021 2:00:00 PM 15.56 60.008 0.473 7.95 3.57 10.6
9/26/2021 2:15:00 PM 15.75 60.35 0.473 7.96 3.5 10.58
9/26/2021 2:30:00 PM 15.95 60.71 0.473 7.97 3.61 10.56
9/26/2021 2:45:00 PM 16.09 60.962 0.473 7.98 3.53 10.51
9/26/2021 3:00:00 PM 16.24 61.232 0.473 7.99 3.42 10.47
9/26/2021 3:15:00 PM 16.41 61.538 0.473 7.99 4.22 10.42
9/26/2021 3:30:00 PM 16.54 61.772 0.473 8 3.6 10.35
9/26/2021 3:45:00 PM 16.65 61.97 0.473 8 3.75 10.27
9/26/2021 4:00:00 PM 16.73 62.114 0.473 8 3.62 10.18
9/26/2021 4:15:00 PM 16.77 62.186 0.473 8 3.6 10.13
9/26/2021 4:30:00 PM 16.81 62.258 0.473 7.99 3.73 10.06
9/26/2021 4:45:00 PM 16.81 62.258 0.473 7.99 3.84 9.98
9/26/2021 5:00:00 PM 16.8 62.24 0.474 7.98 4.13 9.91
9/26/2021 5:15:00 PM 16.78 62.204 0.474 7.97 4.24 9.85
9/26/2021 5:30:00 PM 16.75 62.15 0.474 7.96 3.99 9.78
9/26/2021 5:45:00 PM 16.71 62.078 0.474 7.96 4.29 9.7
9/26/2021 6:00:00 PM 16.67 62.006 0.474 7.95 4.09 9.64
9/26/2021 6:15:00 PM 16.62 61.916 0.474 7.94 4.08 9.59
9/26/2021 6:30:00 PM 16.57 61.826 0.474 7.93 4.04 9.55
9/26/2021 6:45:00 PM 16.51 61.718 0.475 7.92 4.42 9.52
9/26/2021 7:00:00 PM 16.45 61.61 0.475 7.91 4.14 9.49
9/26/2021 7:15:00 PM 16.37 61.466 0.475 7.91 3.94 9.46
9/26/2021 7:30:00 PM 16.3 61.34 0.475 7.9 4.02 9.45
9/26/2021 7:45:00 PM 16.22 61.196 0.475 7.89 4.21 9.44
9/26/2021 8:00:00 PM 16.13 61.034 0.475 7.89 4.08 9.44
9/26/2021 8:15:00 PM 16.03 60.854 0.476 7.88 4.56 9.44
9/26/2021 8:30:00 PM 15.93 60.674 0.476 7.87 4.68 9.44
9/26/2021 8:45:00 PM 15.82 60.476 0.476 7.86 4.4 9.45
9/26/2021 9:00:00 PM 15.69 60.242 0.477 7.86 4.46 9.47
9/26/2021 9:15:00 PM 15.56 60.008 0.477 7.85 4.33 9.47
9/26/2021 9:30:00 PM 15.42 59.756 0.477 7.85 4.46 9.5
9/26/2021 9:45:00 PM 15.28 59.504 0.478 7.84 4.28 9.53
9/26/2021 10:00:00 PM 15.13 59.234 0.478 7.83 4.65 9.52
9/26/2021 10:15:00 PM 14.98 58.964 0.479 7.83 4.59 9.56
9/26/2021 10:30:00 PM 14.84 58.712 0.48 7.81 5.61 9.58
9/26/2021 10:45:00 PM 14.69 58.442 0.48 7.81 7.6 9.58
9/26/2021 11:00:00 PM 14.54 58.172 0.481 7.8 5.61 9.6
9/26/2021 11:15:00 PM 14.41 57.938 0.481 7.8 5.42 9.62
9/26/2021 11:30:00 PM 14.28 57.704 0.481 7.79 6.69 9.63
9/26/2021 11:45:00 PM 14.16 57.488 0.481 7.79 6.43 9.65
9/27/2021 12:00:00 AM 14.05 57.29 0.482 7.79 6.6 9.69
9/27/2021 12:15:00 AM 13.96 57.128 0.482 7.78 5.2 9.72
9/27/2021 12:30:00 AM 13.86 56.948 0.482 7.78 4.87 9.71
9/27/2021 12:45:00 AM 13.78 56.804 0.482 7.78 4.63 9.76
9/27/2021 1:00:00 AM 13.7 56.66 0.482 7.78 5.29 9.77
9/27/2021 1:15:00 AM 13.63 56.534 0.483 7.77 4.82 9.8
9/27/2021 1:30:00 AM 13.56 56.408 0.483 7.78 4.65 9.81
9/27/2021 1:45:00 AM 13.5 56.3 0.483 7.77 4.74 9.83
9/27/2021 2:00:00 AM 13.44 56.192 0.483 7.77 4.89 9.85
9/27/2021 2:15:00 AM 13.39 56.102 0.483 7.78 4.7 9.87
9/27/2021 2:30:00 AM 13.34 56.012 0.483 7.78 5.6 9.89
9/27/2021 2:45:00 AM 13.3 55.94 0.483 7.77 4.84 9.91
9/27/2021 3:00:00 AM 13.26 55.868 0.483 7.78 4.73 9.91
9/27/2021 3:15:00 AM 13.22 55.796 0.483 7.78 4.79 9.92
9/27/2021 3:30:00 AM 13.19 55.742 0.483 7.78 4.71 9.92
9/27/2021 3:45:00 AM 13.15 55.67 0.484 7.77 5.5 9.94
9/27/2021 4:00:00 AM 13.12 55.616 0.483 7.78 4.95 9.96
9/27/2021 4:15:00 AM 13.09 55.562 0.484 7.78 4.56 9.96
9/27/2021 4:30:00 AM 13.06 55.508 0.484 7.78 4 9.97
9/27/2021 4:45:00 AM 13.03 55.454 0.484 7.77 5.71 9.98
9/27/2021 5:00:00 AM 13 55.4 0.483 7.78 4.85 9.98
9/27/2021 5:15:00 AM 12.96 55.328 0.484 7.78 4.55 9.99
9/27/2021 5:30:00 AM 12.93 55.274 0.484 7.78 5.11 10
9/27/2021 5:45:00 AM 12.9 55.22 0.484 7.78 4.95 10
9/27/2021 6:00:00 AM 12.88 55.184 0.484 7.77 4.46 10.01
9/27/2021 6:15:00 AM 12.85 55.13 0.484 7.78 4.56 10.03
9/27/2021 6:30:00 AM 12.82 55.076 0.484 7.78 4.69 10.04
9/27/2021 6:45:00 AM 12.81 55.058 0.484 7.78 4.4 10.05
9/27/2021 7:00:00 AM 12.79 55.022 0.484 7.78 4.59 10.05
9/27/2021 7:15:00 AM 12.77 54.986 0.483 7.79 4.61 10.05
9/27/2021 7:30:00 AM 12.77 54.986 0.483 7.79 4.59 10.09
9/27/2021 7:45:00 AM 12.76 54.968 0.484 7.78 4.51 10.11
9/27/2021 8:00:00 AM 12.74 54.932 0.483 7.79 4.3 10.13
9/27/2021 8:15:00 AM 12.74 54.932 0.483 7.79 4.08 10.15
9/27/2021 8:30:00 AM 12.75 54.95 0.483 7.79 4.1 10.19
9/27/2021 8:45:00 AM 12.78 55.004 0.483 7.8 3.73 10.26
9/27/2021 9:00:00 AM 12.79 55.022 0.483 7.79 3.74 10.29
9/27/2021 9:15:00 AM 12.81 55.058 0.483 7.8 3.27 10.29
9/27/2021 9:30:00 AM 12.84 55.112 0.483 7.8 3.48 10.31
9/27/2021 9:45:00 AM 12.87 55.166 0.483 7.8 3.89 10.33
9/27/2021 10:00:00 AM 12.93 55.274 0.483 7.81 3.35 10.37
9/27/2021 10:15:00 AM 12.99 55.382 0.483 7.81 3.24 10.41
9/27/2021 10:30:00 AM 13.08 55.544 0.483 7.82 3.11 10.48
9/27/2021 10:45:00 AM 13.17 55.706 0.483 7.83 3.13 10.53
9/27/2021 11:00:00 AM 13.28 55.904 0.483 7.84 3.01 10.57
9/27/2021 11:15:00 AM 13.4 56.12 0.483 7.85 3.2 10.6
9/27/2021 11:30:00 AM 13.53 56.354 0.482 7.86 3.31 10.65
9/27/2021 11:45:00 AM 13.68 56.624 0.482 7.86 3.14 10.7
9/27/2021 12:00:00 PM 13.85 56.93 0.482 7.87 3.48 10.74
9/27/2021 12:15:00 PM 14.04 57.272 0.482 7.89 3.97 10.79
9/27/2021 12:30:00 PM 14.27 57.686 0.481 7.91 3.26 10.83
9/27/2021 12:45:00 PM 14.51 58.118 0.481 7.93 3.36 10.89
9/27/2021 1:00:00 PM 14.75 58.55 0.48 7.95 3.22 10.91
9/27/2021 1:15:00 PM 15.02 59.036 0.48 7.97 3.24 10.94
9/27/2021 1:30:00 PM 15.28 59.504 0.48 7.99 3.16 10.94
9/27/2021 1:45:00 PM 15.56 60.008 0.479 8.01 3.32 10.93
9/27/2021 2:00:00 PM 15.82 60.476 0.479 8.03 3.29 10.92
9/27/2021 2:15:00 PM 16.06 60.908 0.479 8.04 3.12 10.89
9/27/2021 2:30:00 PM 16.26 61.268 0.478 8.05 3.25 10.83
9/27/2021 2:45:00 PM 16.44 61.592 0.478 8.06 3.35 10.74
9/27/2021 3:00:00 PM 16.61 61.898 0.478 8.07 3.34 10.66
9/27/2021 3:15:00 PM 16.77 62.186 0.478 8.08 3.39 10.56
9/27/2021 3:30:00 PM 16.92 62.456 0.478 8.08 3.66 10.47
9/27/2021 3:45:00 PM 17.05 62.69 0.478 8.07 4.09 10.36
9/27/2021 4:00:00 PM 17.16 62.888 0.479 8.07 4 10.29
9/27/2021 4:15:00 PM 17.25 63.05 0.478 8.07 3.99 10.21
9/27/2021 4:30:00 PM 17.31 63.158 0.478 8.07 3.89 10.15
9/27/2021 4:45:00 PM 17.35 63.23 0.478 8.06 3.76 10.06
9/27/2021 5:00:00 PM 17.36 63.248 0.478 8.06 3.66 9.99
9/27/2021 5:15:00 PM 17.36 63.248 0.478 8.05 3.46 9.92
9/27/2021 5:30:00 PM 17.35 63.23 0.478 8.04 3.61 9.84
9/27/2021 5:45:00 PM 17.33 63.194 0.478 8.03 3.57 9.74
9/27/2021 6:00:00 PM 17.31 63.158 0.478 8.02 3.68 9.65
9/27/2021 6:15:00 PM 17.3 63.14 0.478 8.01 3.62 9.59
9/27/2021 6:30:00 PM 17.28 63.104 0.478 8 3.59 9.53
9/27/2021 6:45:00 PM 17.26 63.068 0.478 7.99 3.52 9.46
9/27/2021 7:00:00 PM 17.23 63.014 0.478 7.98 3.59 9.4
9/27/2021 7:15:00 PM 17.19 62.942 0.478 7.97 3.96 9.35
9/27/2021 7:30:00 PM 17.14 62.852 0.478 7.96 5.52 9.33
9/27/2021 7:45:00 PM 17.08 62.744 0.479 7.95 3.9 9.31
9/27/2021 8:00:00 PM 17.01 62.618 0.479 7.94 4.38 9.28
9/27/2021 8:15:00 PM 16.94 62.492 0.479 7.93 4.41 9.27
9/27/2021 8:30:00 PM 16.85 62.33 0.48 7.92 4.3 9.26
9/27/2021 8:45:00 PM 16.75 62.15 0.48 7.91 4 9.26
9/27/2021 9:00:00 PM 16.65 61.97 0.481 7.91 4.35 9.26
9/27/2021 9:15:00 PM 16.54 61.772 0.481 7.9 4.22 9.25
9/27/2021 9:30:00 PM 16.43 61.574 0.482 7.89 4.48 9.26
9/27/2021 9:45:00 PM 16.31 61.358 0.482 7.88 4.47 9.27
9/27/2021 10:00:00 PM 16.19 61.142 0.483 7.87 4.31 9.27
9/27/2021 10:15:00 PM 16.06 60.908 0.484 7.86 4.49 9.28
9/27/2021 10:30:00 PM 15.92 60.656 0.484 7.85 4.27 9.27
9/27/2021 10:45:00 PM 15.79 60.422 0.485 7.84 4.43 9.3
9/27/2021 11:00:00 PM 15.65 60.17 0.485 7.83 4.48 9.3
9/27/2021 11:15:00 PM 15.52 59.936 0.486 7.83 4.32 9.32
9/27/2021 11:30:00 PM 15.4 59.72 0.486 7.82 4.85 9.34
9/27/2021 11:45:00 PM 15.29 59.522 0.487 7.81 5.59 9.37
9/28/2021 12:00:00 AM 15.18 59.324 0.487 7.81 5.26 9.38
9/28/2021 12:15:00 AM 15.08 59.144 0.487 7.8 4.8 9.41
9/28/2021 12:30:00 AM 14.98 58.964 0.487 7.8 4.89 9.43
9/28/2021 12:45:00 AM 14.89 58.802 0.487 7.8 5 9.43
9/28/2021 1:00:00 AM 14.82 58.676 0.487 7.8 5.32 9.45
9/28/2021 1:15:00 AM 14.74 58.532 0.488 7.79 5.02 9.48
9/28/2021 1:30:00 AM 14.68 58.424 0.488 7.79 4.7 9.49
9/28/2021 1:45:00 AM 14.61 58.298 0.488 7.79 4.88 9.51
9/28/2021 2:00:00 AM 14.55 58.19 0.488 7.79 4.38 9.53
9/28/2021 2:15:00 AM 14.49 58.082 0.488 7.79 4.14 9.54
9/28/2021 2:30:00 AM 14.44 57.992 0.488 7.79 4.41 9.55
9/28/2021 2:45:00 AM 14.39 57.902 0.488 7.79 4.65 9.57
9/28/2021 3:00:00 AM 14.34 57.812 0.488 7.79 4.22 9.58
9/28/2021 3:15:00 AM 14.29 57.722 0.488 7.79 5.33 9.59
9/28/2021 3:30:00 AM 14.25 57.65 0.488 7.79 5.1 9.61
9/28/2021 3:45:00 AM 14.21 57.578 0.489 7.79 8.6 9.61
9/28/2021 4:00:00 AM 14.17 57.506 0.489 7.79 5.33 9.61
9/28/2021 4:15:00 AM 14.13 57.434 0.489 7.79 5.18 9.63
9/28/2021 4:30:00 AM 14.1 57.38 0.489 7.78 4.65 9.63
9/28/2021 4:45:00 AM 14.08 57.344 0.489 7.78 5.58 9.65
9/28/2021 5:00:00 AM 14.05 57.29 0.489 7.78 5.49 9.66
9/28/2021 5:15:00 AM 14.03 57.254 0.489 7.78 5.62 9.67
9/28/2021 5:30:00 AM 14.01 57.218 0.488 7.78 4.69 9.66
9/28/2021 5:45:00 AM 14 57.2 0.488 7.78 4.82 9.68
9/28/2021 6:00:00 AM 13.98 57.164 0.488 7.78 4.38 9.67
9/28/2021 6:15:00 AM 13.97 57.146 0.488 7.78 4.6 9.67
9/28/2021 6:30:00 AM 13.95 57.11 0.488 7.78 4.65 9.67
9/28/2021 6:45:00 AM 13.94 57.092 0.488 7.78 5.25 9.69
9/28/2021 7:00:00 AM 13.93 57.074 0.488 7.77 4.71 9.69
9/28/2021 7:15:00 AM 13.92 57.056 0.488 7.78 4.5 9.71
9/28/2021 7:30:00 AM 13.91 57.038 0.488 7.78 4.67 9.71
9/28/2021 7:45:00 AM 13.9 57.02 0.487 7.77 4.49 9.73
9/28/2021 8:00:00 AM 13.9 57.02 0.487 7.78 4.17 9.72
9/28/2021 8:15:00 AM 13.9 57.02 0.486 7.78 4.6 9.72
9/28/2021 8:30:00 AM 13.9 57.02 0.485 7.77 4.11 9.72
9/28/2021 8:45:00 AM 13.91 57.038 0.485 7.77 4.98 9.73
9/28/2021 9:00:00 AM 13.92 57.056 0.484 7.77 4.02 9.73
9/28/2021 9:15:00 AM 13.93 57.074 0.484 7.77 3.56 9.74
9/28/2021 9:30:00 AM 13.96 57.128 0.483 7.76 3.76 9.79
9/28/2021 9:45:00 AM 13.98 57.164 0.483 7.77 3.38 9.83
9/28/2021 10:00:00 AM 14.02 57.236 0.482 7.78 3.78 9.9
9/28/2021 10:15:00 AM 14.06 57.308 0.483 7.78 3.75 9.95
9/28/2021 10:30:00 AM 14.1 57.38 0.483 7.8 3.33 9.98
9/28/2021 10:45:00 AM 14.16 57.488 0.483 7.81 3.04 10.08
9/28/2021 11:00:00 AM 14.24 57.632 0.483 7.83 2.97 10.24
9/28/2021 11:15:00 AM 14.37 57.866 0.483 7.85 3.09 10.4
9/28/2021 11:30:00 AM 14.5 58.1 0.483 7.87 3.1 10.54
9/28/2021 11:45:00 AM 14.6 58.28 0.483 7.89 3.39 10.62
9/28/2021 12:00:00 PM 14.67 58.406 0.483 7.9 3.06 10.58
9/28/2021 12:15:00 PM 14.72 58.496 0.482 7.9 3.28 10.62
9/28/2021 12:30:00 PM 14.8 58.64 0.482 7.91 3.37 10.63
9/28/2021 12:45:00 PM 14.89 58.802 0.482 7.93 3.28 10.67
9/28/2021 1:00:00 PM 14.98 58.964 0.481 7.94 3.15 10.71
9/28/2021 1:15:00 PM 15.08 59.144 0.481 7.95 3.21 10.74
9/28/2021 1:30:00 PM 15.16 59.288 0.481 7.96 2.98 10.72
9/28/2021 1:45:00 PM 15.22 59.396 0.481 7.96 2.84 10.62
9/28/2021 2:00:00 PM 15.27 59.486 0.481 7.96 2.98 10.54
9/28/2021 2:15:00 PM 15.34 59.612 0.481 7.97 2.93 10.51
9/28/2021 2:30:00 PM 15.41 59.738 0.481 7.98 3.22 10.52
9/28/2021 2:45:00 PM 15.46 59.828 0.481 7.99 3 10.47
9/28/2021 3:00:00 PM 15.52 59.936 0.481 7.99 3.18 10.39
9/28/2021 3:15:00 PM 15.62 60.116 0.481 8 2.99 10.39
9/28/2021 3:30:00 PM 15.76 60.368 0.481 8.02 3.2 10.46
9/28/2021 3:45:00 PM 15.91 60.638 0.48 8.03 3.24 10.43
9/28/2021 4:00:00 PM 16.05 60.89 0.48 8.04 3.63 10.39
9/28/2021 4:15:00 PM 16.18 61.124 0.48 8.04 3.64 10.35
9/28/2021 4:30:00 PM 16.27 61.286 0.48 8.05 3.65 10.3
9/28/2021 4:45:00 PM 16.37 61.466 0.48 8.06 3.42 10.26
9/28/2021 5:00:00 PM 16.42 61.556 0.48 8.06 3.27 10.21
9/28/2021 5:15:00 PM 16.44 61.592 0.479 8.07 3.15 10.16
9/28/2021 5:30:00 PM 16.46 61.628 0.479 8.06 3.22 10.13
9/28/2021 5:45:00 PM 16.41 61.538 0.479 8.05 3.31 10
9/28/2021 6:00:00 PM 16.37 61.466 0.48 8.03 3.09 9.88
9/28/2021 6:15:00 PM 16.32 61.376 0.48 8.01 3.2 9.81
9/28/2021 6:30:00 PM 16.28 61.304 0.479 8 3.37 9.75
9/28/2021 6:45:00 PM 16.23 61.214 0.479 7.98 3.14 9.69
9/28/2021 7:00:00 PM 16.19 61.142 0.479 7.97 3.16 9.64
9/28/2021 7:15:00 PM 16.16 61.088 0.478 7.96 3.21 9.59
9/28/2021 7:30:00 PM 16.14 61.052 0.477 7.95 3.4 9.58
9/28/2021 7:45:00 PM 16.13 61.034 0.477 7.95 3.56 9.55
9/28/2021 8:00:00 PM 16.12 61.016 0.476 7.94 3.35 9.52
9/28/2021 8:15:00 PM 16.11 60.998 0.475 7.93 3.65 9.49
9/28/2021 8:30:00 PM 16.09 60.962 0.474 7.92 3.62 9.47
9/28/2021 8:45:00 PM 16.06 60.908 0.473 7.91 4.1 9.43
9/28/2021 9:00:00 PM 16.02 60.836 0.473 7.9 4.11 9.4
9/28/2021 9:15:00 PM 15.96 60.728 0.473 7.88 4.07 9.38
9/28/2021 9:30:00 PM 15.89 60.602 0.474 7.87 3.99 9.36
9/28/2021 9:45:00 PM 15.8 60.44 0.475 7.86 4.25 9.34
9/28/2021 10:00:00 PM 15.7 60.26 0.476 7.84 4.66 9.32
9/28/2021 10:15:00 PM 15.59 60.062 0.477 7.83 5.56 9.31
9/28/2021 10:30:00 PM 15.49 59.882 0.479 7.82 6.3 9.31
9/28/2021 10:45:00 PM 15.39 59.702 0.481 7.81 5.17 9.31
9/28/2021 11:00:00 PM 15.29 59.522 0.483 7.8 4.68 9.31
9/28/2021 11:15:00 PM 15.2 59.36 0.484 7.79 5.39 9.31
9/28/2021 11:30:00 PM 15.11 59.198 0.485 7.79 5.37 9.32
9/28/2021 11:45:00 PM 15.02 59.036 0.486 7.78 5.07 9.3
9/29/2021 12:00:00 AM 14.93 58.874 0.486 7.78 5.07 9.3
9/29/2021 12:15:00 AM 14.84 58.712 0.487 7.78 5.3 9.3
9/29/2021 12:30:00 AM 14.77 58.586 0.487 7.78 5.06 9.32
9/29/2021 12:45:00 AM 14.7 58.46 0.487 7.77 5.38 9.32
9/29/2021 1:00:00 AM 14.63 58.334 0.487 7.77 5.05 9.34
9/29/2021 1:15:00 AM 14.57 58.226 0.486 7.77 4.4 9.37
9/29/2021 1:30:00 AM 14.51 58.118 0.485 7.77 4.81 9.38
9/29/2021 1:45:00 AM 14.45 58.01 0.484 7.77 4.25 9.4
9/29/2021 2:00:00 AM 14.4 57.92 0.483 7.76 4.99 9.43
9/29/2021 2:15:00 AM 14.34 57.812 0.481 7.77 4.5 9.45
9/29/2021 2:30:00 AM 14.29 57.722 0.479 7.77 4.74 9.47
9/29/2021 2:45:00 AM 14.24 57.632 0.477 7.77 4.48 9.48
9/29/2021 3:00:00 AM 14.19 57.542 0.476 7.76 4.99 9.5
9/29/2021 3:15:00 AM 14.14 57.452 0.475 7.77 4.54 9.53
9/29/2021 3:30:00 AM 14.08 57.344 0.475 7.77 4.45 9.54
9/29/2021 3:45:00 AM 14.03 57.254 0.476 7.77 4.89 9.56
9/29/2021 4:00:00 AM 13.97 57.146 0.476 7.77 4.84 9.58
9/29/2021 4:15:00 AM 13.92 57.056 0.477 7.77 4.62 9.58
9/29/2021 4:30:00 AM 13.86 56.948 0.478 7.77 4.54 9.61
9/29/2021 4:45:00 AM 13.79 56.822 0.478 7.77 4.44 9.64
9/29/2021 5:00:00 AM 13.72 56.696 0.478 7.77 5.1 9.65
9/29/2021 5:15:00 AM 13.65 56.57 0.478 7.78 5.48 9.68
9/29/2021 5:30:00 AM 13.58 56.444 0.478 7.78 5.38 9.7
9/29/2021 5:45:00 AM 13.52 56.336 0.478 7.78 4.71 9.72
9/29/2021 6:00:00 AM 13.46 56.228 0.477 7.78 5.4 9.73
9/29/2021 6:15:00 AM 13.4 56.12 0.477 7.78 4.59 9.75
9/29/2021 6:30:00 AM 13.34 56.012 0.477 7.78 4.62 9.77
9/29/2021 6:45:00 AM 13.28 55.904 0.477 7.78 4.49 9.8
9/29/2021 7:00:00 AM 13.22 55.796 0.477 7.78 4.61 9.81
9/29/2021 7:15:00 AM 13.17 55.706 0.477 7.78 4.87 9.84
9/29/2021 7:30:00 AM 13.11 55.598 0.477 7.78 4.28 9.87
9/29/2021 7:45:00 AM 13.06 55.508 0.478 7.79 4.16 9.91
9/29/2021 8:00:00 AM 13.01 55.418 0.478 7.79 4.21 9.95
9/29/2021 8:15:00 AM 12.96 55.328 0.478 7.79 4.1 9.99
9/29/2021 8:30:00 AM 12.93 55.274 0.479 7.79 3.5 10.03
9/29/2021 8:45:00 AM 12.93 55.274 0.479 7.81 3.84 10.13
9/29/2021 9:00:00 AM 12.94 55.292 0.479 7.81 3.77 10.23
9/29/2021 9:15:00 AM 12.97 55.346 0.48 7.82 3.17 10.33
9/29/2021 9:30:00 AM 12.99 55.382 0.48 7.84 3.44 10.44
9/29/2021 9:45:00 AM 12.99 55.382 0.48 7.85 3.27 10.49
9/29/2021 10:00:00 AM 13 55.4 0.481 7.85 3.16 10.5
9/29/2021 10:15:00 AM 13.02 55.436 0.481 7.86 3.08 10.54
9/29/2021 10:30:00 AM 13.07 55.526 0.481 7.87 2.87 10.64
9/29/2021 10:45:00 AM 13.11 55.598 0.482 7.88 2.91 10.69
9/29/2021 11:00:00 AM 13.18 55.724 0.482 7.89 2.98 10.73
9/29/2021 11:15:00 AM 13.26 55.868 0.483 7.9 2.84 10.8
9/29/2021 11:30:00 AM 13.35 56.03 0.483 7.91 3.34 10.85
9/29/2021 11:45:00 AM 13.46 56.228 0.483 7.92 3.23 10.92
9/29/2021 12:00:00 PM 13.57 56.426 0.483 7.93 3.41 11
9/29/2021 12:15:00 PM 13.7 56.66 0.483 7.96 3.22 11.09
9/29/2021 12:30:00 PM 13.89 57.002 0.483 7.97 3.16 11.17
9/29/2021 12:45:00 PM 14.07 57.326 0.482 8 3.12 11.24
9/29/2021 1:00:00 PM 14.28 57.704 0.482 8.03 3 11.3
9/29/2021 1:15:00 PM 14.49 58.082 0.481 8.05 2.88 11.35
9/29/2021 1:30:00 PM 14.71 58.478 0.481 8.07 3.05 11.41
9/29/2021 1:45:00 PM 14.94 58.892 0.48 8.1 3.13 11.43
9/29/2021 2:00:00 PM 15.14 59.252 0.48 8.13 3.55 11.45
9/29/2021 2:15:00 PM 15.32 59.576 0.479 8.15 3.05 11.44
9/29/2021 2:30:00 PM 15.5 59.9 0.479 8.17 3.13 11.42
9/29/2021 2:45:00 PM 15.65 60.17 0.478 8.19 3.12 11.36
9/29/2021 3:00:00 PM 15.77 60.386 0.478 8.21 3.38 11.29
9/29/2021 3:15:00 PM 15.91 60.638 0.477 8.22 3.01 11.23
9/29/2021 3:30:00 PM 16.04 60.872 0.477 8.24 3.04 11.15
9/29/2021 3:45:00 PM 16.14 61.052 0.477 8.24 3.07 11.07
9/29/2021 4:00:00 PM 16.19 61.142 0.476 8.25 3.04 10.97
9/29/2021 4:15:00 PM 16.24 61.232 0.476 8.25 3.04 10.89
9/29/2021 4:30:00 PM 16.3 61.34 0.476 8.25 3.18 10.84
9/29/2021 4:45:00 PM 16.33 61.394 0.476 8.25 3.09 10.74
9/29/2021 5:00:00 PM 16.34 61.412 0.476 8.24 2.98 10.65
9/29/2021 5:15:00 PM 16.33 61.394 0.476 8.23 3.02 10.56
9/29/2021 5:30:00 PM 16.3 61.34 0.477 8.22 3.17 10.42
9/29/2021 5:45:00 PM 16.28 61.304 0.477 8.2 3.14 10.3
9/29/2021 6:00:00 PM 16.26 61.268 0.477 8.18 3.37 10.2
9/29/2021 6:15:00 PM 16.22 61.196 0.478 8.17 3.26 10.11
9/29/2021 6:30:00 PM 16.19 61.142 0.478 8.15 3.35 10.03
9/29/2021 6:45:00 PM 16.16 61.088 0.478 8.14 3.16 9.95
9/29/2021 7:00:00 PM 16.11 60.998 0.479 8.12 3.14 9.89
9/29/2021 7:15:00 PM 16.06 60.908 0.479 8.11 3.41 9.83
9/29/2021 7:30:00 PM 15.99 60.782 0.48 8.09 3.72 9.78
9/29/2021 7:45:00 PM 15.92 60.656 0.48 8.07 3.95 9.75
9/29/2021 8:00:00 PM 15.84 60.512 0.48 8.06 4.56 9.71
9/29/2021 8:15:00 PM 15.75 60.35 0.481 8.04 3.89 9.7
9/29/2021 8:30:00 PM 15.64 60.152 0.482 8.02 3.59 9.68
9/29/2021 8:45:00 PM 15.51 59.918 0.483 8.01 3.74 9.67
9/29/2021 9:00:00 PM 15.37 59.666 0.484 7.99 3.9 9.66
9/29/2021 9:15:00 PM 15.24 59.432 0.484 7.97 3.97 9.65
9/29/2021 9:30:00 PM 15.11 59.198 0.485 7.95 3.9 9.66
9/29/2021 9:45:00 PM 14.98 58.964 0.486 7.94 3.9 9.68
9/29/2021 10:00:00 PM 14.87 58.766 0.487 7.93 4.1 9.68
9/29/2021 10:15:00 PM 14.76 58.568 0.488 7.91 3.75 9.69
9/29/2021 10:30:00 PM 14.65 58.37 0.489 7.91 3.72 9.68
9/29/2021 10:45:00 PM 14.54 58.172 0.49 7.89 6.06 9.68
9/29/2021 11:00:00 PM 14.43 57.974 0.491 7.88 4.6 9.68
9/29/2021 11:15:00 PM 14.31 57.758 0.491 7.87 4.36 9.69
9/29/2021 11:30:00 PM 14.21 57.578 0.492 7.86 4.11 9.69
9/29/2021 11:45:00 PM 14.11 57.398 0.493 7.85 4.2 9.7
9/30/2021 12:00:00 AM 14.02 57.236 0.493 7.84 4.34 9.71
9/30/2021 12:15:00 AM 13.94 57.092 0.493 7.84 4.39 9.72
9/30/2021 12:30:00 AM 13.87 56.966 0.494 7.83 4 9.74
9/30/2021 12:45:00 AM 13.79 56.822 0.494 7.83 4.28 9.76
9/30/2021 1:00:00 AM 13.72 56.696 0.494 7.82 4.53 9.77
9/30/2021 1:15:00 AM 13.66 56.588 0.494 7.82 4.37 9.78
9/30/2021 1:30:00 AM 13.61 56.498 0.494 7.82 3.91 9.8
9/30/2021 1:45:00 AM 13.55 56.39 0.495 7.81 4.25 9.82
9/30/2021 2:00:00 AM 13.49 56.282 0.495 7.82 3.97 9.83
9/30/2021 2:15:00 AM 13.43 56.174 0.495 7.81 4.12 9.84
9/30/2021 2:30:00 AM 13.39 56.102 0.495 7.81 4.1 9.85
9/30/2021 2:45:00 AM 13.35 56.03 0.495 7.82 4.72 9.87
9/30/2021 3:00:00 AM 13.3 55.94 0.496 7.82 4.77 9.88
9/30/2021 3:15:00 AM 13.26 55.868 0.496 7.81 4.26 9.88
9/30/2021 3:30:00 AM 13.22 55.796 0.496 7.81 4.51 9.89
9/30/2021 3:45:00 AM 13.18 55.724 0.496 7.81 4.31 9.91
9/30/2021 4:00:00 AM 13.13 55.634 0.496 7.81 4.25 9.92
9/30/2021 4:15:00 AM 13.09 55.562 0.497 7.81 4.86 9.92
9/30/2021 4:30:00 AM 13.05 55.49 0.497 7.81 5.1 9.93
9/30/2021 4:45:00 AM 13 55.4 0.497 7.81 4.38 9.95
9/30/2021 5:00:00 AM 12.95 55.31 0.497 7.81 5.29 9.96
9/30/2021 5:15:00 AM 12.91 55.238 0.497 7.82 4.63 9.96
9/30/2021 5:30:00 AM 12.86 55.148 0.497 7.82 4.23 9.99
9/30/2021 5:45:00 AM 12.81 55.058 0.497 7.82 4.46 10
9/30/2021 6:00:00 AM 12.77 54.986 0.497 7.82 4.43 10
9/30/2021 6:15:00 AM 12.72 54.896 0.497 7.81 4.74 10.02
9/30/2021 6:30:00 AM 12.68 54.824 0.496 7.82 4.66 10.01
9/30/2021 6:45:00 AM 12.63 54.734 0.496 7.82 4.91 10.04
9/30/2021 7:00:00 AM 12.59 54.662 0.496 7.81 4.43 10.06
9/30/2021 7:15:00 AM 12.55 54.59 0.496 7.81 3.85 10.07
9/30/2021 7:30:00 AM 12.51 54.518 0.496 7.82 4.72 10.11
9/30/2021 7:45:00 AM 12.47 54.446 0.496 7.82 4.6 10.15
9/30/2021 8:00:00 AM 12.44 54.392 0.496 7.83 5.35 10.19
9/30/2021 8:15:00 AM 12.41 54.338 0.495 7.83 3.45 10.22
9/30/2021 8:30:00 AM 12.4 54.32 0.495 7.84 3.45 10.3
9/30/2021 8:45:00 AM 12.39 54.302 0.495 7.84 3.3 10.33
9/30/2021 9:00:00 AM 12.39 54.302 0.495 7.84 3.24 10.38
9/30/2021 9:15:00 AM 12.39 54.302 0.495 7.85 3.14 10.41
9/30/2021 9:30:00 AM 12.41 54.338 0.495 7.85 2.8 10.47
9/30/2021 9:45:00 AM 12.43 54.374 0.495 7.86 2.83 10.53
9/30/2021 10:00:00 AM 12.47 54.446 0.495 7.87 2.86 10.59